PWSweather.com
Personal Weather Stations
Station Observations
KINFRANK9
Frankfort, IN 46041

Frankfort, IN 46041

Lat: 40.3642688, Lon: -86.4684948

Elevation: 857

Station Type: Ambient Weather

High Low Average
Temperature 61.0°F16.1°C 42.8°F6.0°C 52.5°F11.4°C
Dew Point 49.7°F9.8°C 38.9°F3.8°C 44.9°F7.2°C
Winds 16.8 mph 27.0 kmh 5.4 mph 8.7 kmh 11.0 mph E17.7 kmh E
Wind Gusts 20.6 mph33.2 kmh 12.1 mph19.5 kmh 17.0 mph27.4 kmh
Humidity 93% 63% 77%
Pressure 30.16 in1021.3 mb 30.07 in1018.3 mb -
Precipitation 0.00 in0.0 mm - -
Hour Temp Dew Point Humidity Winds Wind Gusts Pressure Precip Precip Rate Daily Precip Total
12:00 AM 45.0°F7.2°C 41.9°F5.5°C 89% 8.3 mph E13.4 kmh E 15.9 mph25.6 kmh 30.15 in1021.0 mb 0.00 in0.0 mm 0.00 in/hr0.0 mm/hr 0.00 in0.0 mm
12:01 AM 44.8°F7.1°C 42.0°F5.6°C 90% 9.8 mph ENE15.8 kmh ENE 15.9 mph25.6 kmh 30.15 in1021.0 mb 0.00 in0.0 mm 0.00 in/hr0.0 mm/hr 0.00 in0.0 mm
12:02 AM 44.8°F7.1°C 42.0°F5.6°C 90% 9.2 mph ENE14.8 kmh ENE 15.9 mph25.6 kmh 30.15 in1021.0 mb 0.00 in0.0 mm 0.00 in/hr0.0 mm/hr 0.00 in0.0 mm
12:03 AM 44.8°F7.1°C 42.0°F5.6°C 90% 9.2 mph ENE14.8 kmh ENE 15.9 mph25.6 kmh 30.15 in1021.0 mb 0.00 in0.0 mm 0.00 in/hr0.0 mm/hr 0.00 in0.0 mm
12:04 AM 44.8°F7.1°C 42.0°F5.6°C 90% 8.3 mph E13.4 kmh E 15.2 mph24.5 kmh 30.15 in1021.0 mb 0.00 in0.0 mm 0.00 in/hr0.0 mm/hr 0.00 in0.0 mm
12:05 AM 44.8°F7.1°C 42.0°F5.6°C 90% 10.7 mph E17.2 kmh E 15.2 mph24.5 kmh 30.14 in1020.7 mb 0.00 in0.0 mm 0.00 in/hr0.0 mm/hr 0.00 in0.0 mm
12:06 AM 44.8°F7.1°C 42.0°F5.6°C 90% 11.4 mph ENE18.3 kmh ENE 15.2 mph24.5 kmh 30.14 in1020.7 mb 0.00 in0.0 mm 0.00 in/hr0.0 mm/hr 0.00 in0.0 mm
12:07 AM 44.8°F7.1°C 42.0°F5.6°C 90% 9.8 mph ENE15.8 kmh ENE 15.2 mph24.5 kmh 30.14 in1020.7 mb 0.00 in0.0 mm 0.00 in/hr0.0 mm/hr 0.00 in0.0 mm
12:08 AM 44.8°F7.1°C 42.0°F5.6°C 90% 8.3 mph ENE13.4 kmh ENE 15.2 mph24.5 kmh 30.14 in1020.7 mb 0.00 in0.0 mm 0.00 in/hr0.0 mm/hr 0.00 in0.0 mm
12:09 AM 44.8°F7.1°C 42.0°F5.6°C 90% 10.7 mph ENE17.2 kmh ENE 15.2 mph24.5 kmh 30.14 in1020.7 mb 0.00 in0.0 mm 0.00 in/hr0.0 mm/hr 0.00 in0.0 mm
12:10 AM 44.6°F7.0°C 41.8°F5.4°C 90% 10.7 mph ENE17.2 kmh ENE 17.4 mph28.0 kmh 30.14 in1020.7 mb 0.00 in0.0 mm 0.00 in/hr0.0 mm/hr 0.00 in0.0 mm
12:11 AM 44.6°F7.0°C 41.8°F5.4°C 90% 8.3 mph ENE13.4 kmh ENE 17.4 mph28.0 kmh 30.14 in1020.7 mb 0.00 in0.0 mm 0.00 in/hr0.0 mm/hr 0.00 in0.0 mm
12:12 AM 44.6°F7.0°C 41.8°F5.4°C 90% 9.2 mph ENE14.8 kmh ENE 17.4 mph28.0 kmh 30.14 in1020.7 mb 0.00 in0.0 mm 0.00 in/hr0.0 mm/hr 0.00 in0.0 mm
12:13 AM 44.6°F7.0°C 41.8°F5.4°C 90% 6.0 mph ENE9.7 kmh ENE 17.4 mph28.0 kmh 30.15 in1021.0 mb 0.00 in0.0 mm 0.00 in/hr0.0 mm/hr 0.00 in0.0 mm
12:14 AM 44.6°F7.0°C 41.8°F5.4°C 90% 8.3 mph ENE13.4 kmh ENE 17.4 mph28.0 kmh 30.15 in1021.0 mb 0.00 in0.0 mm 0.00 in/hr0.0 mm/hr 0.00 in0.0 mm
12:15 AM 44.6°F7.0°C 42.1°F5.6°C 91% 8.3 mph ENE13.4 kmh ENE 17.4 mph28.0 kmh 30.15 in1021.0 mb 0.00 in0.0 mm 0.00 in/hr0.0 mm/hr 0.00 in0.0 mm
12:16 AM 44.6°F7.0°C 42.1°F5.6°C 91% 8.3 mph ENE13.4 kmh ENE 17.4 mph28.0 kmh 30.14 in1020.7 mb 0.00 in0.0 mm 0.00 in/hr0.0 mm/hr 0.00 in0.0 mm
12:17 AM 44.6°F7.0°C 42.1°F5.6°C 91% 6.9 mph ENE11.1 kmh ENE 17.4 mph28.0 kmh 30.15 in1021.0 mb 0.00 in0.0 mm 0.00 in/hr0.0 mm/hr 0.00 in0.0 mm
12:18 AM 44.6°F7.0°C 42.1°F5.6°C 91% 6.0 mph ENE9.7 kmh ENE 17.4 mph28.0 kmh 30.15 in1021.0 mb 0.00 in0.0 mm 0.00 in/hr0.0 mm/hr 0.00 in0.0 mm
12:19 AM 44.6°F7.0°C 42.1°F5.6°C 91% 7.6 mph ENE12.2 kmh ENE 17.4 mph28.0 kmh 30.14 in1020.7 mb 0.00 in0.0 mm 0.00 in/hr0.0 mm/hr 0.00 in0.0 mm
12:20 AM 44.6°F7.0°C 42.1°F5.6°C 91% 9.2 mph ENE14.8 kmh ENE 13.0 mph20.9 kmh 30.14 in1020.7 mb 0.00 in0.0 mm 0.00 in/hr0.0 mm/hr 0.00 in0.0 mm
12:21 AM 44.6°F7.0°C 42.1°F5.6°C 91% 9.8 mph ENE15.8 kmh ENE 13.6 mph21.9 kmh 30.14 in1020.7 mb 0.00 in0.0 mm 0.00 in/hr0.0 mm/hr 0.00 in0.0 mm
12:22 AM 44.6°F7.0°C 42.1°F5.6°C 91% 9.2 mph ENE14.8 kmh ENE 13.6 mph21.9 kmh 30.14 in1020.7 mb 0.00 in0.0 mm 0.00 in/hr0.0 mm/hr 0.00 in0.0 mm
12:23 AM 44.6°F7.0°C 42.1°F5.6°C 91% 9.2 mph ENE14.8 kmh ENE 13.6 mph21.9 kmh 30.14 in1020.7 mb 0.00 in0.0 mm 0.00 in/hr0.0 mm/hr 0.00 in0.0 mm
12:24 AM 44.6°F7.0°C 42.1°F5.6°C 91% 9.2 mph ENE14.8 kmh ENE 13.6 mph21.9 kmh 30.14 in1020.7 mb 0.00 in0.0 mm 0.00 in/hr0.0 mm/hr 0.00 in0.0 mm
12:25 AM 44.6°F7.0°C 42.1°F5.6°C 91% 6.0 mph E9.7 kmh E 13.6 mph21.9 kmh 30.14 in1020.7 mb 0.00 in0.0 mm 0.00 in/hr0.0 mm/hr 0.00 in0.0 mm
12:26 AM 44.4°F6.9°C 42.2°F5.7°C 92% 8.3 mph E13.4 kmh E 13.6 mph21.9 kmh 30.14 in1020.7 mb 0.00 in0.0 mm 0.00 in/hr0.0 mm/hr 0.00 in0.0 mm
12:27 AM 44.4°F6.9°C 42.2°F5.7°C 92% 6.9 mph ENE11.1 kmh ENE 13.6 mph21.9 kmh 30.14 in1020.7 mb 0.00 in0.0 mm 0.00 in/hr0.0 mm/hr 0.00 in0.0 mm
12:28 AM 44.4°F6.9°C 42.2°F5.7°C 92% 7.6 mph ENE12.2 kmh ENE 14.5 mph23.3 kmh 30.14 in1020.7 mb 0.00 in0.0 mm 0.00 in/hr0.0 mm/hr 0.00 in0.0 mm
12:29 AM 44.4°F6.9°C 42.2°F5.7°C 92% 9.8 mph ENE15.8 kmh ENE 14.5 mph23.3 kmh 30.14 in1020.7 mb 0.00 in0.0 mm 0.00 in/hr0.0 mm/hr 0.00 in0.0 mm
12:30 AM 44.4°F6.9°C 42.2°F5.7°C 92% 7.6 mph ENE12.2 kmh ENE 14.5 mph23.3 kmh 30.14 in1020.7 mb 0.00 in0.0 mm 0.00 in/hr0.0 mm/hr 0.00 in0.0 mm
12:31 AM 44.4°F6.9°C 42.2°F5.7°C 92% 5.4 mph ENE8.7 kmh ENE 14.5 mph23.3 kmh 30.13 in1020.3 mb 0.00 in0.0 mm 0.00 in/hr0.0 mm/hr 0.00 in0.0 mm
12:32 AM 44.4°F6.9°C 42.2°F5.7°C 92% 7.6 mph ENE12.2 kmh ENE 14.5 mph23.3 kmh 30.13 in1020.3 mb 0.00 in0.0 mm 0.00 in/hr0.0 mm/hr 0.00 in0.0 mm
12:33 AM 44.4°F6.9°C 42.2°F5.7°C 92% 6.9 mph ENE11.1 kmh ENE 14.5 mph23.3 kmh 30.14 in1020.7 mb 0.00 in0.0 mm 0.00 in/hr0.0 mm/hr 0.00 in0.0 mm
12:34 AM 44.2°F6.8°C 42.3°F5.7°C 93% 6.9 mph ENE11.1 kmh ENE 14.5 mph23.3 kmh 30.14 in1020.7 mb 0.00 in0.0 mm 0.00 in/hr0.0 mm/hr 0.00 in0.0 mm
12:35 AM 44.2°F6.8°C 42.3°F5.7°C 93% 8.3 mph ENE13.4 kmh ENE 14.5 mph23.3 kmh 30.14 in1020.7 mb 0.00 in0.0 mm 0.00 in/hr0.0 mm/hr 0.00 in0.0 mm
12:36 AM 44.2°F6.8°C 42.3°F5.7°C 93% 7.6 mph ENE12.2 kmh ENE 14.5 mph23.3 kmh 30.13 in1020.3 mb 0.00 in0.0 mm 0.00 in/hr0.0 mm/hr 0.00 in0.0 mm
12:37 AM 44.2°F6.8°C 42.3°F5.7°C 93% 8.3 mph ENE13.4 kmh ENE 14.5 mph23.3 kmh 30.14 in1020.7 mb 0.00 in0.0 mm 0.00 in/hr0.0 mm/hr 0.00 in0.0 mm
12:38 AM 44.1°F6.7°C 42.2°F5.7°C 93% 10.7 mph ENE17.2 kmh ENE 14.5 mph23.3 kmh 30.14 in1020.7 mb 0.00 in0.0 mm 0.00 in/hr0.0 mm/hr 0.00 in0.0 mm
12:39 AM 44.1°F6.7°C 42.2°F5.7°C 93% 11.4 mph ENE18.3 kmh ENE 17.4 mph28.0 kmh 30.14 in1020.7 mb 0.00 in0.0 mm 0.00 in/hr0.0 mm/hr 0.00 in0.0 mm
12:40 AM 43.9°F6.6°C 42.0°F5.6°C 93% 11.4 mph ENE18.3 kmh ENE 17.4 mph28.0 kmh 30.13 in1020.3 mb 0.00 in0.0 mm 0.00 in/hr0.0 mm/hr 0.00 in0.0 mm
12:41 AM 43.9°F6.6°C 42.0°F5.6°C 93% 11.4 mph ENE18.3 kmh ENE 17.4 mph28.0 kmh 30.13 in1020.3 mb 0.00 in0.0 mm 0.00 in/hr0.0 mm/hr 0.00 in0.0 mm
12:42 AM 43.7°F6.5°C 41.5°F5.3°C 92% 9.2 mph ENE14.8 kmh ENE 17.4 mph28.0 kmh 30.14 in1020.7 mb 0.00 in0.0 mm 0.00 in/hr0.0 mm/hr 0.00 in0.0 mm
12:43 AM 43.7°F6.5°C 41.5°F5.3°C 92% 10.7 mph E17.2 kmh E 17.4 mph28.0 kmh 30.14 in1020.7 mb 0.00 in0.0 mm 0.00 in/hr0.0 mm/hr 0.00 in0.0 mm
12:44 AM 43.7°F6.5°C 41.5°F5.3°C 92% 13.0 mph E20.9 kmh E 17.4 mph28.0 kmh 30.14 in1020.7 mb 0.00 in0.0 mm 0.00 in/hr0.0 mm/hr 0.00 in0.0 mm
12:45 AM 43.7°F6.5°C 41.5°F5.3°C 92% 13.0 mph E20.9 kmh E 17.4 mph28.0 kmh 30.14 in1020.7 mb 0.00 in0.0 mm 0.00 in/hr0.0 mm/hr 0.00 in0.0 mm
12:46 AM 43.7°F6.5°C 41.5°F5.3°C 92% 13.0 mph E20.9 kmh E 17.4 mph28.0 kmh 30.13 in1020.3 mb 0.00 in0.0 mm 0.00 in/hr0.0 mm/hr 0.00 in0.0 mm
12:47 AM 43.5°F6.4°C 41.4°F5.2°C 92% 11.4 mph E18.3 kmh E 17.4 mph28.0 kmh 30.13 in1020.3 mb 0.00 in0.0 mm 0.00 in/hr0.0 mm/hr 0.00 in0.0 mm
12:48 AM 43.5°F6.4°C 41.4°F5.2°C 92% 9.2 mph E14.8 kmh E 17.4 mph28.0 kmh 30.13 in1020.3 mb 0.00 in0.0 mm 0.00 in/hr0.0 mm/hr 0.00 in0.0 mm
12:49 AM 43.5°F6.4°C 41.4°F5.2°C 92% 11.4 mph E18.3 kmh E 17.4 mph28.0 kmh 30.13 in1020.3 mb 0.00 in0.0 mm 0.00 in/hr0.0 mm/hr 0.00 in0.0 mm
12:50 AM 43.5°F6.4°C 41.4°F5.2°C 92% 11.4 mph E18.3 kmh E 18.3 mph29.5 kmh 30.13 in1020.3 mb 0.00 in0.0 mm 0.00 in/hr0.0 mm/hr 0.00 in0.0 mm
12:51 AM 43.5°F6.4°C 41.4°F5.2°C 92% 10.7 mph E17.2 kmh E 18.3 mph29.5 kmh 30.13 in1020.3 mb 0.00 in0.0 mm 0.00 in/hr0.0 mm/hr 0.00 in0.0 mm
12:52 AM 43.5°F6.4°C 41.4°F5.2°C 92% 11.4 mph E18.3 kmh E 18.3 mph29.5 kmh 30.13 in1020.3 mb 0.00 in0.0 mm 0.00 in/hr0.0 mm/hr 0.00 in0.0 mm
12:53 AM 43.5°F6.4°C 41.4°F5.2°C 92% 9.8 mph ENE15.8 kmh ENE 18.3 mph29.5 kmh 30.12 in1020.0 mb 0.00 in0.0 mm 0.00 in/hr0.0 mm/hr 0.00 in0.0 mm
12:54 AM 43.5°F6.4°C 41.4°F5.2°C 92% 11.4 mph ENE18.3 kmh ENE 18.3 mph29.5 kmh 30.13 in1020.3 mb 0.00 in0.0 mm 0.00 in/hr0.0 mm/hr 0.00 in0.0 mm
12:55 AM 43.5°F6.4°C 41.4°F5.2°C 92% 9.2 mph ENE14.8 kmh ENE 18.3 mph29.5 kmh 30.13 in1020.3 mb 0.00 in0.0 mm 0.00 in/hr0.0 mm/hr 0.00 in0.0 mm
12:56 AM 43.5°F6.4°C 41.4°F5.2°C 92% 9.2 mph ENE14.8 kmh ENE 18.3 mph29.5 kmh 30.13 in1020.3 mb 0.00 in0.0 mm 0.00 in/hr0.0 mm/hr 0.00 in0.0 mm
12:57 AM 43.5°F6.4°C 41.4°F5.2°C 92% 9.2 mph ENE14.8 kmh ENE 18.3 mph29.5 kmh 30.13 in1020.3 mb 0.00 in0.0 mm 0.00 in/hr0.0 mm/hr 0.00 in0.0 mm
12:58 AM 43.5°F6.4°C 41.4°F5.2°C 92% 8.3 mph ENE13.4 kmh ENE 18.3 mph29.5 kmh 30.13 in1020.3 mb 0.00 in0.0 mm 0.00 in/hr0.0 mm/hr 0.00 in0.0 mm
12:59 AM 43.3°F6.3°C 41.2°F5.1°C 92% 9.8 mph NE15.8 kmh NE 18.3 mph29.5 kmh 30.13 in1020.3 mb 0.00 in0.0 mm 0.00 in/hr0.0 mm/hr 0.00 in0.0 mm
01:00 AM 43.3°F6.3°C 41.2°F5.1°C 92% 9.8 mph NE15.8 kmh NE 17.4 mph28.0 kmh 30.13 in1020.3 mb 0.00 in0.0 mm 0.00 in/hr0.0 mm/hr 0.00 in0.0 mm
01:01 AM 43.3°F6.3°C 41.2°F5.1°C 92% 9.8 mph ENE15.8 kmh ENE 17.4 mph28.0 kmh 30.13 in1020.3 mb 0.00 in0.0 mm 0.00 in/hr0.0 mm/hr 0.00 in0.0 mm
01:02 AM 43.3°F6.3°C 41.2°F5.1°C 92% 9.8 mph ENE15.8 kmh ENE 14.5 mph23.3 kmh 30.13 in1020.3 mb 0.00 in0.0 mm 0.00 in/hr0.0 mm/hr 0.00 in0.0 mm
01:03 AM 43.3°F6.3°C 41.2°F5.1°C 92% 9.8 mph ENE15.8 kmh ENE 13.6 mph21.9 kmh 30.13 in1020.3 mb 0.00 in0.0 mm 0.00 in/hr0.0 mm/hr 0.00 in0.0 mm
01:04 AM 43.3°F6.3°C 41.2°F5.1°C 92% 9.8 mph ENE15.8 kmh ENE 13.6 mph21.9 kmh 30.13 in1020.3 mb 0.00 in0.0 mm 0.00 in/hr0.0 mm/hr 0.00 in0.0 mm
01:05 AM 43.3°F6.3°C 41.2°F5.1°C 92% 9.8 mph ENE15.8 kmh ENE 13.6 mph21.9 kmh 30.13 in1020.3 mb 0.00 in0.0 mm 0.00 in/hr0.0 mm/hr 0.00 in0.0 mm
01:06 AM 43.3°F6.3°C 41.2°F5.1°C 92% 9.8 mph ENE15.8 kmh ENE 14.5 mph23.3 kmh 30.13 in1020.3 mb 0.00 in0.0 mm 0.00 in/hr0.0 mm/hr 0.00 in0.0 mm
01:07 AM 43.3°F6.3°C 41.2°F5.1°C 92% 9.2 mph ENE14.8 kmh ENE 14.5 mph23.3 kmh 30.13 in1020.3 mb 0.00 in0.0 mm 0.00 in/hr0.0 mm/hr 0.00 in0.0 mm
01:08 AM 43.3°F6.3°C 41.2°F5.1°C 92% 14.5 mph ENE23.3 kmh ENE 16.8 mph27.0 kmh 30.13 in1020.3 mb 0.00 in0.0 mm 0.00 in/hr0.0 mm/hr 0.00 in0.0 mm
01:09 AM 43.3°F6.3°C 41.2°F5.1°C 92% 13.0 mph ENE20.9 kmh ENE 17.4 mph28.0 kmh 30.13 in1020.3 mb 0.00 in0.0 mm 0.00 in/hr0.0 mm/hr 0.00 in0.0 mm
01:10 AM 43.3°F6.3°C 40.9°F4.9°C 91% 9.8 mph ENE15.8 kmh ENE 18.3 mph29.5 kmh 30.13 in1020.3 mb 0.00 in0.0 mm 0.00 in/hr0.0 mm/hr 0.00 in0.0 mm
01:11 AM 43.3°F6.3°C 40.9°F4.9°C 91% 12.1 mph E19.5 kmh E 18.3 mph29.5 kmh 30.14 in1020.7 mb 0.00 in0.0 mm 0.00 in/hr0.0 mm/hr 0.00 in0.0 mm
01:12 AM 43.3°F6.3°C 40.9°F4.9°C 91% 10.7 mph E17.2 kmh E 18.3 mph29.5 kmh 30.13 in1020.3 mb 0.00 in0.0 mm 0.00 in/hr0.0 mm/hr 0.00 in0.0 mm
01:13 AM 43.3°F6.3°C 40.9°F4.9°C 91% 9.8 mph E15.8 kmh E 18.3 mph29.5 kmh 30.14 in1020.7 mb 0.00 in0.0 mm 0.00 in/hr0.0 mm/hr 0.00 in0.0 mm
01:14 AM 43.3°F6.3°C 40.9°F4.9°C 91% 8.3 mph E13.4 kmh E 18.3 mph29.5 kmh 30.13 in1020.3 mb 0.00 in0.0 mm 0.00 in/hr0.0 mm/hr 0.00 in0.0 mm
01:15 AM 43.3°F6.3°C 40.9°F4.9°C 91% 10.7 mph E17.2 kmh E 18.3 mph29.5 kmh 30.14 in1020.7 mb 0.00 in0.0 mm 0.00 in/hr0.0 mm/hr 0.00 in0.0 mm
01:16 AM 43.2°F6.2°C 40.7°F4.8°C 91% 9.8 mph E15.8 kmh E 18.3 mph29.5 kmh 30.13 in1020.3 mb 0.00 in0.0 mm 0.00 in/hr0.0 mm/hr 0.00 in0.0 mm
01:17 AM 43.2°F6.2°C 40.7°F4.8°C 91% 8.3 mph E13.4 kmh E 18.3 mph29.5 kmh 30.14 in1020.7 mb 0.00 in0.0 mm 0.00 in/hr0.0 mm/hr 0.00 in0.0 mm
01:18 AM 43.2°F6.2°C 40.7°F4.8°C 91% 9.2 mph E14.8 kmh E 18.3 mph29.5 kmh 30.14 in1020.7 mb 0.00 in0.0 mm 0.00 in/hr0.0 mm/hr 0.00 in0.0 mm
01:19 AM 43.2°F6.2°C 40.7°F4.8°C 91% 9.2 mph E14.8 kmh E 18.3 mph29.5 kmh 30.14 in1020.7 mb 0.00 in0.0 mm 0.00 in/hr0.0 mm/hr 0.00 in0.0 mm
01:20 AM 43.2°F6.2°C 40.4°F4.7°C 90% 12.1 mph E19.5 kmh E 17.4 mph28.0 kmh 30.13 in1020.3 mb 0.00 in0.0 mm 0.00 in/hr0.0 mm/hr 0.00 in0.0 mm
01:21 AM 43.2°F6.2°C 40.4°F4.7°C 90% 10.7 mph E17.2 kmh E 17.4 mph28.0 kmh 30.13 in1020.3 mb 0.00 in0.0 mm 0.00 in/hr0.0 mm/hr 0.00 in0.0 mm
01:22 AM 43.2°F6.2°C 40.4°F4.7°C 90% 9.2 mph ENE14.8 kmh ENE 15.9 mph25.6 kmh 30.14 in1020.7 mb 0.00 in0.0 mm 0.00 in/hr0.0 mm/hr 0.00 in0.0 mm
01:23 AM 43.2°F6.2°C 40.4°F4.7°C 90% 12.1 mph ENE19.5 kmh ENE 15.9 mph25.6 kmh 30.14 in1020.7 mb 0.00 in0.0 mm 0.00 in/hr0.0 mm/hr 0.00 in0.0 mm
01:24 AM 43.2°F6.2°C 40.4°F4.7°C 90% 12.1 mph ENE19.5 kmh ENE 16.8 mph27.0 kmh 30.14 in1020.7 mb 0.00 in0.0 mm 0.00 in/hr0.0 mm/hr 0.00 in0.0 mm
01:25 AM 43.2°F6.2°C 40.4°F4.7°C 90% 10.7 mph ENE17.2 kmh ENE 16.8 mph27.0 kmh 30.14 in1020.7 mb 0.00 in0.0 mm 0.00 in/hr0.0 mm/hr 0.00 in0.0 mm
01:26 AM 43.2°F6.2°C 40.4°F4.7°C 90% 9.8 mph ENE15.8 kmh ENE 16.8 mph27.0 kmh 30.14 in1020.7 mb 0.00 in0.0 mm 0.00 in/hr0.0 mm/hr 0.00 in0.0 mm
01:27 AM 43.2°F6.2°C 40.4°F4.7°C 90% 9.8 mph E15.8 kmh E 16.8 mph27.0 kmh 30.14 in1020.7 mb 0.00 in0.0 mm 0.00 in/hr0.0 mm/hr 0.00 in0.0 mm
01:28 AM 43.2°F6.2°C 40.1°F4.5°C 89% 10.7 mph E17.2 kmh E 16.8 mph27.0 kmh 30.14 in1020.7 mb 0.00 in0.0 mm 0.00 in/hr0.0 mm/hr 0.00 in0.0 mm
01:29 AM 43.2°F6.2°C 40.1°F4.5°C 89% 8.3 mph E13.4 kmh E 16.8 mph27.0 kmh 30.14 in1020.7 mb 0.00 in0.0 mm 0.00 in/hr0.0 mm/hr 0.00 in0.0 mm
01:30 AM 43.2°F6.2°C 40.1°F4.5°C 89% 9.2 mph E14.8 kmh E 16.8 mph27.0 kmh 30.14 in1020.7 mb 0.00 in0.0 mm 0.00 in/hr0.0 mm/hr 0.00 in0.0 mm
01:31 AM 43.2°F6.2°C 40.1°F4.5°C 89% 8.3 mph E13.4 kmh E 16.8 mph27.0 kmh 30.14 in1020.7 mb 0.00 in0.0 mm 0.00 in/hr0.0 mm/hr 0.00 in0.0 mm
01:32 AM 43.2°F6.2°C 40.1°F4.5°C 89% 8.3 mph E13.4 kmh E 16.8 mph27.0 kmh 30.14 in1020.7 mb 0.00 in0.0 mm 0.00 in/hr0.0 mm/hr 0.00 in0.0 mm
01:33 AM 43.2°F6.2°C 40.1°F4.5°C 89% 9.8 mph E15.8 kmh E 16.8 mph27.0 kmh 30.14 in1020.7 mb 0.00 in0.0 mm 0.00 in/hr0.0 mm/hr 0.00 in0.0 mm
01:34 AM 43.0°F6.1°C 40.0°F4.4°C 89% 8.3 mph E13.4 kmh E 16.8 mph27.0 kmh 30.14 in1020.7 mb 0.00 in0.0 mm 0.00 in/hr0.0 mm/hr 0.00 in0.0 mm
01:35 AM 43.0°F6.1°C 40.0°F4.4°C 89% 9.2 mph E14.8 kmh E 15.9 mph25.6 kmh 30.14 in1020.7 mb 0.00 in0.0 mm 0.00 in/hr0.0 mm/hr 0.00 in0.0 mm
01:36 AM 43.0°F6.1°C 40.0°F4.4°C 89% 10.7 mph E17.2 kmh E 15.9 mph25.6 kmh 30.14 in1020.7 mb 0.00 in0.0 mm 0.00 in/hr0.0 mm/hr 0.00 in0.0 mm
01:37 AM 43.0°F6.1°C 40.0°F4.4°C 89% 10.7 mph E17.2 kmh E 15.9 mph25.6 kmh 30.14 in1020.7 mb 0.00 in0.0 mm 0.00 in/hr0.0 mm/hr 0.00 in0.0 mm
01:38 AM 43.0°F6.1°C 40.0°F4.4°C 89% 11.4 mph E18.3 kmh E 15.9 mph25.6 kmh 30.14 in1020.7 mb 0.00 in0.0 mm 0.00 in/hr0.0 mm/hr 0.00 in0.0 mm
01:39 AM 43.0°F6.1°C 40.0°F4.4°C 89% 13.6 mph E21.9 kmh E 15.9 mph25.6 kmh 30.14 in1020.7 mb 0.00 in0.0 mm 0.00 in/hr0.0 mm/hr 0.00 in0.0 mm
01:40 AM 43.0°F6.1°C 40.0°F4.4°C 89% 9.2 mph ENE14.8 kmh ENE 15.9 mph25.6 kmh 30.14 in1020.7 mb 0.00 in0.0 mm 0.00 in/hr0.0 mm/hr 0.00 in0.0 mm
01:41 AM 43.0°F6.1°C 40.0°F4.4°C 89% 9.8 mph ENE15.8 kmh ENE 17.4 mph28.0 kmh 30.13 in1020.3 mb 0.00 in0.0 mm 0.00 in/hr0.0 mm/hr 0.00 in0.0 mm
01:42 AM 43.0°F6.1°C 40.0°F4.4°C 89% 10.7 mph ENE17.2 kmh ENE 17.4 mph28.0 kmh 30.13 in1020.3 mb 0.00 in0.0 mm 0.00 in/hr0.0 mm/hr 0.00 in0.0 mm
01:43 AM 43.0°F6.1°C 40.0°F4.4°C 89% 9.8 mph ENE15.8 kmh ENE 17.4 mph28.0 kmh 30.14 in1020.7 mb 0.00 in0.0 mm 0.00 in/hr0.0 mm/hr 0.00 in0.0 mm
01:44 AM 43.0°F6.1°C 39.7°F4.3°C 88% 6.9 mph ENE11.1 kmh ENE 17.4 mph28.0 kmh 30.14 in1020.7 mb 0.00 in0.0 mm 0.00 in/hr0.0 mm/hr 0.00 in0.0 mm
01:45 AM 43.0°F6.1°C 39.7°F4.3°C 88% 9.8 mph ENE15.8 kmh ENE 17.4 mph28.0 kmh 30.14 in1020.7 mb 0.00 in0.0 mm 0.00 in/hr0.0 mm/hr 0.00 in0.0 mm
01:46 AM 42.8°F6.0°C 39.5°F4.2°C 88% 10.7 mph ENE17.2 kmh ENE 17.4 mph28.0 kmh 30.14 in1020.7 mb 0.00 in0.0 mm 0.00 in/hr0.0 mm/hr 0.00 in0.0 mm
01:47 AM 42.8°F6.0°C 39.5°F4.2°C 88% 13.0 mph ENE20.9 kmh ENE 17.4 mph28.0 kmh 30.14 in1020.7 mb 0.00 in0.0 mm 0.00 in/hr0.0 mm/hr 0.00 in0.0 mm
01:48 AM 42.8°F6.0°C 39.5°F4.2°C 88% 9.2 mph ENE14.8 kmh ENE 17.4 mph28.0 kmh 30.14 in1020.7 mb 0.00 in0.0 mm 0.00 in/hr0.0 mm/hr 0.00 in0.0 mm
01:49 AM 43.0°F6.1°C 39.7°F4.3°C 88% 9.2 mph ENE14.8 kmh ENE 17.4 mph28.0 kmh 30.14 in1020.7 mb 0.00 in0.0 mm 0.00 in/hr0.0 mm/hr 0.00 in0.0 mm
01:50 AM 43.0°F6.1°C 39.7°F4.3°C 88% 9.2 mph ENE14.8 kmh ENE 17.4 mph28.0 kmh 30.15 in1021.0 mb 0.00 in0.0 mm 0.00 in/hr0.0 mm/hr 0.00 in0.0 mm
01:51 AM 42.8°F6.0°C 39.5°F4.2°C 88% 11.4 mph E18.3 kmh E 17.4 mph28.0 kmh 30.15 in1021.0 mb 0.00 in0.0 mm 0.00 in/hr0.0 mm/hr 0.00 in0.0 mm
01:52 AM 42.8°F6.0°C 39.5°F4.2°C 88% 9.8 mph E15.8 kmh E 17.4 mph28.0 kmh 30.15 in1021.0 mb 0.00 in0.0 mm 0.00 in/hr0.0 mm/hr 0.00 in0.0 mm
01:53 AM 42.8°F6.0°C 39.5°F4.2°C 88% 9.2 mph E14.8 kmh E 17.4 mph28.0 kmh 30.15 in1021.0 mb 0.00 in0.0 mm 0.00 in/hr0.0 mm/hr 0.00 in0.0 mm
01:54 AM 42.8°F6.0°C 39.8°F4.3°C 89% 9.8 mph E15.8 kmh E 17.4 mph28.0 kmh 30.15 in1021.0 mb 0.00 in0.0 mm 0.00 in/hr0.0 mm/hr 0.00 in0.0 mm
01:55 AM 42.8°F6.0°C 39.8°F4.3°C 89% 9.2 mph E14.8 kmh E 17.4 mph28.0 kmh 30.15 in1021.0 mb 0.00 in0.0 mm 0.00 in/hr0.0 mm/hr 0.00 in0.0 mm
01:56 AM 42.8°F6.0°C 39.8°F4.3°C 89% 8.3 mph E13.4 kmh E 15.9 mph25.6 kmh 30.15 in1021.0 mb 0.00 in0.0 mm 0.00 in/hr0.0 mm/hr 0.00 in0.0 mm
01:57 AM 42.8°F6.0°C 39.8°F4.3°C 89% 9.2 mph E14.8 kmh E 15.9 mph25.6 kmh 30.15 in1021.0 mb 0.00 in0.0 mm 0.00 in/hr0.0 mm/hr 0.00 in0.0 mm
01:58 AM 42.8°F6.0°C 39.8°F4.3°C 89% 11.4 mph E18.3 kmh E 15.2 mph24.5 kmh 30.15 in1021.0 mb 0.00 in0.0 mm 0.00 in/hr0.0 mm/hr 0.00 in0.0 mm
01:59 AM 42.8°F6.0°C 39.8°F4.3°C 89% 11.4 mph E18.3 kmh E 15.2 mph24.5 kmh 30.14 in1020.7 mb 0.00 in0.0 mm 0.00 in/hr0.0 mm/hr 0.00 in0.0 mm
02:00 AM 42.8°F6.0°C 39.8°F4.3°C 89% 8.3 mph E13.4 kmh E 14.5 mph23.3 kmh 30.15 in1021.0 mb 0.00 in0.0 mm 0.00 in/hr0.0 mm/hr 0.00 in0.0 mm
02:01 AM 42.8°F6.0°C 39.8°F4.3°C 89% 9.2 mph E14.8 kmh E 14.5 mph23.3 kmh 30.15 in1021.0 mb 0.00 in0.0 mm 0.00 in/hr0.0 mm/hr 0.00 in0.0 mm
02:02 AM 42.8°F6.0°C 39.8°F4.3°C 89% 10.7 mph E17.2 kmh E 15.2 mph24.5 kmh 30.15 in1021.0 mb 0.00 in0.0 mm 0.00 in/hr0.0 mm/hr 0.00 in0.0 mm
02:03 AM 42.8°F6.0°C 39.8°F4.3°C 89% 7.6 mph E12.2 kmh E 15.2 mph24.5 kmh 30.15 in1021.0 mb 0.00 in0.0 mm 0.00 in/hr0.0 mm/hr 0.00 in0.0 mm
02:04 AM 43.0°F6.1°C 40.0°F4.4°C 89% 7.6 mph E12.2 kmh E 15.2 mph24.5 kmh 30.15 in1021.0 mb 0.00 in0.0 mm 0.00 in/hr0.0 mm/hr 0.00 in0.0 mm
02:05 AM 43.0°F6.1°C 40.0°F4.4°C 89% 9.2 mph E14.8 kmh E 15.2 mph24.5 kmh 30.15 in1021.0 mb 0.00 in0.0 mm 0.00 in/hr0.0 mm/hr 0.00 in0.0 mm
02:06 AM 43.0°F6.1°C 40.0°F4.4°C 89% 9.2 mph E14.8 kmh E 15.2 mph24.5 kmh 30.15 in1021.0 mb 0.00 in0.0 mm 0.00 in/hr0.0 mm/hr 0.00 in0.0 mm
02:07 AM 43.0°F6.1°C 39.7°F4.3°C 88% 6.9 mph E11.1 kmh E 15.2 mph24.5 kmh 30.15 in1021.0 mb 0.00 in0.0 mm 0.00 in/hr0.0 mm/hr 0.00 in0.0 mm
02:08 AM 43.0°F6.1°C 39.7°F4.3°C 88% 9.2 mph E14.8 kmh E 15.2 mph24.5 kmh 30.16 in1021.3 mb 0.00 in0.0 mm 0.00 in/hr0.0 mm/hr 0.00 in0.0 mm
02:09 AM 43.0°F6.1°C 39.7°F4.3°C 88% 8.3 mph E13.4 kmh E 15.2 mph24.5 kmh 30.15 in1021.0 mb 0.00 in0.0 mm 0.00 in/hr0.0 mm/hr 0.00 in0.0 mm
02:10 AM 43.0°F6.1°C 39.7°F4.3°C 88% 8.3 mph E13.4 kmh E 15.2 mph24.5 kmh 30.15 in1021.0 mb 0.00 in0.0 mm 0.00 in/hr0.0 mm/hr 0.00 in0.0 mm
02:11 AM 43.0°F6.1°C 39.7°F4.3°C 88% 10.7 mph E17.2 kmh E 15.2 mph24.5 kmh 30.15 in1021.0 mb 0.00 in0.0 mm 0.00 in/hr0.0 mm/hr 0.00 in0.0 mm
02:12 AM 43.0°F6.1°C 39.7°F4.3°C 88% 9.8 mph E15.8 kmh E 15.2 mph24.5 kmh 30.15 in1021.0 mb 0.00 in0.0 mm 0.00 in/hr0.0 mm/hr 0.00 in0.0 mm
02:13 AM 43.0°F6.1°C 39.7°F4.3°C 88% 9.2 mph E14.8 kmh E 15.2 mph24.5 kmh 30.15 in1021.0 mb 0.00 in0.0 mm 0.00 in/hr0.0 mm/hr 0.00 in0.0 mm
02:14 AM 43.0°F6.1°C 39.7°F4.3°C 88% 9.2 mph E14.8 kmh E 15.2 mph24.5 kmh 30.14 in1020.7 mb 0.00 in0.0 mm 0.00 in/hr0.0 mm/hr 0.00 in0.0 mm
02:15 AM 43.0°F6.1°C 39.7°F4.3°C 88% 11.4 mph E18.3 kmh E 15.2 mph24.5 kmh 30.14 in1020.7 mb 0.00 in0.0 mm 0.00 in/hr0.0 mm/hr 0.00 in0.0 mm
02:16 AM 43.0°F6.1°C 39.4°F4.1°C 87% 10.7 mph E17.2 kmh E 15.2 mph24.5 kmh 30.14 in1020.7 mb 0.00 in0.0 mm 0.00 in/hr0.0 mm/hr 0.00 in0.0 mm
02:17 AM 43.0°F6.1°C 39.4°F4.1°C 87% 13.0 mph E20.9 kmh E 15.9 mph25.6 kmh 30.14 in1020.7 mb 0.00 in0.0 mm 0.00 in/hr0.0 mm/hr 0.00 in0.0 mm
02:18 AM 43.0°F6.1°C 39.4°F4.1°C 87% 12.1 mph E19.5 kmh E 15.9 mph25.6 kmh 30.14 in1020.7 mb 0.00 in0.0 mm 0.00 in/hr0.0 mm/hr 0.00 in0.0 mm
02:19 AM 43.0°F6.1°C 39.4°F4.1°C 87% 9.8 mph E15.8 kmh E 15.9 mph25.6 kmh 30.14 in1020.7 mb 0.00 in0.0 mm 0.00 in/hr0.0 mm/hr 0.00 in0.0 mm
02:20 AM 43.0°F6.1°C 39.4°F4.1°C 87% 13.0 mph E20.9 kmh E 15.9 mph25.6 kmh 30.14 in1020.7 mb 0.00 in0.0 mm 0.00 in/hr0.0 mm/hr 0.00 in0.0 mm
02:21 AM 43.0°F6.1°C 39.4°F4.1°C 87% 9.8 mph E15.8 kmh E 15.9 mph25.6 kmh 30.14 in1020.7 mb 0.00 in0.0 mm 0.00 in/hr0.0 mm/hr 0.00 in0.0 mm
02:22 AM 43.0°F6.1°C 39.4°F4.1°C 87% 13.6 mph E21.9 kmh E 17.4 mph28.0 kmh 30.14 in1020.7 mb 0.00 in0.0 mm 0.00 in/hr0.0 mm/hr 0.00 in0.0 mm
02:23 AM 43.0°F6.1°C 39.1°F3.9°C 86% 9.8 mph E15.8 kmh E 17.4 mph28.0 kmh 30.14 in1020.7 mb 0.00 in0.0 mm 0.00 in/hr0.0 mm/hr 0.00 in0.0 mm
02:24 AM 43.0°F6.1°C 39.1°F3.9°C 86% 9.8 mph E15.8 kmh E 17.4 mph28.0 kmh 30.14 in1020.7 mb 0.00 in0.0 mm 0.00 in/hr0.0 mm/hr 0.00 in0.0 mm
02:25 AM 43.0°F6.1°C 39.1°F3.9°C 86% 13.0 mph E20.9 kmh E 17.4 mph28.0 kmh 30.14 in1020.7 mb 0.00 in0.0 mm 0.00 in/hr0.0 mm/hr 0.00 in0.0 mm
02:26 AM 43.2°F6.2°C 39.2°F4.0°C 86% 9.2 mph E14.8 kmh E 17.4 mph28.0 kmh 30.14 in1020.7 mb 0.00 in0.0 mm 0.00 in/hr0.0 mm/hr 0.00 in0.0 mm
02:27 AM 43.2°F6.2°C 39.2°F4.0°C 86% 14.5 mph E23.3 kmh E 17.4 mph28.0 kmh 30.14 in1020.7 mb 0.00 in0.0 mm 0.00 in/hr0.0 mm/hr 0.00 in0.0 mm
02:28 AM 43.0°F6.1°C 39.1°F3.9°C 86% 11.4 mph E18.3 kmh E 17.4 mph28.0 kmh 30.14 in1020.7 mb 0.00 in0.0 mm 0.00 in/hr0.0 mm/hr 0.00 in0.0 mm
02:29 AM 43.2°F6.2°C 39.2°F4.0°C 86% 12.1 mph E19.5 kmh E 17.4 mph28.0 kmh 30.14 in1020.7 mb 0.00 in0.0 mm 0.00 in/hr0.0 mm/hr 0.00 in0.0 mm
02:30 AM 43.2°F6.2°C 38.9°F3.8°C 85% 13.6 mph E21.9 kmh E 17.4 mph28.0 kmh 30.14 in1020.7 mb 0.00 in0.0 mm 0.00 in/hr0.0 mm/hr 0.00 in0.0 mm
02:31 AM 43.2°F6.2°C 38.9°F3.8°C 85% 13.6 mph E21.9 kmh E 17.4 mph28.0 kmh 30.14 in1020.7 mb 0.00 in0.0 mm 0.00 in/hr0.0 mm/hr 0.00 in0.0 mm
02:32 AM 43.2°F6.2°C 38.9°F3.8°C 85% 9.8 mph E15.8 kmh E 17.4 mph28.0 kmh 30.14 in1020.7 mb 0.00 in0.0 mm 0.00 in/hr0.0 mm/hr 0.00 in0.0 mm
02:33 AM 43.2°F6.2°C 38.9°F3.8°C 85% 11.4 mph E18.3 kmh E 17.4 mph28.0 kmh 30.14 in1020.7 mb 0.00 in0.0 mm 0.00 in/hr0.0 mm/hr 0.00 in0.0 mm
02:34 AM 43.2°F6.2°C 38.9°F3.8°C 85% 8.3 mph E13.4 kmh E 17.4 mph28.0 kmh 30.14 in1020.7 mb 0.00 in0.0 mm 0.00 in/hr0.0 mm/hr 0.00 in0.0 mm
02:35 AM 43.2°F6.2°C 38.9°F3.8°C 85% 9.2 mph E14.8 kmh E 17.4 mph28.0 kmh 30.14 in1020.7 mb 0.00 in0.0 mm 0.00 in/hr0.0 mm/hr 0.00 in0.0 mm
02:36 AM 43.2°F6.2°C 38.9°F3.8°C 85% 9.2 mph E14.8 kmh E 17.4 mph28.0 kmh 30.15 in1021.0 mb 0.00 in0.0 mm 0.00 in/hr0.0 mm/hr 0.00 in0.0 mm
02:37 AM 43.2°F6.2°C 38.9°F3.8°C 85% 8.3 mph E13.4 kmh E 17.4 mph28.0 kmh 30.15 in1021.0 mb 0.00 in0.0 mm 0.00 in/hr0.0 mm/hr 0.00 in0.0 mm
02:38 AM 43.2°F6.2°C 38.9°F3.8°C 85% 9.8 mph E15.8 kmh E 17.4 mph28.0 kmh 30.15 in1021.0 mb 0.00 in0.0 mm 0.00 in/hr0.0 mm/hr 0.00 in0.0 mm
02:39 AM 43.2°F6.2°C 38.9°F3.8°C 85% 12.1 mph E19.5 kmh E 17.4 mph28.0 kmh 30.15 in1021.0 mb 0.00 in0.0 mm 0.00 in/hr0.0 mm/hr 0.00 in0.0 mm
02:40 AM 43.2°F6.2°C 38.9°F3.8°C 85% 9.2 mph E14.8 kmh E 17.4 mph28.0 kmh 30.15 in1021.0 mb 0.00 in0.0 mm 0.00 in/hr0.0 mm/hr 0.00 in0.0 mm
02:41 AM 43.3°F6.3°C 39.1°F3.9°C 85% 8.3 mph E13.4 kmh E 17.4 mph28.0 kmh 30.15 in1021.0 mb 0.00 in0.0 mm 0.00 in/hr0.0 mm/hr 0.00 in0.0 mm
02:42 AM 43.3°F6.3°C 39.1°F3.9°C 85% 8.3 mph E13.4 kmh E 16.8 mph27.0 kmh 30.15 in1021.0 mb 0.00 in0.0 mm 0.00 in/hr0.0 mm/hr 0.00 in0.0 mm
02:43 AM 43.3°F6.3°C 39.4°F4.1°C 86% 10.7 mph E17.2 kmh E 16.8 mph27.0 kmh 30.15 in1021.0 mb 0.00 in0.0 mm 0.00 in/hr0.0 mm/hr 0.00 in0.0 mm
02:44 AM 43.3°F6.3°C 39.4°F4.1°C 86% 11.4 mph E18.3 kmh E 16.8 mph27.0 kmh 30.15 in1021.0 mb 0.00 in0.0 mm 0.00 in/hr0.0 mm/hr 0.00 in0.0 mm
02:45 AM 43.2°F6.2°C 39.2°F4.0°C 86% 9.2 mph E14.8 kmh E 16.8 mph27.0 kmh 30.15 in1021.0 mb 0.00 in0.0 mm 0.00 in/hr0.0 mm/hr 0.00 in0.0 mm
02:46 AM 43.3°F6.3°C 39.4°F4.1°C 86% 10.7 mph E17.2 kmh E 16.8 mph27.0 kmh 30.15 in1021.0 mb 0.00 in0.0 mm 0.00 in/hr0.0 mm/hr 0.00 in0.0 mm
02:47 AM 43.3°F6.3°C 39.4°F4.1°C 86% 11.4 mph E18.3 kmh E 16.8 mph27.0 kmh 30.15 in1021.0 mb 0.00 in0.0 mm 0.00 in/hr0.0 mm/hr 0.00 in0.0 mm
02:48 AM 43.3°F6.3°C 39.4°F4.1°C 86% 9.8 mph E15.8 kmh E 16.8 mph27.0 kmh 30.15 in1021.0 mb 0.00 in0.0 mm 0.00 in/hr0.0 mm/hr 0.00 in0.0 mm
02:49 AM 43.3°F6.3°C 39.4°F4.1°C 86% 8.3 mph E13.4 kmh E 16.8 mph27.0 kmh 30.15 in1021.0 mb 0.00 in0.0 mm 0.00 in/hr0.0 mm/hr 0.00 in0.0 mm
02:50 AM 43.3°F6.3°C 39.4°F4.1°C 86% 9.2 mph E14.8 kmh E 14.5 mph23.3 kmh 30.15 in1021.0 mb 0.00 in0.0 mm 0.00 in/hr0.0 mm/hr 0.00 in0.0 mm
02:51 AM 43.3°F6.3°C 39.4°F4.1°C 86% 11.4 mph E18.3 kmh E 14.5 mph23.3 kmh 30.15 in1021.0 mb 0.00 in0.0 mm 0.00 in/hr0.0 mm/hr 0.00 in0.0 mm
02:52 AM 43.3°F6.3°C 39.4°F4.1°C 86% 11.4 mph E18.3 kmh E 14.5 mph23.3 kmh 30.15 in1021.0 mb 0.00 in0.0 mm 0.00 in/hr0.0 mm/hr 0.00 in0.0 mm
02:53 AM 43.3°F6.3°C 39.4°F4.1°C 86% 12.1 mph E19.5 kmh E 14.5 mph23.3 kmh 30.15 in1021.0 mb 0.00 in0.0 mm 0.00 in/hr0.0 mm/hr 0.00 in0.0 mm
02:54 AM 43.3°F6.3°C 39.4°F4.1°C 86% 12.1 mph E19.5 kmh E 15.2 mph24.5 kmh 30.15 in1021.0 mb 0.00 in0.0 mm 0.00 in/hr0.0 mm/hr 0.00 in0.0 mm
02:55 AM 43.3°F6.3°C 39.4°F4.1°C 86% 11.4 mph E18.3 kmh E 15.2 mph24.5 kmh 30.15 in1021.0 mb 0.00 in0.0 mm 0.00 in/hr0.0 mm/hr 0.00 in0.0 mm
02:56 AM 43.3°F6.3°C 39.4°F4.1°C 86% 11.4 mph E18.3 kmh E 15.2 mph24.5 kmh 30.15 in1021.0 mb 0.00 in0.0 mm 0.00 in/hr0.0 mm/hr 0.00 in0.0 mm
02:57 AM 43.3°F6.3°C 39.4°F4.1°C 86% 12.1 mph E19.5 kmh E 15.2 mph24.5 kmh 30.15 in1021.0 mb 0.00 in0.0 mm 0.00 in/hr0.0 mm/hr 0.00 in0.0 mm
02:58 AM 43.3°F6.3°C 39.4°F4.1°C 86% 11.4 mph E18.3 kmh E 15.2 mph24.5 kmh 30.15 in1021.0 mb 0.00 in0.0 mm 0.00 in/hr0.0 mm/hr 0.00 in0.0 mm
02:59 AM 43.5°F6.4°C 39.6°F4.2°C 86% 12.1 mph E19.5 kmh E 15.2 mph24.5 kmh 30.15 in1021.0 mb 0.00 in0.0 mm 0.00 in/hr0.0 mm/hr 0.00 in0.0 mm
03:00 AM 43.3°F6.3°C 39.4°F4.1°C 86% 12.1 mph E19.5 kmh E 15.2 mph24.5 kmh 30.15 in1021.0 mb 0.00 in0.0 mm 0.00 in/hr0.0 mm/hr 0.00 in0.0 mm
03:01 AM 43.3°F6.3°C 39.4°F4.1°C 86% 12.1 mph E19.5 kmh E 15.2 mph24.5 kmh 30.14 in1020.7 mb 0.00 in0.0 mm 0.00 in/hr0.0 mm/hr 0.00 in0.0 mm
03:02 AM 43.5°F6.4°C 39.6°F4.2°C 86% 9.8 mph ESE15.8 kmh ESE 15.2 mph24.5 kmh 30.15 in1021.0 mb 0.00 in0.0 mm 0.00 in/hr0.0 mm/hr 0.00 in0.0 mm
03:03 AM 43.5°F6.4°C 39.6°F4.2°C 86% 10.7 mph ESE17.2 kmh ESE 15.2 mph24.5 kmh 30.15 in1021.0 mb 0.00 in0.0 mm 0.00 in/hr0.0 mm/hr 0.00 in0.0 mm
03:04 AM 43.5°F6.4°C 39.6°F4.2°C 86% 10.7 mph ESE17.2 kmh ESE 15.2 mph24.5 kmh 30.14 in1020.7 mb 0.00 in0.0 mm 0.00 in/hr0.0 mm/hr 0.00 in0.0 mm
03:05 AM 43.5°F6.4°C 39.6°F4.2°C 86% 13.0 mph ESE20.9 kmh ESE 15.9 mph25.6 kmh 30.15 in1021.0 mb 0.00 in0.0 mm 0.00 in/hr0.0 mm/hr 0.00 in0.0 mm
03:06 AM 43.5°F6.4°C 39.6°F4.2°C 86% 11.4 mph ESE18.3 kmh ESE 15.9 mph25.6 kmh 30.15 in1021.0 mb 0.00 in0.0 mm 0.00 in/hr0.0 mm/hr 0.00 in0.0 mm
03:07 AM 43.5°F6.4°C 39.6°F4.2°C 86% 9.2 mph ESE14.8 kmh ESE 15.9 mph25.6 kmh 30.15 in1021.0 mb 0.00 in0.0 mm 0.00 in/hr0.0 mm/hr 0.00 in0.0 mm
03:08 AM 43.5°F6.4°C 39.6°F4.2°C 86% 10.7 mph ESE17.2 kmh ESE 15.9 mph25.6 kmh 30.15 in1021.0 mb 0.00 in0.0 mm 0.00 in/hr0.0 mm/hr 0.00 in0.0 mm
03:09 AM 43.5°F6.4°C 39.6°F4.2°C 86% 11.4 mph E18.3 kmh E 15.9 mph25.6 kmh 30.15 in1021.0 mb 0.00 in0.0 mm 0.00 in/hr0.0 mm/hr 0.00 in0.0 mm
03:10 AM 43.5°F6.4°C 39.6°F4.2°C 86% 12.1 mph E19.5 kmh E 15.9 mph25.6 kmh 30.15 in1021.0 mb 0.00 in0.0 mm 0.00 in/hr0.0 mm/hr 0.00 in0.0 mm
03:11 AM 43.5°F6.4°C 39.6°F4.2°C 86% 12.1 mph E19.5 kmh E 15.9 mph25.6 kmh 30.15 in1021.0 mb 0.00 in0.0 mm 0.00 in/hr0.0 mm/hr 0.00 in0.0 mm
03:12 AM 43.5°F6.4°C 39.6°F4.2°C 86% 10.7 mph E17.2 kmh E 15.9 mph25.6 kmh 30.15 in1021.0 mb 0.00 in0.0 mm 0.00 in/hr0.0 mm/hr 0.00 in0.0 mm
03:14 AM 43.5°F6.4°C 39.6°F4.2°C 86% 10.7 mph E17.2 kmh E 15.9 mph25.6 kmh 30.15 in1021.0 mb 0.00 in0.0 mm 0.00 in/hr0.0 mm/hr 0.00 in0.0 mm
03:15 AM 43.5°F6.4°C 39.6°F4.2°C 86% 11.4 mph E18.3 kmh E 15.9 mph25.6 kmh 30.15 in1021.0 mb 0.00 in0.0 mm 0.00 in/hr0.0 mm/hr 0.00 in0.0 mm
03:16 AM 43.5°F6.4°C 39.6°F4.2°C 86% 13.6 mph E21.9 kmh E 16.8 mph27.0 kmh 30.15 in1021.0 mb 0.00 in0.0 mm 0.00 in/hr0.0 mm/hr 0.00 in0.0 mm
03:17 AM 43.5°F6.4°C 39.6°F4.2°C 86% 11.4 mph E18.3 kmh E 16.8 mph27.0 kmh 30.15 in1021.0 mb 0.00 in0.0 mm 0.00 in/hr0.0 mm/hr 0.00 in0.0 mm
03:18 AM 43.5°F6.4°C 39.6°F4.2°C 86% 9.8 mph E15.8 kmh E 16.8 mph27.0 kmh 30.15 in1021.0 mb 0.00 in0.0 mm 0.00 in/hr0.0 mm/hr 0.00 in0.0 mm
03:19 AM 43.5°F6.4°C 39.6°F4.2°C 86% 9.8 mph E15.8 kmh E 16.8 mph27.0 kmh 30.15 in1021.0 mb 0.00 in0.0 mm 0.00 in/hr0.0 mm/hr 0.00 in0.0 mm
02:32 PM 58.1°F14.5°C 47.8°F8.8°C 69% 13.6 mph ESE21.9 kmh ESE 19.0 mph30.6 kmh 30.14 in1020.7 mb 0.00 in0.0 mm 0.00 in/hr0.0 mm/hr 0.00 in0.0 mm
02:33 PM 58.1°F14.5°C 47.4°F8.6°C 68% 13.6 mph ESE21.9 kmh ESE 19.0 mph30.6 kmh 30.14 in1020.7 mb 0.00 in0.0 mm 0.00 in/hr0.0 mm/hr 0.00 in0.0 mm
02:34 PM 58.3°F14.6°C 47.1°F8.4°C 67% 14.5 mph ESE23.3 kmh ESE 20.6 mph33.2 kmh 30.13 in1020.3 mb 0.00 in0.0 mm 0.00 in/hr0.0 mm/hr 0.00 in0.0 mm
02:35 PM 58.3°F14.6°C 47.1°F8.4°C 67% 13.0 mph ESE20.9 kmh ESE 20.6 mph33.2 kmh 30.13 in1020.3 mb 0.00 in0.0 mm 0.00 in/hr0.0 mm/hr 0.00 in0.0 mm
02:36 PM 58.3°F14.6°C 47.5°F8.6°C 68% 15.2 mph ESE24.5 kmh ESE 20.6 mph33.2 kmh 30.13 in1020.3 mb 0.00 in0.0 mm 0.00 in/hr0.0 mm/hr 0.00 in0.0 mm
02:37 PM 58.3°F14.6°C 47.5°F8.6°C 68% 12.1 mph ESE19.5 kmh ESE 20.6 mph33.2 kmh 30.13 in1020.3 mb 0.00 in0.0 mm 0.00 in/hr0.0 mm/hr 0.00 in0.0 mm
02:38 PM 58.5°F14.7°C 48.1°F8.9°C 69% 13.0 mph ESE20.9 kmh ESE 20.6 mph33.2 kmh 30.13 in1020.3 mb 0.00 in0.0 mm 0.00 in/hr0.0 mm/hr 0.00 in0.0 mm
02:39 PM 58.6°F14.8°C 47.9°F8.8°C 68% 13.6 mph ESE21.9 kmh ESE 20.6 mph33.2 kmh 30.14 in1020.7 mb 0.00 in0.0 mm 0.00 in/hr0.0 mm/hr 0.00 in0.0 mm
02:40 PM 58.6°F14.8°C 48.3°F9.1°C 69% 15.2 mph ESE24.5 kmh ESE 20.6 mph33.2 kmh 30.14 in1020.7 mb 0.00 in0.0 mm 0.00 in/hr0.0 mm/hr 0.00 in0.0 mm
02:45 PM 59.0°F15.0°C 48.2°F9.0°C 68% 11.4 mph ESE18.3 kmh ESE 19.0 mph30.6 kmh 30.14 in1020.7 mb 0.00 in0.0 mm 0.00 in/hr0.0 mm/hr 0.00 in0.0 mm
02:46 PM 59.4°F15.2°C 48.1°F8.9°C 67% 9.8 mph ESE15.8 kmh ESE 19.0 mph30.6 kmh 30.14 in1020.7 mb 0.00 in0.0 mm 0.00 in/hr0.0 mm/hr 0.00 in0.0 mm
02:47 PM 59.5°F15.3°C 48.7°F9.3°C 68% 12.1 mph ESE19.5 kmh ESE 19.0 mph30.6 kmh 30.14 in1020.7 mb 0.00 in0.0 mm 0.00 in/hr0.0 mm/hr 0.00 in0.0 mm
02:48 PM 59.5°F15.3°C 48.7°F9.3°C 68% 11.4 mph ESE18.3 kmh ESE 19.0 mph30.6 kmh 30.13 in1020.3 mb 0.00 in0.0 mm 0.00 in/hr0.0 mm/hr 0.00 in0.0 mm
02:49 PM 59.7°F15.4°C 48.9°F9.4°C 68% 11.4 mph ESE18.3 kmh ESE 19.0 mph30.6 kmh 30.14 in1020.7 mb 0.00 in0.0 mm 0.00 in/hr0.0 mm/hr 0.00 in0.0 mm
02:50 PM 59.9°F15.5°C 48.6°F9.2°C 67% 10.7 mph ESE17.2 kmh ESE 19.0 mph30.6 kmh 30.13 in1020.3 mb 0.00 in0.0 mm 0.00 in/hr0.0 mm/hr 0.00 in0.0 mm
02:51 PM 59.9°F15.5°C 49.1°F9.5°C 68% 13.0 mph ESE20.9 kmh ESE 16.8 mph27.0 kmh 30.14 in1020.7 mb 0.00 in0.0 mm 0.00 in/hr0.0 mm/hr 0.00 in0.0 mm
02:52 PM 59.9°F15.5°C 48.6°F9.2°C 67% 13.0 mph E20.9 kmh E 16.8 mph27.0 kmh 30.14 in1020.7 mb 0.00 in0.0 mm 0.00 in/hr0.0 mm/hr 0.00 in0.0 mm
02:53 PM 59.9°F15.5°C 48.2°F9.0°C 66% 11.4 mph E18.3 kmh E 16.8 mph27.0 kmh 30.13 in1020.3 mb 0.00 in0.0 mm 0.00 in/hr0.0 mm/hr 0.00 in0.0 mm
02:54 PM 59.9°F15.5°C 48.2°F9.0°C 66% 14.5 mph E23.3 kmh E 18.3 mph29.5 kmh 30.13 in1020.3 mb 0.00 in0.0 mm 0.00 in/hr0.0 mm/hr 0.00 in0.0 mm
02:55 PM 59.9°F15.5°C 47.8°F8.8°C 65% 13.6 mph E21.9 kmh E 18.3 mph29.5 kmh 30.13 in1020.3 mb 0.00 in0.0 mm 0.00 in/hr0.0 mm/hr 0.00 in0.0 mm
02:56 PM 59.7°F15.4°C 47.6°F8.7°C 65% 13.6 mph E21.9 kmh E 18.3 mph29.5 kmh 30.13 in1020.3 mb 0.00 in0.0 mm 0.00 in/hr0.0 mm/hr 0.00 in0.0 mm
02:57 PM 59.7°F15.4°C 47.6°F8.7°C 65% 13.0 mph E20.9 kmh E 18.3 mph29.5 kmh 30.14 in1020.7 mb 0.00 in0.0 mm 0.00 in/hr0.0 mm/hr 0.00 in0.0 mm
02:58 PM 59.9°F15.5°C 48.6°F9.2°C 67% 10.7 mph E17.2 kmh E 18.3 mph29.5 kmh 30.13 in1020.3 mb 0.00 in0.0 mm 0.00 in/hr0.0 mm/hr 0.00 in0.0 mm
02:59 PM 59.9°F15.5°C 49.1°F9.5°C 68% 15.2 mph E24.5 kmh E 18.3 mph29.5 kmh 30.13 in1020.3 mb 0.00 in0.0 mm 0.00 in/hr0.0 mm/hr 0.00 in0.0 mm
03:00 PM 59.9°F15.5°C 49.1°F9.5°C 68% 13.0 mph E20.9 kmh E 18.3 mph29.5 kmh 30.13 in1020.3 mb 0.00 in0.0 mm 0.00 in/hr0.0 mm/hr 0.00 in0.0 mm
03:01 PM 59.9°F15.5°C 48.6°F9.2°C 67% 16.8 mph E27.0 kmh E 19.7 mph31.7 kmh 30.13 in1020.3 mb 0.00 in0.0 mm 0.00 in/hr0.0 mm/hr 0.00 in0.0 mm
03:02 PM 59.9°F15.5°C 48.2°F9.0°C 66% 12.1 mph E19.5 kmh E 19.7 mph31.7 kmh 30.13 in1020.3 mb 0.00 in0.0 mm 0.00 in/hr0.0 mm/hr 0.00 in0.0 mm
03:03 PM 59.7°F15.4°C 48.5°F9.2°C 67% 15.9 mph E25.6 kmh E 19.7 mph31.7 kmh 30.13 in1020.3 mb 0.00 in0.0 mm 0.00 in/hr0.0 mm/hr 0.00 in0.0 mm
03:04 PM 59.7°F15.4°C 48.1°F8.9°C 66% 15.2 mph E24.5 kmh E 19.7 mph31.7 kmh 30.13 in1020.3 mb 0.00 in0.0 mm 0.00 in/hr0.0 mm/hr 0.00 in0.0 mm
03:05 PM 59.7°F15.4°C 48.1°F8.9°C 66% 13.0 mph E20.9 kmh E 19.7 mph31.7 kmh 30.13 in1020.3 mb 0.00 in0.0 mm 0.00 in/hr0.0 mm/hr 0.00 in0.0 mm
03:06 PM 59.7°F15.4°C 48.5°F9.2°C 67% 13.6 mph ESE21.9 kmh ESE 19.7 mph31.7 kmh 30.12 in1020.0 mb 0.00 in0.0 mm 0.00 in/hr0.0 mm/hr 0.00 in0.0 mm
03:07 PM 59.7°F15.4°C 48.1°F8.9°C 66% 13.0 mph ESE20.9 kmh ESE 19.7 mph31.7 kmh 30.13 in1020.3 mb 0.00 in0.0 mm 0.00 in/hr0.0 mm/hr 0.00 in0.0 mm
03:08 PM 59.7°F15.4°C 48.5°F9.2°C 67% 13.0 mph ESE20.9 kmh ESE 19.7 mph31.7 kmh 30.12 in1020.0 mb 0.00 in0.0 mm 0.00 in/hr0.0 mm/hr 0.00 in0.0 mm
03:09 PM 59.7°F15.4°C 48.9°F9.4°C 68% 12.1 mph ESE19.5 kmh ESE 19.7 mph31.7 kmh 30.12 in1020.0 mb 0.00 in0.0 mm 0.00 in/hr0.0 mm/hr 0.00 in0.0 mm
03:10 PM 59.9°F15.5°C 48.6°F9.2°C 67% 10.7 mph ESE17.2 kmh ESE 19.7 mph31.7 kmh 30.13 in1020.3 mb 0.00 in0.0 mm 0.00 in/hr0.0 mm/hr 0.00 in0.0 mm
03:11 PM 59.9°F15.5°C 49.1°F9.5°C 68% 12.1 mph ESE19.5 kmh ESE 19.0 mph30.6 kmh 30.13 in1020.3 mb 0.00 in0.0 mm 0.00 in/hr0.0 mm/hr 0.00 in0.0 mm
03:12 PM 59.9°F15.5°C 48.6°F9.2°C 67% 13.0 mph ESE20.9 kmh ESE 19.0 mph30.6 kmh 30.13 in1020.3 mb 0.00 in0.0 mm 0.00 in/hr0.0 mm/hr 0.00 in0.0 mm
03:13 PM 59.9°F15.5°C 48.6°F9.2°C 67% 15.2 mph ESE24.5 kmh ESE 19.0 mph30.6 kmh 30.13 in1020.3 mb 0.00 in0.0 mm 0.00 in/hr0.0 mm/hr 0.00 in0.0 mm
03:14 PM 60.1°F15.6°C 48.4°F9.1°C 66% 11.4 mph ESE18.3 kmh ESE 18.3 mph29.5 kmh 30.13 in1020.3 mb 0.00 in0.0 mm 0.00 in/hr0.0 mm/hr 0.00 in0.0 mm
03:15 PM 60.1°F15.6°C 48.8°F9.3°C 67% 10.7 mph ESE17.2 kmh ESE 18.3 mph29.5 kmh 30.13 in1020.3 mb 0.00 in0.0 mm 0.00 in/hr0.0 mm/hr 0.00 in0.0 mm
03:16 PM 60.1°F15.6°C 48.4°F9.1°C 66% 12.1 mph ESE19.5 kmh ESE 18.3 mph29.5 kmh 30.13 in1020.3 mb 0.00 in0.0 mm 0.00 in/hr0.0 mm/hr 0.00 in0.0 mm
03:17 PM 60.1°F15.6°C 48.4°F9.1°C 66% 12.1 mph ESE19.5 kmh ESE 18.3 mph29.5 kmh 30.13 in1020.3 mb 0.00 in0.0 mm 0.00 in/hr0.0 mm/hr 0.00 in0.0 mm
03:18 PM 60.3°F15.7°C 48.6°F9.2°C 66% 13.0 mph E20.9 kmh E 18.3 mph29.5 kmh 30.13 in1020.3 mb 0.00 in0.0 mm 0.00 in/hr0.0 mm/hr 0.00 in0.0 mm
03:19 PM 60.3°F15.7°C 48.6°F9.2°C 66% 12.1 mph ESE19.5 kmh ESE 18.3 mph29.5 kmh 30.13 in1020.3 mb 0.00 in0.0 mm 0.00 in/hr0.0 mm/hr 0.00 in0.0 mm
03:20 PM 60.3°F15.7°C 48.6°F9.2°C 66% 13.6 mph ESE21.9 kmh ESE 18.3 mph29.5 kmh 30.13 in1020.3 mb 0.00 in0.0 mm 0.00 in/hr0.0 mm/hr 0.00 in0.0 mm
03:21 PM 60.3°F15.7°C 48.6°F9.2°C 66% 13.6 mph E21.9 kmh E 18.3 mph29.5 kmh 30.13 in1020.3 mb 0.00 in0.0 mm 0.00 in/hr0.0 mm/hr 0.00 in0.0 mm
03:22 PM 60.4°F15.8°C 48.7°F9.3°C 66% 12.1 mph E19.5 kmh E 18.3 mph29.5 kmh 30.12 in1020.0 mb 0.00 in0.0 mm 0.00 in/hr0.0 mm/hr 0.00 in0.0 mm
03:23 PM 60.4°F15.8°C 48.7°F9.3°C 66% 11.4 mph E18.3 kmh E 17.4 mph28.0 kmh 30.13 in1020.3 mb 0.00 in0.0 mm 0.00 in/hr0.0 mm/hr 0.00 in0.0 mm
03:24 PM 60.4°F15.8°C 49.2°F9.6°C 67% 11.4 mph E18.3 kmh E 17.4 mph28.0 kmh 30.12 in1020.0 mb 0.00 in0.0 mm 0.00 in/hr0.0 mm/hr 0.00 in0.0 mm
03:25 PM 60.6°F15.9°C 49.7°F9.8°C 68% 12.1 mph E19.5 kmh E 17.4 mph28.0 kmh 30.12 in1020.0 mb 0.00 in0.0 mm 0.00 in/hr0.0 mm/hr 0.00 in0.0 mm
03:26 PM 60.6°F15.9°C 48.9°F9.4°C 66% 14.5 mph E23.3 kmh E 17.4 mph28.0 kmh 30.12 in1020.0 mb 0.00 in0.0 mm 0.00 in/hr0.0 mm/hr 0.00 in0.0 mm
03:27 PM 60.6°F15.9°C 48.5°F9.2°C 65% 14.5 mph E23.3 kmh E 17.4 mph28.0 kmh 30.12 in1020.0 mb 0.00 in0.0 mm 0.00 in/hr0.0 mm/hr 0.00 in0.0 mm
03:28 PM 60.6°F15.9°C 48.5°F9.2°C 65% 12.1 mph E19.5 kmh E 17.4 mph28.0 kmh 30.12 in1020.0 mb 0.00 in0.0 mm 0.00 in/hr0.0 mm/hr 0.00 in0.0 mm
03:29 PM 60.6°F15.9°C 48.5°F9.2°C 65% 12.1 mph E19.5 kmh E 17.4 mph28.0 kmh 30.11 in1019.6 mb 0.00 in0.0 mm 0.00 in/hr0.0 mm/hr 0.00 in0.0 mm
03:30 PM 60.6°F15.9°C 48.9°F9.4°C 66% 13.0 mph ESE20.9 kmh ESE 17.4 mph28.0 kmh 30.11 in1019.6 mb 0.00 in0.0 mm 0.00 in/hr0.0 mm/hr 0.00 in0.0 mm
03:31 PM 60.8°F16.0°C 48.6°F9.2°C 65% 13.0 mph ESE20.9 kmh ESE 17.4 mph28.0 kmh 30.12 in1020.0 mb 0.00 in0.0 mm 0.00 in/hr0.0 mm/hr 0.00 in0.0 mm
03:32 PM 60.6°F15.9°C 48.5°F9.2°C 65% 13.0 mph ESE20.9 kmh ESE 17.4 mph28.0 kmh 30.11 in1019.6 mb 0.00 in0.0 mm 0.00 in/hr0.0 mm/hr 0.00 in0.0 mm
03:33 PM 60.6°F15.9°C 48.5°F9.2°C 65% 13.0 mph ESE20.9 kmh ESE 17.4 mph28.0 kmh 30.12 in1020.0 mb 0.00 in0.0 mm 0.00 in/hr0.0 mm/hr 0.00 in0.0 mm
03:34 PM 60.6°F15.9°C 48.9°F9.4°C 66% 12.1 mph ESE19.5 kmh ESE 17.4 mph28.0 kmh 30.12 in1020.0 mb 0.00 in0.0 mm 0.00 in/hr0.0 mm/hr 0.00 in0.0 mm
03:35 PM 60.6°F15.9°C 48.5°F9.2°C 65% 13.6 mph ESE21.9 kmh ESE 17.4 mph28.0 kmh 30.12 in1020.0 mb 0.00 in0.0 mm 0.00 in/hr0.0 mm/hr 0.00 in0.0 mm
03:36 PM 60.6°F15.9°C 48.5°F9.2°C 65% 11.4 mph ESE18.3 kmh ESE 17.4 mph28.0 kmh 30.12 in1020.0 mb 0.00 in0.0 mm 0.00 in/hr0.0 mm/hr 0.00 in0.0 mm
03:37 PM 60.6°F15.9°C 48.9°F9.4°C 66% 10.7 mph SE17.2 kmh SE 17.4 mph28.0 kmh 30.12 in1020.0 mb 0.00 in0.0 mm 0.00 in/hr0.0 mm/hr 0.00 in0.0 mm
03:38 PM 60.8°F16.0°C 49.1°F9.5°C 66% 13.0 mph SE20.9 kmh SE 17.4 mph28.0 kmh 30.12 in1020.0 mb 0.00 in0.0 mm 0.00 in/hr0.0 mm/hr 0.00 in0.0 mm
03:39 PM 60.8°F16.0°C 49.1°F9.5°C 66% 13.0 mph SE20.9 kmh SE 17.4 mph28.0 kmh 30.12 in1020.0 mb 0.00 in0.0 mm 0.00 in/hr0.0 mm/hr 0.00 in0.0 mm
03:40 PM 60.6°F15.9°C 48.9°F9.4°C 66% 13.0 mph SE20.9 kmh SE 17.4 mph28.0 kmh 30.12 in1020.0 mb 0.00 in0.0 mm 0.00 in/hr0.0 mm/hr 0.00 in0.0 mm
03:41 PM 60.6°F15.9°C 48.9°F9.4°C 66% 12.1 mph SE19.5 kmh SE 17.4 mph28.0 kmh 30.12 in1020.0 mb 0.00 in0.0 mm 0.00 in/hr0.0 mm/hr 0.00 in0.0 mm
03:42 PM 60.6°F15.9°C 48.5°F9.2°C 65% 13.0 mph SE20.9 kmh SE 17.4 mph28.0 kmh 30.12 in1020.0 mb 0.00 in0.0 mm 0.00 in/hr0.0 mm/hr 0.00 in0.0 mm
03:43 PM 60.6°F15.9°C 48.5°F9.2°C 65% 11.4 mph SE18.3 kmh SE 17.4 mph28.0 kmh 30.13 in1020.3 mb 0.00 in0.0 mm 0.00 in/hr0.0 mm/hr 0.00 in0.0 mm
03:44 PM 60.6°F15.9°C 48.9°F9.4°C 66% 13.6 mph SE21.9 kmh SE 17.4 mph28.0 kmh 30.12 in1020.0 mb 0.00 in0.0 mm 0.00 in/hr0.0 mm/hr 0.00 in0.0 mm
03:45 PM 60.6°F15.9°C 48.9°F9.4°C 66% 13.6 mph SE21.9 kmh SE 17.4 mph28.0 kmh 30.12 in1020.0 mb 0.00 in0.0 mm 0.00 in/hr0.0 mm/hr 0.00 in0.0 mm
03:46 PM 60.4°F15.8°C 48.7°F9.3°C 66% 12.1 mph SE19.5 kmh SE 19.0 mph30.6 kmh 30.12 in1020.0 mb 0.00 in0.0 mm 0.00 in/hr0.0 mm/hr 0.00 in0.0 mm
03:47 PM 60.4°F15.8°C 48.3°F9.1°C 65% 11.4 mph SE18.3 kmh SE 19.0 mph30.6 kmh 30.13 in1020.3 mb 0.00 in0.0 mm 0.00 in/hr0.0 mm/hr 0.00 in0.0 mm
03:48 PM 60.4°F15.8°C 48.7°F9.3°C 66% 13.0 mph SE20.9 kmh SE 19.0 mph30.6 kmh 30.13 in1020.3 mb 0.00 in0.0 mm 0.00 in/hr0.0 mm/hr 0.00 in0.0 mm
03:49 PM 60.4°F15.8°C 48.7°F9.3°C 66% 14.5 mph ESE23.3 kmh ESE 19.0 mph30.6 kmh 30.12 in1020.0 mb 0.00 in0.0 mm 0.00 in/hr0.0 mm/hr 0.00 in0.0 mm
03:50 PM 60.4°F15.8°C 48.7°F9.3°C 66% 13.6 mph ESE21.9 kmh ESE 19.0 mph30.6 kmh 30.12 in1020.0 mb 0.00 in0.0 mm 0.00 in/hr0.0 mm/hr 0.00 in0.0 mm
03:51 PM 60.3°F15.7°C 48.1°F8.9°C 65% 14.5 mph ESE23.3 kmh ESE 19.0 mph30.6 kmh 30.12 in1020.0 mb 0.00 in0.0 mm 0.00 in/hr0.0 mm/hr 0.00 in0.0 mm
03:52 PM 60.3°F15.7°C 48.1°F8.9°C 65% 13.0 mph ESE20.9 kmh ESE 19.0 mph30.6 kmh 30.12 in1020.0 mb 0.00 in0.0 mm 0.00 in/hr0.0 mm/hr 0.00 in0.0 mm
03:53 PM 60.3°F15.7°C 48.1°F8.9°C 65% 14.5 mph ESE23.3 kmh ESE 19.0 mph30.6 kmh 30.12 in1020.0 mb 0.00 in0.0 mm 0.00 in/hr0.0 mm/hr 0.00 in0.0 mm
03:54 PM 60.3°F15.7°C 48.1°F8.9°C 65% 14.5 mph ESE23.3 kmh ESE 19.0 mph30.6 kmh 30.12 in1020.0 mb 0.00 in0.0 mm 0.00 in/hr0.0 mm/hr 0.00 in0.0 mm
03:55 PM 60.3°F15.7°C 48.6°F9.2°C 66% 13.0 mph ESE20.9 kmh ESE 19.0 mph30.6 kmh 30.11 in1019.6 mb 0.00 in0.0 mm 0.00 in/hr0.0 mm/hr 0.00 in0.0 mm
03:56 PM 60.3°F15.7°C 48.6°F9.2°C 66% 12.1 mph ESE19.5 kmh ESE 18.3 mph29.5 kmh 30.11 in1019.6 mb 0.00 in0.0 mm 0.00 in/hr0.0 mm/hr 0.00 in0.0 mm
03:57 PM 60.3°F15.7°C 48.1°F8.9°C 65% 11.4 mph ESE18.3 kmh ESE 18.3 mph29.5 kmh 30.11 in1019.6 mb 0.00 in0.0 mm 0.00 in/hr0.0 mm/hr 0.00 in0.0 mm
03:58 PM 60.3°F15.7°C 48.1°F8.9°C 65% 11.4 mph ESE18.3 kmh ESE 18.3 mph29.5 kmh 30.11 in1019.6 mb 0.00 in0.0 mm 0.00 in/hr0.0 mm/hr 0.00 in0.0 mm
03:59 PM 60.4°F15.8°C 48.7°F9.3°C 66% 12.1 mph ESE19.5 kmh ESE 18.3 mph29.5 kmh 30.11 in1019.6 mb 0.00 in0.0 mm 0.00 in/hr0.0 mm/hr 0.00 in0.0 mm
04:00 PM 60.4°F15.8°C 48.7°F9.3°C 66% 13.0 mph ESE20.9 kmh ESE 18.3 mph29.5 kmh 30.11 in1019.6 mb 0.00 in0.0 mm 0.00 in/hr0.0 mm/hr 0.00 in0.0 mm
04:01 PM 60.4°F15.8°C 48.7°F9.3°C 66% 13.0 mph ESE20.9 kmh ESE 18.3 mph29.5 kmh 30.11 in1019.6 mb 0.00 in0.0 mm 0.00 in/hr0.0 mm/hr 0.00 in0.0 mm
04:02 PM 60.4°F15.8°C 48.7°F9.3°C 66% 12.1 mph SE19.5 kmh SE 18.3 mph29.5 kmh 30.11 in1019.6 mb 0.00 in0.0 mm 0.00 in/hr0.0 mm/hr 0.00 in0.0 mm
04:03 PM 60.6°F15.9°C 48.9°F9.4°C 66% 13.0 mph SE20.9 kmh SE 18.3 mph29.5 kmh 30.11 in1019.6 mb 0.00 in0.0 mm 0.00 in/hr0.0 mm/hr 0.00 in0.0 mm
04:04 PM 60.6°F15.9°C 48.9°F9.4°C 66% 14.5 mph SE23.3 kmh SE 19.0 mph30.6 kmh 30.11 in1019.6 mb 0.00 in0.0 mm 0.00 in/hr0.0 mm/hr 0.00 in0.0 mm
04:05 PM 60.6°F15.9°C 48.5°F9.2°C 65% 14.5 mph SE23.3 kmh SE 19.0 mph30.6 kmh 30.11 in1019.6 mb 0.00 in0.0 mm 0.00 in/hr0.0 mm/hr 0.00 in0.0 mm
04:06 PM 60.6°F15.9°C 48.0°F8.9°C 64% 14.5 mph SE23.3 kmh SE 19.0 mph30.6 kmh 30.11 in1019.6 mb 0.00 in0.0 mm 0.00 in/hr0.0 mm/hr 0.00 in0.0 mm
04:07 PM 60.6°F15.9°C 48.0°F8.9°C 64% 14.5 mph SE23.3 kmh SE 19.0 mph30.6 kmh 30.11 in1019.6 mb 0.00 in0.0 mm 0.00 in/hr0.0 mm/hr 0.00 in0.0 mm
04:08 PM 60.6°F15.9°C 48.0°F8.9°C 64% 12.1 mph SE19.5 kmh SE 19.0 mph30.6 kmh 30.11 in1019.6 mb 0.00 in0.0 mm 0.00 in/hr0.0 mm/hr 0.00 in0.0 mm
04:09 PM 60.6°F15.9°C 48.5°F9.2°C 65% 10.7 mph SE17.2 kmh SE 19.0 mph30.6 kmh 30.11 in1019.6 mb 0.00 in0.0 mm 0.00 in/hr0.0 mm/hr 0.00 in0.0 mm
04:10 PM 60.8°F16.0°C 48.2°F9.0°C 64% 13.6 mph SE21.9 kmh SE 19.0 mph30.6 kmh 30.11 in1019.6 mb 0.00 in0.0 mm 0.00 in/hr0.0 mm/hr 0.00 in0.0 mm
04:11 PM 60.8°F16.0°C 48.2°F9.0°C 64% 12.1 mph SE19.5 kmh SE 19.0 mph30.6 kmh 30.11 in1019.6 mb 0.00 in0.0 mm 0.00 in/hr0.0 mm/hr 0.00 in0.0 mm
04:12 PM 60.8°F16.0°C 47.8°F8.8°C 63% 13.6 mph SE21.9 kmh SE 19.0 mph30.6 kmh 30.11 in1019.6 mb 0.00 in0.0 mm 0.00 in/hr0.0 mm/hr 0.00 in0.0 mm
04:13 PM 60.8°F16.0°C 47.8°F8.8°C 63% 13.6 mph SE21.9 kmh SE 19.0 mph30.6 kmh 30.12 in1020.0 mb 0.00 in0.0 mm 0.00 in/hr0.0 mm/hr 0.00 in0.0 mm
04:14 PM 61.0°F16.1°C 47.9°F8.8°C 63% 13.0 mph ESE20.9 kmh ESE 19.0 mph30.6 kmh 30.12 in1020.0 mb 0.00 in0.0 mm 0.00 in/hr0.0 mm/hr 0.00 in0.0 mm
04:15 PM 61.0°F16.1°C 48.4°F9.1°C 64% 11.4 mph ESE18.3 kmh ESE 18.3 mph29.5 kmh 30.12 in1020.0 mb 0.00 in0.0 mm 0.00 in/hr0.0 mm/hr 0.00 in0.0 mm
04:16 PM 61.0°F16.1°C 48.4°F9.1°C 64% 13.0 mph ESE20.9 kmh ESE 18.3 mph29.5 kmh 30.11 in1019.6 mb 0.00 in0.0 mm 0.00 in/hr0.0 mm/hr 0.00 in0.0 mm
04:17 PM 61.0°F16.1°C 48.4°F9.1°C 64% 13.6 mph ESE21.9 kmh ESE 18.3 mph29.5 kmh 30.11 in1019.6 mb 0.00 in0.0 mm 0.00 in/hr0.0 mm/hr 0.00 in0.0 mm
04:18 PM 60.8°F16.0°C 47.8°F8.8°C 63% 13.0 mph ESE20.9 kmh ESE 17.4 mph28.0 kmh 30.12 in1020.0 mb 0.00 in0.0 mm 0.00 in/hr0.0 mm/hr 0.00 in0.0 mm
04:19 PM 60.8°F16.0°C 47.8°F8.8°C 63% 13.0 mph ESE20.9 kmh ESE 17.4 mph28.0 kmh 30.12 in1020.0 mb 0.00 in0.0 mm 0.00 in/hr0.0 mm/hr 0.00 in0.0 mm
04:20 PM 60.8°F16.0°C 47.8°F8.8°C 63% 13.0 mph E20.9 kmh E 17.4 mph28.0 kmh 30.12 in1020.0 mb 0.00 in0.0 mm 0.00 in/hr0.0 mm/hr 0.00 in0.0 mm
04:21 PM 60.6°F15.9°C 48.0°F8.9°C 64% 13.6 mph E21.9 kmh E 18.3 mph29.5 kmh 30.12 in1020.0 mb 0.00 in0.0 mm 0.00 in/hr0.0 mm/hr 0.00 in0.0 mm
04:22 PM 60.6°F15.9°C 47.6°F8.7°C 63% 10.7 mph E17.2 kmh E 18.3 mph29.5 kmh 30.12 in1020.0 mb 0.00 in0.0 mm 0.00 in/hr0.0 mm/hr 0.00 in0.0 mm
04:23 PM 60.4°F15.8°C 47.9°F8.8°C 64% 10.7 mph E17.2 kmh E 18.3 mph29.5 kmh 30.12 in1020.0 mb 0.00 in0.0 mm 0.00 in/hr0.0 mm/hr 0.00 in0.0 mm
04:24 PM 60.4°F15.8°C 47.9°F8.8°C 64% 10.7 mph E17.2 kmh E 18.3 mph29.5 kmh 30.12 in1020.0 mb 0.00 in0.0 mm 0.00 in/hr0.0 mm/hr 0.00 in0.0 mm
04:25 PM 60.4°F15.8°C 47.9°F8.8°C 64% 11.4 mph E18.3 kmh E 18.3 mph29.5 kmh 30.11 in1019.6 mb 0.00 in0.0 mm 0.00 in/hr0.0 mm/hr 0.00 in0.0 mm
04:26 PM 60.3°F15.7°C 48.1°F8.9°C 65% 10.7 mph E17.2 kmh E 18.3 mph29.5 kmh 30.11 in1019.6 mb 0.00 in0.0 mm 0.00 in/hr0.0 mm/hr 0.00 in0.0 mm
04:27 PM 60.3°F15.7°C 48.1°F8.9°C 65% 12.1 mph E19.5 kmh E 18.3 mph29.5 kmh 30.11 in1019.6 mb 0.00 in0.0 mm 0.00 in/hr0.0 mm/hr 0.00 in0.0 mm
04:28 PM 60.3°F15.7°C 48.1°F8.9°C 65% 10.7 mph E17.2 kmh E 18.3 mph29.5 kmh 30.11 in1019.6 mb 0.00 in0.0 mm 0.00 in/hr0.0 mm/hr 0.00 in0.0 mm
04:29 PM 60.3°F15.7°C 48.6°F9.2°C 66% 13.0 mph E20.9 kmh E 18.3 mph29.5 kmh 30.11 in1019.6 mb 0.00 in0.0 mm 0.00 in/hr0.0 mm/hr 0.00 in0.0 mm
04:30 PM 60.3°F15.7°C 48.6°F9.2°C 66% 13.0 mph E20.9 kmh E 18.3 mph29.5 kmh 30.10 in1019.3 mb 0.00 in0.0 mm 0.00 in/hr0.0 mm/hr 0.00 in0.0 mm
04:31 PM 60.3°F15.7°C 48.6°F9.2°C 66% 14.5 mph E23.3 kmh E 16.8 mph27.0 kmh 30.10 in1019.3 mb 0.00 in0.0 mm 0.00 in/hr0.0 mm/hr 0.00 in0.0 mm
04:32 PM 60.3°F15.7°C 48.1°F8.9°C 65% 13.0 mph E20.9 kmh E 16.8 mph27.0 kmh 30.10 in1019.3 mb 0.00 in0.0 mm 0.00 in/hr0.0 mm/hr 0.00 in0.0 mm
04:33 PM 60.3°F15.7°C 48.1°F8.9°C 65% 12.1 mph E19.5 kmh E 16.8 mph27.0 kmh 30.10 in1019.3 mb 0.00 in0.0 mm 0.00 in/hr0.0 mm/hr 0.00 in0.0 mm
04:34 PM 60.3°F15.7°C 48.1°F8.9°C 65% 15.2 mph E24.5 kmh E 17.4 mph28.0 kmh 30.11 in1019.6 mb 0.00 in0.0 mm 0.00 in/hr0.0 mm/hr 0.00 in0.0 mm
04:35 PM 60.3°F15.7°C 48.1°F8.9°C 65% 13.6 mph E21.9 kmh E 17.4 mph28.0 kmh 30.11 in1019.6 mb 0.00 in0.0 mm 0.00 in/hr0.0 mm/hr 0.00 in0.0 mm
04:36 PM 60.3°F15.7°C 47.7°F8.7°C 64% 12.1 mph E19.5 kmh E 17.4 mph28.0 kmh 30.11 in1019.6 mb 0.00 in0.0 mm 0.00 in/hr0.0 mm/hr 0.00 in0.0 mm
04:37 PM 60.3°F15.7°C 48.1°F8.9°C 65% 12.1 mph ESE19.5 kmh ESE 17.4 mph28.0 kmh 30.11 in1019.6 mb 0.00 in0.0 mm 0.00 in/hr0.0 mm/hr 0.00 in0.0 mm
04:38 PM 60.1°F15.6°C 48.0°F8.9°C 65% 13.0 mph ESE20.9 kmh ESE 17.4 mph28.0 kmh 30.10 in1019.3 mb 0.00 in0.0 mm 0.00 in/hr0.0 mm/hr 0.00 in0.0 mm
04:39 PM 60.1°F15.6°C 48.0°F8.9°C 65% 14.5 mph ESE23.3 kmh ESE 17.4 mph28.0 kmh 30.11 in1019.6 mb 0.00 in0.0 mm 0.00 in/hr0.0 mm/hr 0.00 in0.0 mm
04:40 PM 60.1°F15.6°C 48.0°F8.9°C 65% 12.1 mph ESE19.5 kmh ESE 17.4 mph28.0 kmh 30.11 in1019.6 mb 0.00 in0.0 mm 0.00 in/hr0.0 mm/hr 0.00 in0.0 mm
04:41 PM 60.1°F15.6°C 48.0°F8.9°C 65% 13.0 mph ESE20.9 kmh ESE 17.4 mph28.0 kmh 30.11 in1019.6 mb 0.00 in0.0 mm 0.00 in/hr0.0 mm/hr 0.00 in0.0 mm
04:42 PM 59.9°F15.5°C 48.2°F9.0°C 66% 13.0 mph ESE20.9 kmh ESE 17.4 mph28.0 kmh 30.11 in1019.6 mb 0.00 in0.0 mm 0.00 in/hr0.0 mm/hr 0.00 in0.0 mm
04:43 PM 59.9°F15.5°C 48.2°F9.0°C 66% 12.1 mph ESE19.5 kmh ESE 17.4 mph28.0 kmh 30.11 in1019.6 mb 0.00 in0.0 mm 0.00 in/hr0.0 mm/hr 0.00 in0.0 mm
04:44 PM 59.9°F15.5°C 47.8°F8.8°C 65% 11.4 mph ESE18.3 kmh ESE 17.4 mph28.0 kmh 30.11 in1019.6 mb 0.00 in0.0 mm 0.00 in/hr0.0 mm/hr 0.00 in0.0 mm
04:45 PM 59.9°F15.5°C 48.2°F9.0°C 66% 15.9 mph ESE25.6 kmh ESE 19.7 mph31.7 kmh 30.10 in1019.3 mb 0.00 in0.0 mm 0.00 in/hr0.0 mm/hr 0.00 in0.0 mm
04:46 PM 59.9°F15.5°C 47.8°F8.8°C 65% 12.1 mph ESE19.5 kmh ESE 19.7 mph31.7 kmh 30.10 in1019.3 mb 0.00 in0.0 mm 0.00 in/hr0.0 mm/hr 0.00 in0.0 mm
04:48 PM 59.9°F15.5°C 47.8°F8.8°C 65% 11.4 mph ESE18.3 kmh ESE 19.7 mph31.7 kmh 30.10 in1019.3 mb 0.00 in0.0 mm 0.00 in/hr0.0 mm/hr 0.00 in0.0 mm
04:49 PM 59.9°F15.5°C 48.2°F9.0°C 66% 9.2 mph ESE14.8 kmh ESE 19.7 mph31.7 kmh 30.10 in1019.3 mb 0.00 in0.0 mm 0.00 in/hr0.0 mm/hr 0.00 in0.0 mm
04:50 PM 59.7°F15.4°C 48.5°F9.2°C 67% 12.1 mph ESE19.5 kmh ESE 19.7 mph31.7 kmh 30.09 in1019.0 mb 0.00 in0.0 mm 0.00 in/hr0.0 mm/hr 0.00 in0.0 mm
04:51 PM 59.7°F15.4°C 48.5°F9.2°C 67% 12.1 mph SE19.5 kmh SE 19.7 mph31.7 kmh 30.09 in1019.0 mb 0.00 in0.0 mm 0.00 in/hr0.0 mm/hr 0.00 in0.0 mm
04:52 PM 59.7°F15.4°C 48.5°F9.2°C 67% 13.0 mph ESE20.9 kmh ESE 19.7 mph31.7 kmh 30.09 in1019.0 mb 0.00 in0.0 mm 0.00 in/hr0.0 mm/hr 0.00 in0.0 mm
04:53 PM 59.7°F15.4°C 48.1°F8.9°C 66% 11.4 mph ESE18.3 kmh ESE 19.7 mph31.7 kmh 30.09 in1019.0 mb 0.00 in0.0 mm 0.00 in/hr0.0 mm/hr 0.00 in0.0 mm
04:54 PM 59.7°F15.4°C 48.5°F9.2°C 67% 11.4 mph ESE18.3 kmh ESE 19.7 mph31.7 kmh 30.09 in1019.0 mb 0.00 in0.0 mm 0.00 in/hr0.0 mm/hr 0.00 in0.0 mm
04:55 PM 59.9°F15.5°C 48.6°F9.2°C 67% 12.1 mph ESE19.5 kmh ESE 18.3 mph29.5 kmh 30.09 in1019.0 mb 0.00 in0.0 mm 0.00 in/hr0.0 mm/hr 0.00 in0.0 mm
04:56 PM 59.9°F15.5°C 48.6°F9.2°C 67% 13.0 mph ESE20.9 kmh ESE 16.8 mph27.0 kmh 30.08 in1018.6 mb 0.00 in0.0 mm 0.00 in/hr0.0 mm/hr 0.00 in0.0 mm
04:57 PM 59.9°F15.5°C 48.6°F9.2°C 67% 11.4 mph ESE18.3 kmh ESE 16.8 mph27.0 kmh 30.09 in1019.0 mb 0.00 in0.0 mm 0.00 in/hr0.0 mm/hr 0.00 in0.0 mm
04:58 PM 59.9°F15.5°C 48.6°F9.2°C 67% 11.4 mph E18.3 kmh E 16.8 mph27.0 kmh 30.08 in1018.6 mb 0.00 in0.0 mm 0.00 in/hr0.0 mm/hr 0.00 in0.0 mm
04:59 PM 59.9°F15.5°C 48.6°F9.2°C 67% 9.2 mph E14.8 kmh E 16.8 mph27.0 kmh 30.08 in1018.6 mb 0.00 in0.0 mm 0.00 in/hr0.0 mm/hr 0.00 in0.0 mm
05:00 PM 60.1°F15.6°C 49.2°F9.6°C 68% 12.1 mph E19.5 kmh E 16.8 mph27.0 kmh 30.07 in1018.3 mb 0.00 in0.0 mm 0.00 in/hr0.0 mm/hr 0.00 in0.0 mm
05:01 PM 60.1°F15.6°C 48.8°F9.3°C 67% 13.0 mph E20.9 kmh E 15.9 mph25.6 kmh 30.08 in1018.6 mb 0.00 in0.0 mm 0.00 in/hr0.0 mm/hr 0.00 in0.0 mm
05:02 PM 60.3°F15.7°C 49.0°F9.4°C 67% 10.7 mph E17.2 kmh E 15.9 mph25.6 kmh 30.08 in1018.6 mb 0.00 in0.0 mm 0.00 in/hr0.0 mm/hr 0.00 in0.0 mm
05:03 PM 60.3°F15.7°C 49.0°F9.4°C 67% 10.7 mph E17.2 kmh E 15.9 mph25.6 kmh 30.08 in1018.6 mb 0.00 in0.0 mm 0.00 in/hr0.0 mm/hr 0.00 in0.0 mm
05:04 PM 60.3°F15.7°C 49.0°F9.4°C 67% 10.7 mph E17.2 kmh E 15.9 mph25.6 kmh 30.08 in1018.6 mb 0.00 in0.0 mm 0.00 in/hr0.0 mm/hr 0.00 in0.0 mm
05:05 PM 60.3°F15.7°C 48.6°F9.2°C 66% 10.7 mph E17.2 kmh E 15.9 mph25.6 kmh 30.08 in1018.6 mb 0.00 in0.0 mm 0.00 in/hr0.0 mm/hr 0.00 in0.0 mm
05:06 PM 60.3°F15.7°C 48.1°F8.9°C 65% 13.0 mph E20.9 kmh E 17.4 mph28.0 kmh 30.09 in1019.0 mb 0.00 in0.0 mm 0.00 in/hr0.0 mm/hr 0.00 in0.0 mm
05:07 PM 60.3°F15.7°C 48.1°F8.9°C 65% 12.1 mph E19.5 kmh E 17.4 mph28.0 kmh 30.09 in1019.0 mb 0.00 in0.0 mm 0.00 in/hr0.0 mm/hr 0.00 in0.0 mm
05:08 PM 60.3°F15.7°C 48.1°F8.9°C 65% 9.2 mph E14.8 kmh E 17.4 mph28.0 kmh 30.09 in1019.0 mb 0.00 in0.0 mm 0.00 in/hr0.0 mm/hr 0.00 in0.0 mm
05:09 PM 60.3°F15.7°C 48.6°F9.2°C 66% 10.7 mph ESE17.2 kmh ESE 17.4 mph28.0 kmh 30.09 in1019.0 mb 0.00 in0.0 mm 0.00 in/hr0.0 mm/hr 0.00 in0.0 mm
05:10 PM 60.3°F15.7°C 48.6°F9.2°C 66% 8.3 mph ESE13.4 kmh ESE 17.4 mph28.0 kmh 30.09 in1019.0 mb 0.00 in0.0 mm 0.00 in/hr0.0 mm/hr 0.00 in0.0 mm
05:11 PM 60.1°F15.6°C 48.8°F9.3°C 67% 9.2 mph ESE14.8 kmh ESE 17.4 mph28.0 kmh 30.09 in1019.0 mb 0.00 in0.0 mm 0.00 in/hr0.0 mm/hr 0.00 in0.0 mm
05:12 PM 60.1°F15.6°C 48.8°F9.3°C 67% 9.8 mph ESE15.8 kmh ESE 17.4 mph28.0 kmh 30.09 in1019.0 mb 0.00 in0.0 mm 0.00 in/hr0.0 mm/hr 0.00 in0.0 mm
05:13 PM 60.1°F15.6°C 48.8°F9.3°C 67% 9.2 mph ESE14.8 kmh ESE 17.4 mph28.0 kmh 30.10 in1019.3 mb 0.00 in0.0 mm 0.00 in/hr0.0 mm/hr 0.00 in0.0 mm
05:14 PM 60.1°F15.6°C 48.8°F9.3°C 67% 8.3 mph ESE13.4 kmh ESE 17.4 mph28.0 kmh 30.10 in1019.3 mb 0.00 in0.0 mm 0.00 in/hr0.0 mm/hr 0.00 in0.0 mm
05:15 PM 59.9°F15.5°C 48.6°F9.2°C 67% 8.3 mph ESE13.4 kmh ESE 17.4 mph28.0 kmh 30.10 in1019.3 mb 0.00 in0.0 mm 0.00 in/hr0.0 mm/hr 0.00 in0.0 mm
05:16 PM 59.9°F15.5°C 48.6°F9.2°C 67% 9.8 mph ESE15.8 kmh ESE 17.4 mph28.0 kmh 30.10 in1019.3 mb 0.00 in0.0 mm 0.00 in/hr0.0 mm/hr 0.00 in0.0 mm
05:17 PM 59.9°F15.5°C 48.6°F9.2°C 67% 9.2 mph ESE14.8 kmh ESE 15.9 mph25.6 kmh 30.10 in1019.3 mb 0.00 in0.0 mm 0.00 in/hr0.0 mm/hr 0.00 in0.0 mm
05:18 PM 59.9°F15.5°C 48.6°F9.2°C 67% 9.8 mph SE15.8 kmh SE 12.1 mph19.5 kmh 30.10 in1019.3 mb 0.00 in0.0 mm 0.00 in/hr0.0 mm/hr 0.00 in0.0 mm
05:19 PM 59.9°F15.5°C 48.6°F9.2°C 67% 9.8 mph ESE15.8 kmh ESE 12.1 mph19.5 kmh 30.10 in1019.3 mb 0.00 in0.0 mm 0.00 in/hr0.0 mm/hr 0.00 in0.0 mm
05:20 PM 59.9°F15.5°C 48.2°F9.0°C 66% 8.3 mph ESE13.4 kmh ESE 12.1 mph19.5 kmh 30.10 in1019.3 mb 0.00 in0.0 mm 0.00 in/hr0.0 mm/hr 0.00 in0.0 mm
05:21 PM 59.9°F15.5°C 48.6°F9.2°C 67% 8.3 mph ESE13.4 kmh ESE 12.1 mph19.5 kmh 30.10 in1019.3 mb 0.00 in0.0 mm 0.00 in/hr0.0 mm/hr 0.00 in0.0 mm
05:22 PM 59.9°F15.5°C 49.1°F9.5°C 68% 13.0 mph ESE20.9 kmh ESE 13.6 mph21.9 kmh 30.10 in1019.3 mb 0.00 in0.0 mm 0.00 in/hr0.0 mm/hr 0.00 in0.0 mm
05:23 PM 59.9°F15.5°C 49.1°F9.5°C 68% 10.7 mph ESE17.2 kmh ESE 13.6 mph21.9 kmh 30.10 in1019.3 mb 0.00 in0.0 mm 0.00 in/hr0.0 mm/hr 0.00 in0.0 mm
05:24 PM 59.9°F15.5°C 48.6°F9.2°C 67% 12.1 mph SE19.5 kmh SE 15.9 mph25.6 kmh 30.10 in1019.3 mb 0.00 in0.0 mm 0.00 in/hr0.0 mm/hr 0.00 in0.0 mm
05:25 PM 59.9°F15.5°C 48.6°F9.2°C 67% 8.3 mph SE13.4 kmh SE 15.9 mph25.6 kmh 30.10 in1019.3 mb 0.00 in0.0 mm 0.00 in/hr0.0 mm/hr 0.00 in0.0 mm
05:27 PM 59.9°F15.5°C 49.1°F9.5°C 68% 9.8 mph SE15.8 kmh SE 15.9 mph25.6 kmh 30.10 in1019.3 mb 0.00 in0.0 mm 0.00 in/hr0.0 mm/hr 0.00 in0.0 mm
05:28 PM 59.9°F15.5°C 49.1°F9.5°C 68% 9.2 mph SE14.8 kmh SE 15.9 mph25.6 kmh 30.10 in1019.3 mb 0.00 in0.0 mm 0.00 in/hr0.0 mm/hr 0.00 in0.0 mm
05:29 PM 59.7°F15.4°C 48.9°F9.4°C 68% 9.2 mph SE14.8 kmh SE 15.9 mph25.6 kmh 30.11 in1019.6 mb 0.00 in0.0 mm 0.00 in/hr0.0 mm/hr 0.00 in0.0 mm
05:30 PM 59.7°F15.4°C 48.9°F9.4°C 68% 8.3 mph SE13.4 kmh SE 15.9 mph25.6 kmh 30.10 in1019.3 mb 0.00 in0.0 mm 0.00 in/hr0.0 mm/hr 0.00 in0.0 mm
05:31 PM 59.7°F15.4°C 49.3°F9.6°C 69% 9.2 mph SE14.8 kmh SE 15.9 mph25.6 kmh 30.11 in1019.6 mb 0.00 in0.0 mm 0.00 in/hr0.0 mm/hr 0.00 in0.0 mm
05:32 PM 59.7°F15.4°C 49.3°F9.6°C 69% 10.7 mph SE17.2 kmh SE 15.9 mph25.6 kmh 30.11 in1019.6 mb 0.00 in0.0 mm 0.00 in/hr0.0 mm/hr 0.00 in0.0 mm
05:33 PM 59.7°F15.4°C 48.9°F9.4°C 68% 9.2 mph SE14.8 kmh SE 15.9 mph25.6 kmh 30.11 in1019.6 mb 0.00 in0.0 mm 0.00 in/hr0.0 mm/hr 0.00 in0.0 mm
05:34 PM 59.7°F15.4°C 48.9°F9.4°C 68% 6.9 mph SE11.1 kmh SE 15.9 mph25.6 kmh 30.11 in1019.6 mb 0.00 in0.0 mm 0.00 in/hr0.0 mm/hr 0.00 in0.0 mm
05:35 PM 59.7°F15.4°C 49.3°F9.6°C 69% 7.6 mph SE12.2 kmh SE 13.6 mph21.9 kmh 30.11 in1019.6 mb 0.00 in0.0 mm 0.00 in/hr0.0 mm/hr 0.00 in0.0 mm
05:36 PM 59.7°F15.4°C 49.3°F9.6°C 69% 8.3 mph SE13.4 kmh SE 13.0 mph20.9 kmh 30.11 in1019.6 mb 0.00 in0.0 mm 0.00 in/hr0.0 mm/hr 0.00 in0.0 mm
05:38 PM 59.7°F15.4°C 49.7°F9.8°C 70% 8.3 mph SE13.4 kmh SE 13.0 mph20.9 kmh 30.11 in1019.6 mb 0.00 in0.0 mm 0.00 in/hr0.0 mm/hr 0.00 in0.0 mm
05:39 PM 59.7°F15.4°C 49.7°F9.8°C 70% 8.3 mph SE13.4 kmh SE 13.0 mph20.9 kmh 30.11 in1019.6 mb 0.00 in0.0 mm 0.00 in/hr0.0 mm/hr 0.00 in0.0 mm
05:40 PM 59.7°F15.4°C 49.7°F9.8°C 70% 9.2 mph SE14.8 kmh SE 13.0 mph20.9 kmh 30.10 in1019.3 mb 0.00 in0.0 mm 0.00 in/hr0.0 mm/hr 0.00 in0.0 mm
05:41 PM 59.7°F15.4°C 49.7°F9.8°C 70% 9.8 mph SE15.8 kmh SE 13.0 mph20.9 kmh 30.10 in1019.3 mb 0.00 in0.0 mm 0.00 in/hr0.0 mm/hr 0.00 in0.0 mm
05:42 PM 59.7°F15.4°C 49.3°F9.6°C 69% 9.2 mph SE14.8 kmh SE 13.0 mph20.9 kmh 30.10 in1019.3 mb 0.00 in0.0 mm 0.00 in/hr0.0 mm/hr 0.00 in0.0 mm
05:43 PM 59.7°F15.4°C 49.7°F9.8°C 70% 9.8 mph ESE15.8 kmh ESE 12.1 mph19.5 kmh 30.10 in1019.3 mb 0.00 in0.0 mm 0.00 in/hr0.0 mm/hr 0.00 in0.0 mm
05:44 PM 59.7°F15.4°C 49.7°F9.8°C 70% 9.8 mph ESE15.8 kmh ESE 12.1 mph19.5 kmh 30.10 in1019.3 mb 0.00 in0.0 mm 0.00 in/hr0.0 mm/hr 0.00 in0.0 mm
05:46 PM 59.5°F15.3°C 49.5°F9.7°C 70% 9.2 mph ESE14.8 kmh ESE 12.1 mph19.5 kmh 30.09 in1019.0 mb 0.00 in0.0 mm 0.00 in/hr0.0 mm/hr 0.00 in0.0 mm
05:47 PM 59.5°F15.3°C 49.5°F9.7°C 70% 9.2 mph ESE14.8 kmh ESE 12.1 mph19.5 kmh 30.09 in1019.0 mb 0.00 in0.0 mm 0.00 in/hr0.0 mm/hr 0.00 in0.0 mm
05:49 PM 59.5°F15.3°C 49.5°F9.7°C 70% 8.3 mph ESE13.4 kmh ESE 12.1 mph19.5 kmh 30.09 in1019.0 mb 0.00 in0.0 mm 0.00 in/hr0.0 mm/hr 0.00 in0.0 mm
05:50 PM 59.5°F15.3°C 49.5°F9.7°C 70% 9.8 mph ESE15.8 kmh ESE 12.1 mph19.5 kmh 30.09 in1019.0 mb 0.00 in0.0 mm 0.00 in/hr0.0 mm/hr 0.00 in0.0 mm
05:51 PM 59.5°F15.3°C 49.5°F9.7°C 70% 10.7 mph ESE17.2 kmh ESE 14.5 mph23.3 kmh 30.09 in1019.0 mb 0.00 in0.0 mm 0.00 in/hr0.0 mm/hr 0.00 in0.0 mm
05:52 PM 59.5°F15.3°C 49.5°F9.7°C 70% 11.4 mph ESE18.3 kmh ESE 15.9 mph25.6 kmh 30.09 in1019.0 mb 0.00 in0.0 mm 0.00 in/hr0.0 mm/hr 0.00 in0.0 mm
05:53 PM 59.5°F15.3°C 49.1°F9.5°C 69% 9.8 mph ESE15.8 kmh ESE 15.9 mph25.6 kmh 30.08 in1018.6 mb 0.00 in0.0 mm 0.00 in/hr0.0 mm/hr 0.00 in0.0 mm
05:54 PM 59.5°F15.3°C 49.1°F9.5°C 69% 9.8 mph ESE15.8 kmh ESE 15.9 mph25.6 kmh 30.08 in1018.6 mb 0.00 in0.0 mm 0.00 in/hr0.0 mm/hr 0.00 in0.0 mm
05:55 PM 59.5°F15.3°C 49.1°F9.5°C 69% 9.2 mph ESE14.8 kmh ESE 15.9 mph25.6 kmh 30.08 in1018.6 mb 0.00 in0.0 mm 0.00 in/hr0.0 mm/hr 0.00 in0.0 mm
05:56 PM 59.5°F15.3°C 49.5°F9.7°C 70% 13.0 mph ESE20.9 kmh ESE 15.9 mph25.6 kmh 30.08 in1018.6 mb 0.00 in0.0 mm 0.00 in/hr0.0 mm/hr 0.00 in0.0 mm
05:57 PM 59.5°F15.3°C 49.1°F9.5°C 69% 10.7 mph ESE17.2 kmh ESE 15.9 mph25.6 kmh 30.08 in1018.6 mb 0.00 in0.0 mm 0.00 in/hr0.0 mm/hr 0.00 in0.0 mm
05:58 PM 59.5°F15.3°C 49.1°F9.5°C 69% 12.1 mph ESE19.5 kmh ESE 15.9 mph25.6 kmh 30.09 in1019.0 mb 0.00 in0.0 mm 0.00 in/hr0.0 mm/hr 0.00 in0.0 mm
05:59 PM 59.5°F15.3°C 49.1°F9.5°C 69% 10.7 mph E17.2 kmh E 15.9 mph25.6 kmh 30.08 in1018.6 mb 0.00 in0.0 mm 0.00 in/hr0.0 mm/hr 0.00 in0.0 mm
06:00 PM 59.5°F15.3°C 48.7°F9.3°C 68% 8.3 mph E13.4 kmh E 15.9 mph25.6 kmh 30.08 in1018.6 mb 0.00 in0.0 mm 0.00 in/hr0.0 mm/hr 0.00 in0.0 mm
06:01 PM 59.5°F15.3°C 49.1°F9.5°C 69% 9.2 mph E14.8 kmh E 15.9 mph25.6 kmh 30.08 in1018.6 mb 0.00 in0.0 mm 0.00 in/hr0.0 mm/hr 0.00 in0.0 mm
06:02 PM 59.5°F15.3°C 49.5°F9.7°C 70% 8.3 mph ESE13.4 kmh ESE 15.9 mph25.6 kmh 30.08 in1018.6 mb 0.00 in0.0 mm 0.00 in/hr0.0 mm/hr 0.00 in0.0 mm
06:03 PM 59.5°F15.3°C 49.5°F9.7°C 70% 9.8 mph ESE15.8 kmh ESE 13.6 mph21.9 kmh 30.08 in1018.6 mb 0.00 in0.0 mm 0.00 in/hr0.0 mm/hr 0.00 in0.0 mm
06:04 PM 59.5°F15.3°C 49.5°F9.7°C 70% 9.2 mph ESE14.8 kmh ESE 13.6 mph21.9 kmh 30.08 in1018.6 mb 0.00 in0.0 mm 0.00 in/hr0.0 mm/hr 0.00 in0.0 mm
06:05 PM 59.5°F15.3°C 49.5°F9.7°C 70% 13.0 mph ESE20.9 kmh ESE 15.2 mph24.5 kmh 30.08 in1018.6 mb 0.00 in0.0 mm 0.00 in/hr0.0 mm/hr 0.00 in0.0 mm
06:06 PM 59.5°F15.3°C 49.1°F9.5°C 69% 9.8 mph SE15.8 kmh SE 15.2 mph24.5 kmh 30.08 in1018.6 mb 0.00 in0.0 mm 0.00 in/hr0.0 mm/hr 0.00 in0.0 mm
06:07 PM 59.5°F15.3°C 49.1°F9.5°C 69% 10.7 mph ESE17.2 kmh ESE 15.2 mph24.5 kmh 30.08 in1018.6 mb 0.00 in0.0 mm 0.00 in/hr0.0 mm/hr 0.00 in0.0 mm
06:08 PM 59.5°F15.3°C 49.1°F9.5°C 69% 10.7 mph ESE17.2 kmh ESE 15.2 mph24.5 kmh 30.08 in1018.6 mb 0.00 in0.0 mm 0.00 in/hr0.0 mm/hr 0.00 in0.0 mm
06:09 PM 59.5°F15.3°C 49.1°F9.5°C 69% 9.8 mph SE15.8 kmh SE 15.2 mph24.5 kmh 30.08 in1018.6 mb 0.00 in0.0 mm 0.00 in/hr0.0 mm/hr 0.00 in0.0 mm
06:10 PM 59.5°F15.3°C 49.1°F9.5°C 69% 11.4 mph SE18.3 kmh SE 15.2 mph24.5 kmh 30.08 in1018.6 mb 0.00 in0.0 mm 0.00 in/hr0.0 mm/hr 0.00 in0.0 mm
06:11 PM 59.5°F15.3°C 48.7°F9.3°C 68% 10.7 mph SE17.2 kmh SE 15.2 mph24.5 kmh 30.08 in1018.6 mb 0.00 in0.0 mm 0.00 in/hr0.0 mm/hr 0.00 in0.0 mm
06:12 PM 59.5°F15.3°C 48.7°F9.3°C 68% 9.8 mph ESE15.8 kmh ESE 15.2 mph24.5 kmh 30.09 in1019.0 mb 0.00 in0.0 mm 0.00 in/hr0.0 mm/hr 0.00 in0.0 mm
06:13 PM 59.5°F15.3°C 48.7°F9.3°C 68% 9.8 mph ESE15.8 kmh ESE 15.2 mph24.5 kmh 30.08 in1018.6 mb 0.00 in0.0 mm 0.00 in/hr0.0 mm/hr 0.00 in0.0 mm
06:14 PM 59.5°F15.3°C 48.7°F9.3°C 68% 9.8 mph ESE15.8 kmh ESE 15.2 mph24.5 kmh 30.08 in1018.6 mb 0.00 in0.0 mm 0.00 in/hr0.0 mm/hr 0.00 in0.0 mm
06:15 PM 59.5°F15.3°C 48.3°F9.1°C 67% 9.2 mph ESE14.8 kmh ESE 15.2 mph24.5 kmh 30.08 in1018.6 mb 0.00 in0.0 mm 0.00 in/hr0.0 mm/hr 0.00 in0.0 mm
06:16 PM 59.5°F15.3°C 48.3°F9.1°C 67% 9.2 mph ESE14.8 kmh ESE 14.5 mph23.3 kmh 30.08 in1018.6 mb 0.00 in0.0 mm 0.00 in/hr0.0 mm/hr 0.00 in0.0 mm
06:17 PM 59.5°F15.3°C 48.3°F9.1°C 67% 9.2 mph ESE14.8 kmh ESE 14.5 mph23.3 kmh 30.08 in1018.6 mb 0.00 in0.0 mm 0.00 in/hr0.0 mm/hr 0.00 in0.0 mm
06:18 PM 59.4°F15.2°C 48.5°F9.2°C 68% 9.2 mph ESE14.8 kmh ESE 14.5 mph23.3 kmh 30.09 in1019.0 mb 0.00 in0.0 mm 0.00 in/hr0.0 mm/hr 0.00 in0.0 mm
06:19 PM 59.4°F15.2°C 48.5°F9.2°C 68% 10.7 mph ESE17.2 kmh ESE 14.5 mph23.3 kmh 30.09 in1019.0 mb 0.00 in0.0 mm 0.00 in/hr0.0 mm/hr 0.00 in0.0 mm
06:20 PM 59.4°F15.2°C 48.5°F9.2°C 68% 9.8 mph SE15.8 kmh SE 14.5 mph23.3 kmh 30.09 in1019.0 mb 0.00 in0.0 mm 0.00 in/hr0.0 mm/hr 0.00 in0.0 mm
06:21 PM 59.4°F15.2°C 48.5°F9.2°C 68% 8.3 mph SE13.4 kmh SE 14.5 mph23.3 kmh 30.09 in1019.0 mb 0.00 in0.0 mm 0.00 in/hr0.0 mm/hr 0.00 in0.0 mm
06:22 PM 59.4°F15.2°C 48.5°F9.2°C 68% 9.8 mph SE15.8 kmh SE 14.5 mph23.3 kmh 30.09 in1019.0 mb 0.00 in0.0 mm 0.00 in/hr0.0 mm/hr 0.00 in0.0 mm
06:23 PM 59.4°F15.2°C 48.5°F9.2°C 68% 9.2 mph SE14.8 kmh SE 14.5 mph23.3 kmh 30.09 in1019.0 mb 0.00 in0.0 mm 0.00 in/hr0.0 mm/hr 0.00 in0.0 mm
06:24 PM 59.4°F15.2°C 48.5°F9.2°C 68% 8.3 mph SE13.4 kmh SE 13.6 mph21.9 kmh 30.09 in1019.0 mb 0.00 in0.0 mm 0.00 in/hr0.0 mm/hr 0.00 in0.0 mm
06:25 PM 59.4°F15.2°C 48.5°F9.2°C 68% 10.7 mph SE17.2 kmh SE 13.0 mph20.9 kmh 30.09 in1019.0 mb 0.00 in0.0 mm 0.00 in/hr0.0 mm/hr 0.00 in0.0 mm
06:26 PM 59.4°F15.2°C 48.5°F9.2°C 68% 8.3 mph SE13.4 kmh SE 13.0 mph20.9 kmh 30.09 in1019.0 mb 0.00 in0.0 mm 0.00 in/hr0.0 mm/hr 0.00 in0.0 mm
06:27 PM 59.2°F15.1°C 48.4°F9.1°C 68% 6.9 mph SE11.1 kmh SE 13.0 mph20.9 kmh 30.09 in1019.0 mb 0.00 in0.0 mm 0.00 in/hr0.0 mm/hr 0.00 in0.0 mm
06:28 PM 59.2°F15.1°C 48.8°F9.3°C 69% 10.7 mph SE17.2 kmh SE 13.0 mph20.9 kmh 30.09 in1019.0 mb 0.00 in0.0 mm 0.00 in/hr0.0 mm/hr 0.00 in0.0 mm
06:29 PM 59.2°F15.1°C 48.8°F9.3°C 69% 7.6 mph SE12.2 kmh SE 13.0 mph20.9 kmh 30.09 in1019.0 mb 0.00 in0.0 mm 0.00 in/hr0.0 mm/hr 0.00 in0.0 mm
06:30 PM 59.2°F15.1°C 48.8°F9.3°C 69% 9.2 mph SE14.8 kmh SE 13.0 mph20.9 kmh 30.09 in1019.0 mb 0.00 in0.0 mm 0.00 in/hr0.0 mm/hr 0.00 in0.0 mm
06:31 PM 59.0°F15.0°C 48.6°F9.2°C 69% 9.2 mph SE14.8 kmh SE 13.0 mph20.9 kmh 30.09 in1019.0 mb 0.00 in0.0 mm 0.00 in/hr0.0 mm/hr 0.00 in0.0 mm
06:32 PM 59.0°F15.0°C 48.6°F9.2°C 69% 9.2 mph SE14.8 kmh SE 13.0 mph20.9 kmh 30.09 in1019.0 mb 0.00 in0.0 mm 0.00 in/hr0.0 mm/hr 0.00 in0.0 mm
06:33 PM 59.0°F15.0°C 48.6°F9.2°C 69% 8.3 mph SE13.4 kmh SE 13.0 mph20.9 kmh 30.09 in1019.0 mb 0.00 in0.0 mm 0.00 in/hr0.0 mm/hr 0.00 in0.0 mm
06:34 PM 59.0°F15.0°C 48.6°F9.2°C 69% 7.6 mph SE12.2 kmh SE 13.0 mph20.9 kmh 30.09 in1019.0 mb 0.00 in0.0 mm 0.00 in/hr0.0 mm/hr 0.00 in0.0 mm
06:35 PM 59.0°F15.0°C 49.0°F9.4°C 70% 9.8 mph SE15.8 kmh SE 13.0 mph20.9 kmh 30.09 in1019.0 mb 0.00 in0.0 mm 0.00 in/hr0.0 mm/hr 0.00 in0.0 mm
06:36 PM 59.0°F15.0°C 49.0°F9.4°C 70% 8.3 mph SE13.4 kmh SE 13.0 mph20.9 kmh 30.09 in1019.0 mb 0.00 in0.0 mm 0.00 in/hr0.0 mm/hr 0.00 in0.0 mm
06:37 PM 59.0°F15.0°C 49.0°F9.4°C 70% 8.3 mph SE13.4 kmh SE 13.0 mph20.9 kmh 30.09 in1019.0 mb 0.00 in0.0 mm 0.00 in/hr0.0 mm/hr 0.00 in0.0 mm
06:38 PM 59.0°F15.0°C 49.0°F9.4°C 70% 8.3 mph SE13.4 kmh SE 13.0 mph20.9 kmh 30.08 in1018.6 mb 0.00 in0.0 mm 0.00 in/hr0.0 mm/hr 0.00 in0.0 mm
06:39 PM 59.0°F15.0°C 49.0°F9.4°C 70% 8.3 mph SE13.4 kmh SE 12.1 mph19.5 kmh 30.09 in1019.0 mb 0.00 in0.0 mm 0.00 in/hr0.0 mm/hr 0.00 in0.0 mm
06:40 PM 59.0°F15.0°C 49.0°F9.4°C 70% 6.9 mph SE11.1 kmh SE 12.1 mph19.5 kmh 30.09 in1019.0 mb 0.00 in0.0 mm 0.00 in/hr0.0 mm/hr 0.00 in0.0 mm
06:41 PM 59.0°F15.0°C 49.0°F9.4°C 70% 9.8 mph SE15.8 kmh SE 12.1 mph19.5 kmh 30.09 in1019.0 mb 0.00 in0.0 mm 0.00 in/hr0.0 mm/hr 0.00 in0.0 mm
06:42 PM 59.0°F15.0°C 49.0°F9.4°C 70% 8.3 mph SE13.4 kmh SE 12.1 mph19.5 kmh 30.09 in1019.0 mb 0.00 in0.0 mm 0.00 in/hr0.0 mm/hr 0.00 in0.0 mm
06:43 PM 59.0°F15.0°C 49.0°F9.4°C 70% 9.2 mph SE14.8 kmh SE 12.1 mph19.5 kmh 30.09 in1019.0 mb 0.00 in0.0 mm 0.00 in/hr0.0 mm/hr 0.00 in0.0 mm
06:44 PM 59.0°F15.0°C 49.0°F9.4°C 70% 9.2 mph SE14.8 kmh SE 12.1 mph19.5 kmh 30.09 in1019.0 mb 0.00 in0.0 mm 0.00 in/hr0.0 mm/hr 0.00 in0.0 mm
06:45 PM 59.0°F15.0°C 49.0°F9.4°C 70% 8.3 mph SE13.4 kmh SE 12.1 mph19.5 kmh 30.09 in1019.0 mb 0.00 in0.0 mm 0.00 in/hr0.0 mm/hr 0.00 in0.0 mm
06:46 PM 59.0°F15.0°C 49.0°F9.4°C 70% 7.6 mph SE12.2 kmh SE 12.1 mph19.5 kmh 30.08 in1018.6 mb 0.00 in0.0 mm 0.00 in/hr0.0 mm/hr 0.00 in0.0 mm
06:47 PM 59.0°F15.0°C 49.0°F9.4°C 70% 9.2 mph SE14.8 kmh SE 12.1 mph19.5 kmh 30.08 in1018.6 mb 0.00 in0.0 mm 0.00 in/hr0.0 mm/hr 0.00 in0.0 mm
06:48 PM 59.0°F15.0°C 49.0°F9.4°C 70% 7.6 mph SE12.2 kmh SE 12.1 mph19.5 kmh 30.08 in1018.6 mb 0.00 in0.0 mm 0.00 in/hr0.0 mm/hr 0.00 in0.0 mm
06:49 PM 59.0°F15.0°C 49.0°F9.4°C 70% 7.6 mph SE12.2 kmh SE 12.1 mph19.5 kmh 30.08 in1018.6 mb 0.00 in0.0 mm 0.00 in/hr0.0 mm/hr 0.00 in0.0 mm
06:50 PM 59.0°F15.0°C 49.0°F9.4°C 70% 9.2 mph SE14.8 kmh SE 12.1 mph19.5 kmh 30.08 in1018.6 mb 0.00 in0.0 mm 0.00 in/hr0.0 mm/hr 0.00 in0.0 mm
06:51 PM 59.0°F15.0°C 49.0°F9.4°C 70% 8.3 mph SE13.4 kmh SE 12.1 mph19.5 kmh 30.08 in1018.6 mb 0.00 in0.0 mm 0.00 in/hr0.0 mm/hr 0.00 in0.0 mm
06:52 PM 59.0°F15.0°C 49.0°F9.4°C 70% 9.8 mph SE15.8 kmh SE 13.0 mph20.9 kmh 30.08 in1018.6 mb 0.00 in0.0 mm 0.00 in/hr0.0 mm/hr 0.00 in0.0 mm
06:53 PM 58.8°F14.9°C 49.2°F9.6°C 71% 9.2 mph SE14.8 kmh SE 13.0 mph20.9 kmh 30.08 in1018.6 mb 0.00 in0.0 mm 0.00 in/hr0.0 mm/hr 0.00 in0.0 mm
06:54 PM 59.0°F15.0°C 49.0°F9.4°C 70% 10.7 mph SE17.2 kmh SE 13.0 mph20.9 kmh 30.08 in1018.6 mb 0.00 in0.0 mm 0.00 in/hr0.0 mm/hr 0.00 in0.0 mm
06:55 PM 59.0°F15.0°C 49.0°F9.4°C 70% 8.3 mph SE13.4 kmh SE 13.0 mph20.9 kmh 30.08 in1018.6 mb 0.00 in0.0 mm 0.00 in/hr0.0 mm/hr 0.00 in0.0 mm
06:56 PM 59.0°F15.0°C 49.0°F9.4°C 70% 8.3 mph SE13.4 kmh SE 13.0 mph20.9 kmh 30.08 in1018.6 mb 0.00 in0.0 mm 0.00 in/hr0.0 mm/hr 0.00 in0.0 mm
06:57 PM 59.0°F15.0°C 49.0°F9.4°C 70% 9.2 mph SE14.8 kmh SE 13.0 mph20.9 kmh 30.08 in1018.6 mb 0.00 in0.0 mm 0.00 in/hr0.0 mm/hr 0.00 in0.0 mm
06:58 PM 59.0°F15.0°C 49.0°F9.4°C 70% 9.8 mph SE15.8 kmh SE 13.0 mph20.9 kmh 30.07 in1018.3 mb 0.00 in0.0 mm 0.00 in/hr0.0 mm/hr 0.00 in0.0 mm
06:59 PM 59.0°F15.0°C 49.0°F9.4°C 70% 9.8 mph SE15.8 kmh SE 13.0 mph20.9 kmh 30.07 in1018.3 mb 0.00 in0.0 mm 0.00 in/hr0.0 mm/hr 0.00 in0.0 mm
07:00 PM 59.0°F15.0°C 49.0°F9.4°C 70% 10.7 mph SE17.2 kmh SE 13.0 mph20.9 kmh 30.07 in1018.3 mb 0.00 in0.0 mm 0.00 in/hr0.0 mm/hr 0.00 in0.0 mm
07:01 PM 58.8°F14.9°C 49.2°F9.6°C 71% 9.8 mph ESE15.8 kmh ESE 13.0 mph20.9 kmh 30.07 in1018.3 mb 0.00 in0.0 mm 0.00 in/hr0.0 mm/hr 0.00 in0.0 mm
07:02 PM 58.8°F14.9°C 49.2°F9.6°C 71% 9.8 mph ESE15.8 kmh ESE 13.0 mph20.9 kmh 30.07 in1018.3 mb 0.00 in0.0 mm 0.00 in/hr0.0 mm/hr 0.00 in0.0 mm
07:03 PM 58.8°F14.9°C 49.2°F9.6°C 71% 11.4 mph ESE18.3 kmh ESE 13.6 mph21.9 kmh 30.07 in1018.3 mb 0.00 in0.0 mm 0.00 in/hr0.0 mm/hr 0.00 in0.0 mm
07:04 PM 58.6°F14.8°C 49.1°F9.5°C 71% 9.8 mph ESE15.8 kmh ESE 13.6 mph21.9 kmh 30.07 in1018.3 mb 0.00 in0.0 mm 0.00 in/hr0.0 mm/hr 0.00 in0.0 mm
07:05 PM 58.6°F14.8°C 49.1°F9.5°C 71% 11.4 mph ESE18.3 kmh ESE 13.6 mph21.9 kmh 30.07 in1018.3 mb 0.00 in0.0 mm 0.00 in/hr0.0 mm/hr 0.00 in0.0 mm
07:06 PM 58.6°F14.8°C 49.1°F9.5°C 71% 10.7 mph ESE17.2 kmh ESE 13.6 mph21.9 kmh 30.06 in1017.9 mb 0.00 in0.0 mm 0.00 in/hr0.0 mm/hr 0.00 in0.0 mm
07:07 PM 58.6°F14.8°C 49.1°F9.5°C 71% 10.7 mph ESE17.2 kmh ESE 13.6 mph21.9 kmh 30.06 in1017.9 mb 0.00 in0.0 mm 0.00 in/hr0.0 mm/hr 0.00 in0.0 mm
07:08 PM 58.6°F14.8°C 49.1°F9.5°C 71% 9.2 mph ESE14.8 kmh ESE 13.6 mph21.9 kmh 30.06 in1017.9 mb 0.00 in0.0 mm 0.00 in/hr0.0 mm/hr 0.00 in0.0 mm
07:09 PM 58.6°F14.8°C 49.1°F9.5°C 71% 10.7 mph ESE17.2 kmh ESE 13.6 mph21.9 kmh 30.06 in1017.9 mb 0.00 in0.0 mm 0.00 in/hr0.0 mm/hr 0.00 in0.0 mm
07:10 PM 58.5°F14.7°C 48.9°F9.4°C 71% 9.8 mph SE15.8 kmh SE 13.6 mph21.9 kmh 30.07 in1018.3 mb 0.00 in0.0 mm 0.00 in/hr0.0 mm/hr 0.00 in0.0 mm
07:11 PM 58.5°F14.7°C 48.9°F9.4°C 71% 9.8 mph SE15.8 kmh SE 13.6 mph21.9 kmh 30.07 in1018.3 mb 0.00 in0.0 mm 0.00 in/hr0.0 mm/hr 0.00 in0.0 mm
07:12 PM 58.5°F14.7°C 49.3°F9.6°C 72% 9.2 mph SE14.8 kmh SE 13.6 mph21.9 kmh 30.06 in1017.9 mb 0.00 in0.0 mm 0.00 in/hr0.0 mm/hr 0.00 in0.0 mm
07:13 PM 58.5°F14.7°C 49.3°F9.6°C 72% 10.7 mph SE17.2 kmh SE 13.6 mph21.9 kmh 30.06 in1017.9 mb 0.00 in0.0 mm 0.00 in/hr0.0 mm/hr 0.00 in0.0 mm
07:14 PM 58.5°F14.7°C 49.3°F9.6°C 72% 8.3 mph SE13.4 kmh SE 13.6 mph21.9 kmh 30.06 in1017.9 mb 0.00 in0.0 mm 0.00 in/hr0.0 mm/hr 0.00 in0.0 mm
07:15 PM 58.5°F14.7°C 49.3°F9.6°C 72% 9.2 mph SE14.8 kmh SE 13.6 mph21.9 kmh 30.06 in1017.9 mb 0.00 in0.0 mm 0.00 in/hr0.0 mm/hr 0.00 in0.0 mm
07:16 PM 58.3°F14.6°C 49.1°F9.5°C 72% 9.2 mph SE14.8 kmh SE 13.6 mph21.9 kmh 30.07 in1018.3 mb 0.00 in0.0 mm 0.00 in/hr0.0 mm/hr 0.00 in0.0 mm
07:17 PM 58.3°F14.6°C 49.1°F9.5°C 72% 10.7 mph SE17.2 kmh SE 13.6 mph21.9 kmh 30.07 in1018.3 mb 0.00 in0.0 mm 0.00 in/hr0.0 mm/hr 0.00 in0.0 mm
07:18 PM 58.3°F14.6°C 49.1°F9.5°C 72% 9.8 mph SE15.8 kmh SE 13.6 mph21.9 kmh 30.07 in1018.3 mb 0.00 in0.0 mm 0.00 in/hr0.0 mm/hr 0.00 in0.0 mm
07:19 PM 58.3°F14.6°C 49.1°F9.5°C 72% 8.3 mph SE13.4 kmh SE 13.6 mph21.9 kmh 30.07 in1018.3 mb 0.00 in0.0 mm 0.00 in/hr0.0 mm/hr 0.00 in0.0 mm
07:20 PM 58.3°F14.6°C 49.1°F9.5°C 72% 8.3 mph SE13.4 kmh SE 13.0 mph20.9 kmh 30.07 in1018.3 mb 0.00 in0.0 mm 0.00 in/hr0.0 mm/hr 0.00 in0.0 mm
07:21 PM 58.3°F14.6°C 49.1°F9.5°C 72% 9.2 mph SE14.8 kmh SE 12.1 mph19.5 kmh 30.07 in1018.3 mb 0.00 in0.0 mm 0.00 in/hr0.0 mm/hr 0.00 in0.0 mm
07:22 PM 58.3°F14.6°C 49.1°F9.5°C 72% 8.3 mph SE13.4 kmh SE 12.1 mph19.5 kmh 30.07 in1018.3 mb 0.00 in0.0 mm 0.00 in/hr0.0 mm/hr 0.00 in0.0 mm
07:23 PM 58.3°F14.6°C 49.1°F9.5°C 72% 9.2 mph SE14.8 kmh SE 12.1 mph19.5 kmh 30.07 in1018.3 mb 0.00 in0.0 mm 0.00 in/hr0.0 mm/hr 0.00 in0.0 mm
07:24 PM 58.3°F14.6°C 48.7°F9.3°C 71% 9.8 mph SE15.8 kmh SE 12.1 mph19.5 kmh 30.07 in1018.3 mb 0.00 in0.0 mm 0.00 in/hr0.0 mm/hr 0.00 in0.0 mm
07:25 PM 58.3°F14.6°C 48.7°F9.3°C 71% 9.2 mph SE14.8 kmh SE 12.1 mph19.5 kmh 30.07 in1018.3 mb 0.00 in0.0 mm 0.00 in/hr0.0 mm/hr 0.00 in0.0 mm
07:26 PM 58.3°F14.6°C 48.7°F9.3°C 71% 7.6 mph SE12.2 kmh SE 12.1 mph19.5 kmh 30.07 in1018.3 mb 0.00 in0.0 mm 0.00 in/hr0.0 mm/hr 0.00 in0.0 mm
07:27 PM 58.3°F14.6°C 48.7°F9.3°C 71% 8.3 mph SE13.4 kmh SE 12.1 mph19.5 kmh 30.07 in1018.3 mb 0.00 in0.0 mm 0.00 in/hr0.0 mm/hr 0.00 in0.0 mm
07:28 PM 58.3°F14.6°C 48.7°F9.3°C 71% 8.3 mph SE13.4 kmh SE 12.1 mph19.5 kmh 30.07 in1018.3 mb 0.00 in0.0 mm 0.00 in/hr0.0 mm/hr 0.00 in0.0 mm
07:29 PM 58.3°F14.6°C 48.7°F9.3°C 71% 7.6 mph SE12.2 kmh SE 12.1 mph19.5 kmh 30.08 in1018.6 mb 0.00 in0.0 mm 0.00 in/hr0.0 mm/hr 0.00 in0.0 mm
07:30 PM 58.1°F14.5°C 48.6°F9.2°C 71% 6.9 mph SE11.1 kmh SE 12.1 mph19.5 kmh 30.08 in1018.6 mb 0.00 in0.0 mm 0.00 in/hr0.0 mm/hr 0.00 in0.0 mm
07:31 PM 58.1°F14.5°C 48.9°F9.4°C 72% 8.3 mph SE13.4 kmh SE 12.1 mph19.5 kmh 30.08 in1018.6 mb 0.00 in0.0 mm 0.00 in/hr0.0 mm/hr 0.00 in0.0 mm
07:32 PM 58.1°F14.5°C 48.9°F9.4°C 72% 7.6 mph SE12.2 kmh SE 12.1 mph19.5 kmh 30.08 in1018.6 mb 0.00 in0.0 mm 0.00 in/hr0.0 mm/hr 0.00 in0.0 mm
07:33 PM 58.1°F14.5°C 48.9°F9.4°C 72% 9.2 mph ESE14.8 kmh ESE 12.1 mph19.5 kmh 30.07 in1018.3 mb 0.00 in0.0 mm 0.00 in/hr0.0 mm/hr 0.00 in0.0 mm
07:34 PM 58.1°F14.5°C 48.9°F9.4°C 72% 6.9 mph ESE11.1 kmh ESE 12.1 mph19.5 kmh 30.08 in1018.6 mb 0.00 in0.0 mm 0.00 in/hr0.0 mm/hr 0.00 in0.0 mm
07:35 PM 57.9°F14.4°C 48.8°F9.3°C 72% 9.2 mph ESE14.8 kmh ESE 11.4 mph18.3 kmh 30.07 in1018.3 mb 0.00 in0.0 mm 0.00 in/hr0.0 mm/hr 0.00 in0.0 mm
07:36 PM 57.9°F14.4°C 48.8°F9.3°C 72% 7.6 mph ESE12.2 kmh ESE 11.4 mph18.3 kmh 30.08 in1018.6 mb 0.00 in0.0 mm 0.00 in/hr0.0 mm/hr 0.00 in0.0 mm
07:37 PM 57.9°F14.4°C 48.8°F9.3°C 72% 7.6 mph ESE12.2 kmh ESE 11.4 mph18.3 kmh 30.07 in1018.3 mb 0.00 in0.0 mm 0.00 in/hr0.0 mm/hr 0.00 in0.0 mm
07:38 PM 57.9°F14.4°C 48.8°F9.3°C 72% 7.6 mph ESE12.2 kmh ESE 10.7 mph17.2 kmh 30.07 in1018.3 mb 0.00 in0.0 mm 0.00 in/hr0.0 mm/hr 0.00 in0.0 mm
07:39 PM 57.7°F14.3°C 48.6°F9.2°C 72% 9.2 mph SE14.8 kmh SE 10.7 mph17.2 kmh 30.07 in1018.3 mb 0.00 in0.0 mm 0.00 in/hr0.0 mm/hr 0.00 in0.0 mm
07:40 PM 57.7°F14.3°C 48.6°F9.2°C 72% 8.3 mph SE13.4 kmh SE 10.7 mph17.2 kmh 30.07 in1018.3 mb 0.00 in0.0 mm 0.00 in/hr0.0 mm/hr 0.00 in0.0 mm
07:41 PM 57.9°F14.4°C 48.8°F9.3°C 72% 6.9 mph ESE11.1 kmh ESE 10.7 mph17.2 kmh 30.07 in1018.3 mb 0.00 in0.0 mm 0.00 in/hr0.0 mm/hr 0.00 in0.0 mm
07:42 PM 57.7°F14.3°C 48.6°F9.2°C 72% 6.9 mph ESE11.1 kmh ESE 10.7 mph17.2 kmh 30.08 in1018.6 mb 0.00 in0.0 mm 0.00 in/hr0.0 mm/hr 0.00 in0.0 mm
07:43 PM 57.7°F14.3°C 48.6°F9.2°C 72% 6.9 mph ESE11.1 kmh ESE 10.7 mph17.2 kmh 30.08 in1018.6 mb 0.00 in0.0 mm 0.00 in/hr0.0 mm/hr 0.00 in0.0 mm
07:44 PM 57.7°F14.3°C 48.6°F9.2°C 72% 7.6 mph ESE12.2 kmh ESE 10.7 mph17.2 kmh 30.07 in1018.3 mb 0.00 in0.0 mm 0.00 in/hr0.0 mm/hr 0.00 in0.0 mm
07:45 PM 57.7°F14.3°C 48.6°F9.2°C 72% 7.6 mph ESE12.2 kmh ESE 10.7 mph17.2 kmh 30.08 in1018.6 mb 0.00 in0.0 mm 0.00 in/hr0.0 mm/hr 0.00 in0.0 mm
07:46 PM 57.7°F14.3°C 48.6°F9.2°C 72% 6.9 mph ESE11.1 kmh ESE 10.7 mph17.2 kmh 30.08 in1018.6 mb 0.00 in0.0 mm 0.00 in/hr0.0 mm/hr 0.00 in0.0 mm
07:47 PM 57.7°F14.3°C 48.6°F9.2°C 72% 6.0 mph SE9.7 kmh SE 10.7 mph17.2 kmh 30.07 in1018.3 mb 0.00 in0.0 mm 0.00 in/hr0.0 mm/hr 0.00 in0.0 mm
07:48 PM 57.7°F14.3°C 48.6°F9.2°C 72% 7.6 mph SE12.2 kmh SE 10.7 mph17.2 kmh 30.08 in1018.6 mb 0.00 in0.0 mm 0.00 in/hr0.0 mm/hr 0.00 in0.0 mm
07:49 PM 57.7°F14.3°C 48.6°F9.2°C 72% 7.6 mph ESE12.2 kmh ESE 10.7 mph17.2 kmh 30.07 in1018.3 mb 0.00 in0.0 mm 0.00 in/hr0.0 mm/hr 0.00 in0.0 mm
07:50 PM 57.6°F14.2°C 48.8°F9.3°C 73% 8.3 mph ESE13.4 kmh ESE 10.7 mph17.2 kmh 30.07 in1018.3 mb 0.00 in0.0 mm 0.00 in/hr0.0 mm/hr 0.00 in0.0 mm
07:51 PM 57.6°F14.2°C 48.8°F9.3°C 73% 9.2 mph ESE14.8 kmh ESE 10.7 mph17.2 kmh 30.08 in1018.6 mb 0.00 in0.0 mm 0.00 in/hr0.0 mm/hr 0.00 in0.0 mm
07:52 PM 57.6°F14.2°C 48.8°F9.3°C 73% 8.3 mph ESE13.4 kmh ESE 10.7 mph17.2 kmh 30.08 in1018.6 mb 0.00 in0.0 mm 0.00 in/hr0.0 mm/hr 0.00 in0.0 mm
07:53 PM 57.6°F14.2°C 48.8°F9.3°C 73% 7.6 mph ESE12.2 kmh ESE 10.7 mph17.2 kmh 30.08 in1018.6 mb 0.00 in0.0 mm 0.00 in/hr0.0 mm/hr 0.00 in0.0 mm
07:54 PM 57.6°F14.2°C 48.8°F9.3°C 73% 7.6 mph ESE12.2 kmh ESE 10.7 mph17.2 kmh 30.07 in1018.3 mb 0.00 in0.0 mm 0.00 in/hr0.0 mm/hr 0.00 in0.0 mm
07:55 PM 57.4°F14.1°C 48.6°F9.2°C 73% 8.3 mph ESE13.4 kmh ESE 10.7 mph17.2 kmh 30.08 in1018.6 mb 0.00 in0.0 mm 0.00 in/hr0.0 mm/hr 0.00 in0.0 mm
07:56 PM 57.4°F14.1°C 48.6°F9.2°C 73% 9.2 mph ESE14.8 kmh ESE 10.7 mph17.2 kmh 30.07 in1018.3 mb 0.00 in0.0 mm 0.00 in/hr0.0 mm/hr 0.00 in0.0 mm
07:57 PM 57.4°F14.1°C 48.6°F9.2°C 73% 8.3 mph SE13.4 kmh SE 10.7 mph17.2 kmh 30.07 in1018.3 mb 0.00 in0.0 mm 0.00 in/hr0.0 mm/hr 0.00 in0.0 mm
07:58 PM 57.4°F14.1°C 48.6°F9.2°C 73% 7.6 mph SE12.2 kmh SE 10.7 mph17.2 kmh 30.07 in1018.3 mb 0.00 in0.0 mm 0.00 in/hr0.0 mm/hr 0.00 in0.0 mm
07:59 PM 57.4°F14.1°C 48.6°F9.2°C 73% 7.6 mph SE12.2 kmh SE 10.7 mph17.2 kmh 30.07 in1018.3 mb 0.00 in0.0 mm 0.00 in/hr0.0 mm/hr 0.00 in0.0 mm
08:00 PM 57.4°F14.1°C 48.6°F9.2°C 73% 9.2 mph SE14.8 kmh SE 10.7 mph17.2 kmh 30.07 in1018.3 mb 0.00 in0.0 mm 0.00 in/hr0.0 mm/hr 0.00 in0.0 mm
08:01 PM 57.4°F14.1°C 48.6°F9.2°C 73% 7.6 mph SE12.2 kmh SE 10.7 mph17.2 kmh 30.08 in1018.6 mb 0.00 in0.0 mm 0.00 in/hr0.0 mm/hr 0.00 in0.0 mm
08:02 PM 57.2°F14.0°C 48.5°F9.2°C 73% 6.9 mph SE11.1 kmh SE 10.7 mph17.2 kmh 30.08 in1018.6 mb 0.00 in0.0 mm 0.00 in/hr0.0 mm/hr 0.00 in0.0 mm
08:03 PM 57.2°F14.0°C 48.5°F9.2°C 73% 6.9 mph SE11.1 kmh SE 10.7 mph17.2 kmh 30.08 in1018.6 mb 0.00 in0.0 mm 0.00 in/hr0.0 mm/hr 0.00 in0.0 mm
08:04 PM 57.2°F14.0°C 48.8°F9.3°C 74% 6.9 mph SE11.1 kmh SE 10.7 mph17.2 kmh 30.08 in1018.6 mb 0.00 in0.0 mm 0.00 in/hr0.0 mm/hr 0.00 in0.0 mm
08:05 PM 57.0°F13.9°C 49.0°F9.4°C 75% 6.9 mph SE11.1 kmh SE 10.7 mph17.2 kmh 30.08 in1018.6 mb 0.00 in0.0 mm 0.00 in/hr0.0 mm/hr 0.00 in0.0 mm
08:06 PM 57.0°F13.9°C 49.0°F9.4°C 75% 7.6 mph SE12.2 kmh SE 10.7 mph17.2 kmh 30.08 in1018.6 mb 0.00 in0.0 mm 0.00 in/hr0.0 mm/hr 0.00 in0.0 mm
08:07 PM 57.0°F13.9°C 49.0°F9.4°C 75% 6.9 mph SE11.1 kmh SE 10.7 mph17.2 kmh 30.08 in1018.6 mb 0.00 in0.0 mm 0.00 in/hr0.0 mm/hr 0.00 in0.0 mm
08:08 PM 57.0°F13.9°C 49.0°F9.4°C 75% 6.9 mph ESE11.1 kmh ESE 10.7 mph17.2 kmh 30.08 in1018.6 mb 0.00 in0.0 mm 0.00 in/hr0.0 mm/hr 0.00 in0.0 mm
08:09 PM 57.0°F13.9°C 49.0°F9.4°C 75% 6.9 mph ESE11.1 kmh ESE 10.7 mph17.2 kmh 30.08 in1018.6 mb 0.00 in0.0 mm 0.00 in/hr0.0 mm/hr 0.00 in0.0 mm
08:10 PM 56.8°F13.8°C 48.9°F9.4°C 75% 6.0 mph ESE9.7 kmh ESE 10.7 mph17.2 kmh 30.08 in1018.6 mb 0.00 in0.0 mm 0.00 in/hr0.0 mm/hr 0.00 in0.0 mm
08:11 PM 56.8°F13.8°C 48.9°F9.4°C 75% 6.0 mph ESE9.7 kmh ESE 9.2 mph14.8 kmh 30.08 in1018.6 mb 0.00 in0.0 mm 0.00 in/hr0.0 mm/hr 0.00 in0.0 mm
08:12 PM 56.8°F13.8°C 48.9°F9.4°C 75% 6.9 mph SE11.1 kmh SE 9.2 mph14.8 kmh 30.08 in1018.6 mb 0.00 in0.0 mm 0.00 in/hr0.0 mm/hr 0.00 in0.0 mm
08:13 PM 56.8°F13.8°C 49.2°F9.6°C 76% 6.9 mph ESE11.1 kmh ESE 9.2 mph14.8 kmh 30.08 in1018.6 mb 0.00 in0.0 mm 0.00 in/hr0.0 mm/hr 0.00 in0.0 mm
08:14 PM 56.7°F13.7°C 49.1°F9.5°C 76% 6.9 mph ESE11.1 kmh ESE 9.2 mph14.8 kmh 30.08 in1018.6 mb 0.00 in0.0 mm 0.00 in/hr0.0 mm/hr 0.00 in0.0 mm
08:15 PM 56.7°F13.7°C 49.1°F9.5°C 76% 6.9 mph SE11.1 kmh SE 9.2 mph14.8 kmh 30.08 in1018.6 mb 0.00 in0.0 mm 0.00 in/hr0.0 mm/hr 0.00 in0.0 mm
08:16 PM 56.7°F13.7°C 49.1°F9.5°C 76% 6.9 mph SE11.1 kmh SE 9.2 mph14.8 kmh 30.08 in1018.6 mb 0.00 in0.0 mm 0.00 in/hr0.0 mm/hr 0.00 in0.0 mm
08:17 PM 56.7°F13.7°C 49.1°F9.5°C 76% 6.9 mph SE11.1 kmh SE 9.2 mph14.8 kmh 30.08 in1018.6 mb 0.00 in0.0 mm 0.00 in/hr0.0 mm/hr 0.00 in0.0 mm
08:18 PM 56.5°F13.6°C 48.9°F9.4°C 76% 6.9 mph SE11.1 kmh SE 9.2 mph14.8 kmh 30.08 in1018.6 mb 0.00 in0.0 mm 0.00 in/hr0.0 mm/hr 0.00 in0.0 mm
08:19 PM 56.7°F13.7°C 49.1°F9.5°C 76% 6.0 mph SE9.7 kmh SE 9.2 mph14.8 kmh 30.08 in1018.6 mb 0.00 in0.0 mm 0.00 in/hr0.0 mm/hr 0.00 in0.0 mm
08:20 PM 56.5°F13.6°C 48.9°F9.4°C 76% 5.4 mph SE8.7 kmh SE 9.2 mph14.8 kmh 30.08 in1018.6 mb 0.00 in0.0 mm 0.00 in/hr0.0 mm/hr 0.00 in0.0 mm
08:21 PM 56.5°F13.6°C 48.9°F9.4°C 76% 6.9 mph SE11.1 kmh SE 9.2 mph14.8 kmh 30.08 in1018.6 mb 0.00 in0.0 mm 0.00 in/hr0.0 mm/hr 0.00 in0.0 mm
08:22 PM 56.5°F13.6°C 48.9°F9.4°C 76% 6.0 mph SE9.7 kmh SE 8.3 mph13.4 kmh 30.08 in1018.6 mb 0.00 in0.0 mm 0.00 in/hr0.0 mm/hr 0.00 in0.0 mm
08:23 PM 56.5°F13.6°C 48.9°F9.4°C 76% 6.9 mph SE11.1 kmh SE 8.3 mph13.4 kmh 30.08 in1018.6 mb 0.00 in0.0 mm 0.00 in/hr0.0 mm/hr 0.00 in0.0 mm
08:24 PM 56.5°F13.6°C 48.9°F9.4°C 76% 6.0 mph SE9.7 kmh SE 8.3 mph13.4 kmh 30.08 in1018.6 mb 0.00 in0.0 mm 0.00 in/hr0.0 mm/hr 0.00 in0.0 mm
08:25 PM 56.5°F13.6°C 48.9°F9.4°C 76% 6.0 mph SE9.7 kmh SE 8.3 mph13.4 kmh 30.08 in1018.6 mb 0.00 in0.0 mm 0.00 in/hr0.0 mm/hr 0.00 in0.0 mm
08:26 PM 56.5°F13.6°C 48.9°F9.4°C 76% 5.4 mph SE8.7 kmh SE 8.3 mph13.4 kmh 30.08 in1018.6 mb 0.00 in0.0 mm 0.00 in/hr0.0 mm/hr 0.00 in0.0 mm
08:27 PM 56.5°F13.6°C 48.9°F9.4°C 76% 5.4 mph SE8.7 kmh SE 8.3 mph13.4 kmh 30.08 in1018.6 mb 0.00 in0.0 mm 0.00 in/hr0.0 mm/hr 0.00 in0.0 mm
08:28 PM 56.3°F13.5°C 48.7°F9.3°C 76% 5.4 mph SE8.7 kmh SE 8.3 mph13.4 kmh 30.09 in1019.0 mb 0.00 in0.0 mm 0.00 in/hr0.0 mm/hr 0.00 in0.0 mm
08:29 PM 56.3°F13.5°C 48.7°F9.3°C 76% 5.4 mph SE8.7 kmh SE 7.6 mph12.2 kmh 30.08 in1018.6 mb 0.00 in0.0 mm 0.00 in/hr0.0 mm/hr 0.00 in0.0 mm
08:30 PM 56.3°F13.5°C 49.1°F9.5°C 77% 6.0 mph SE9.7 kmh SE 7.6 mph12.2 kmh 30.08 in1018.6 mb 0.00 in0.0 mm 0.00 in/hr0.0 mm/hr 0.00 in0.0 mm
08:31 PM 56.3°F13.5°C 49.1°F9.5°C 77% 6.0 mph SE9.7 kmh SE 7.6 mph12.2 kmh 30.09 in1019.0 mb 0.00 in0.0 mm 0.00 in/hr0.0 mm/hr 0.00 in0.0 mm
08:32 PM 56.3°F13.5°C 49.1°F9.5°C 77% 7.6 mph SE12.2 kmh SE 8.3 mph13.4 kmh 30.09 in1019.0 mb 0.00 in0.0 mm 0.00 in/hr0.0 mm/hr 0.00 in0.0 mm
08:33 PM 56.3°F13.5°C 49.1°F9.5°C 77% 6.0 mph SE9.7 kmh SE 8.3 mph13.4 kmh 30.09 in1019.0 mb 0.00 in0.0 mm 0.00 in/hr0.0 mm/hr 0.00 in0.0 mm
08:34 PM 56.3°F13.5°C 49.1°F9.5°C 77% 6.0 mph SE9.7 kmh SE 8.3 mph13.4 kmh 30.09 in1019.0 mb 0.00 in0.0 mm 0.00 in/hr0.0 mm/hr 0.00 in0.0 mm
08:35 PM 56.3°F13.5°C 49.1°F9.5°C 77% 6.0 mph SE9.7 kmh SE 8.3 mph13.4 kmh 30.09 in1019.0 mb 0.00 in0.0 mm 0.00 in/hr0.0 mm/hr 0.00 in0.0 mm
08:36 PM 56.3°F13.5°C 49.1°F9.5°C 77% 6.0 mph SE9.7 kmh SE 8.3 mph13.4 kmh 30.09 in1019.0 mb 0.00 in0.0 mm 0.00 in/hr0.0 mm/hr 0.00 in0.0 mm
08:37 PM 56.3°F13.5°C 49.1°F9.5°C 77% 6.0 mph SE9.7 kmh SE 8.3 mph13.4 kmh 30.09 in1019.0 mb 0.00 in0.0 mm 0.00 in/hr0.0 mm/hr 0.00 in0.0 mm
08:38 PM 56.3°F13.5°C 49.1°F9.5°C 77% 6.0 mph SE9.7 kmh SE 8.3 mph13.4 kmh 30.09 in1019.0 mb 0.00 in0.0 mm 0.00 in/hr0.0 mm/hr 0.00 in0.0 mm
08:39 PM 56.3°F13.5°C 49.1°F9.5°C 77% 5.4 mph SE8.7 kmh SE 8.3 mph13.4 kmh 30.09 in1019.0 mb 0.00 in0.0 mm 0.00 in/hr0.0 mm/hr 0.00 in0.0 mm
08:40 PM 56.3°F13.5°C 49.1°F9.5°C 77% 6.0 mph SE9.7 kmh SE 8.3 mph13.4 kmh 30.09 in1019.0 mb 0.00 in0.0 mm 0.00 in/hr0.0 mm/hr 0.00 in0.0 mm
08:41 PM 56.3°F13.5°C 49.1°F9.5°C 77% 5.4 mph SE8.7 kmh SE 8.3 mph13.4 kmh 30.09 in1019.0 mb 0.00 in0.0 mm 0.00 in/hr0.0 mm/hr 0.00 in0.0 mm
08:42 PM 56.3°F13.5°C 49.1°F9.5°C 77% 5.4 mph SE8.7 kmh SE 8.3 mph13.4 kmh 30.09 in1019.0 mb 0.00 in0.0 mm 0.00 in/hr0.0 mm/hr 0.00 in0.0 mm
08:43 PM 56.3°F13.5°C 49.1°F9.5°C 77% 5.4 mph SE8.7 kmh SE 8.3 mph13.4 kmh 30.09 in1019.0 mb 0.00 in0.0 mm 0.00 in/hr0.0 mm/hr 0.00 in0.0 mm
08:44 PM 56.3°F13.5°C 49.1°F9.5°C 77% 5.4 mph SE8.7 kmh SE 8.3 mph13.4 kmh 30.09 in1019.0 mb 0.00 in0.0 mm 0.00 in/hr0.0 mm/hr 0.00 in0.0 mm
08:45 PM 56.3°F13.5°C 49.1°F9.5°C 77% 5.4 mph ESE8.7 kmh ESE 8.3 mph13.4 kmh 30.09 in1019.0 mb 0.00 in0.0 mm 0.00 in/hr0.0 mm/hr 0.00 in0.0 mm
08:46 PM 56.3°F13.5°C 49.1°F9.5°C 77% 4.5 mph ESE7.2 kmh ESE 8.3 mph13.4 kmh 30.09 in1019.0 mb 0.00 in0.0 mm 0.00 in/hr0.0 mm/hr 0.00 in0.0 mm
08:47 PM 56.3°F13.5°C 49.1°F9.5°C 77% 4.5 mph ESE7.2 kmh ESE 8.3 mph13.4 kmh 30.09 in1019.0 mb 0.00 in0.0 mm 0.00 in/hr0.0 mm/hr 0.00 in0.0 mm
08:48 PM 56.1°F13.4°C 49.3°F9.6°C 78% 4.5 mph ESE7.2 kmh ESE 8.3 mph13.4 kmh 30.09 in1019.0 mb 0.00 in0.0 mm 0.00 in/hr0.0 mm/hr 0.00 in0.0 mm
08:49 PM 56.1°F13.4°C 49.3°F9.6°C 78% 5.4 mph ESE8.7 kmh ESE 8.3 mph13.4 kmh 30.09 in1019.0 mb 0.00 in0.0 mm 0.00 in/hr0.0 mm/hr 0.00 in0.0 mm
08:50 PM 56.1°F13.4°C 49.3°F9.6°C 78% 4.5 mph ESE7.2 kmh ESE 8.3 mph13.4 kmh 30.09 in1019.0 mb 0.00 in0.0 mm 0.00 in/hr0.0 mm/hr 0.00 in0.0 mm
08:51 PM 56.1°F13.4°C 49.3°F9.6°C 78% 4.5 mph ESE7.2 kmh ESE 7.6 mph12.2 kmh 30.09 in1019.0 mb 0.00 in0.0 mm 0.00 in/hr0.0 mm/hr 0.00 in0.0 mm
08:52 PM 56.1°F13.4°C 49.3°F9.6°C 78% 4.5 mph E7.2 kmh E 6.9 mph11.1 kmh 30.09 in1019.0 mb 0.00 in0.0 mm 0.00 in/hr0.0 mm/hr 0.00 in0.0 mm
08:53 PM 56.1°F13.4°C 49.3°F9.6°C 78% 5.4 mph E8.7 kmh E 6.9 mph11.1 kmh 30.09 in1019.0 mb 0.00 in0.0 mm 0.00 in/hr0.0 mm/hr 0.00 in0.0 mm
08:54 PM 55.9°F13.3°C 49.1°F9.5°C 78% 3.8 mph E6.1 kmh E 6.9 mph11.1 kmh 30.09 in1019.0 mb 0.00 in0.0 mm 0.00 in/hr0.0 mm/hr 0.00 in0.0 mm
08:55 PM 55.9°F13.3°C 49.1°F9.5°C 78% 3.8 mph E6.1 kmh E 6.9 mph11.1 kmh 30.09 in1019.0 mb 0.00 in0.0 mm 0.00 in/hr0.0 mm/hr 0.00 in0.0 mm
08:56 PM 55.9°F13.3°C 49.1°F9.5°C 78% 3.8 mph E6.1 kmh E 6.9 mph11.1 kmh 30.09 in1019.0 mb 0.00 in0.0 mm 0.00 in/hr0.0 mm/hr 0.00 in0.0 mm
08:57 PM 55.9°F13.3°C 49.1°F9.5°C 78% 3.1 mph ESE5.0 kmh ESE 6.9 mph11.1 kmh 30.09 in1019.0 mb 0.00 in0.0 mm 0.00 in/hr0.0 mm/hr 0.00 in0.0 mm
08:58 PM 55.8°F13.2°C 49.3°F9.6°C 79% 3.8 mph ESE6.1 kmh ESE 6.9 mph11.1 kmh 30.09 in1019.0 mb 0.00 in0.0 mm 0.00 in/hr0.0 mm/hr 0.00 in0.0 mm
08:59 PM 55.8°F13.2°C 49.3°F9.6°C 79% 3.8 mph ESE6.1 kmh ESE 6.9 mph11.1 kmh 30.09 in1019.0 mb 0.00 in0.0 mm 0.00 in/hr0.0 mm/hr 0.00 in0.0 mm
09:00 PM 55.8°F13.2°C 49.3°F9.6°C 79% 3.8 mph ESE6.1 kmh ESE 6.0 mph9.7 kmh 30.09 in1019.0 mb 0.00 in0.0 mm 0.00 in/hr0.0 mm/hr 0.00 in0.0 mm
09:01 PM 55.8°F13.2°C 49.3°F9.6°C 79% 3.8 mph ESE6.1 kmh ESE 6.0 mph9.7 kmh 30.09 in1019.0 mb 0.00 in0.0 mm 0.00 in/hr0.0 mm/hr 0.00 in0.0 mm
09:02 PM 55.8°F13.2°C 49.3°F9.6°C 79% 3.8 mph ESE6.1 kmh ESE 6.0 mph9.7 kmh 30.09 in1019.0 mb 0.00 in0.0 mm 0.00 in/hr0.0 mm/hr 0.00 in0.0 mm
09:03 PM 55.8°F13.2°C 49.3°F9.6°C 79% 4.5 mph ESE7.2 kmh ESE 7.6 mph12.2 kmh 30.09 in1019.0 mb 0.00 in0.0 mm 0.00 in/hr0.0 mm/hr 0.00 in0.0 mm
09:04 PM 55.8°F13.2°C 49.3°F9.6°C 79% 4.5 mph SE7.2 kmh SE 7.6 mph12.2 kmh 30.09 in1019.0 mb 0.00 in0.0 mm 0.00 in/hr0.0 mm/hr 0.00 in0.0 mm
09:05 PM 55.8°F13.2°C 49.3°F9.6°C 79% 3.8 mph SE6.1 kmh SE 7.6 mph12.2 kmh 30.09 in1019.0 mb 0.00 in0.0 mm 0.00 in/hr0.0 mm/hr 0.00 in0.0 mm
09:06 PM 55.8°F13.2°C 49.3°F9.6°C 79% 4.5 mph SE7.2 kmh SE 7.6 mph12.2 kmh 30.09 in1019.0 mb 0.00 in0.0 mm 0.00 in/hr0.0 mm/hr 0.00 in0.0 mm
09:07 PM 55.8°F13.2°C 49.3°F9.6°C 79% 4.5 mph SE7.2 kmh SE 7.6 mph12.2 kmh 30.09 in1019.0 mb 0.00 in0.0 mm 0.00 in/hr0.0 mm/hr 0.00 in0.0 mm
09:08 PM 55.8°F13.2°C 49.3°F9.6°C 79% 4.5 mph SE7.2 kmh SE 7.6 mph12.2 kmh 30.09 in1019.0 mb 0.00 in0.0 mm 0.00 in/hr0.0 mm/hr 0.00 in0.0 mm
09:09 PM 55.8°F13.2°C 49.3°F9.6°C 79% 4.5 mph SE7.2 kmh SE 7.6 mph12.2 kmh 30.09 in1019.0 mb 0.00 in0.0 mm 0.00 in/hr0.0 mm/hr 0.00 in0.0 mm
09:10 PM 55.8°F13.2°C 49.3°F9.6°C 79% 4.5 mph SE7.2 kmh SE 7.6 mph12.2 kmh 30.09 in1019.0 mb 0.00 in0.0 mm 0.00 in/hr0.0 mm/hr 0.00 in0.0 mm
09:11 PM 55.6°F13.1°C 49.1°F9.5°C 79% 3.8 mph SE6.1 kmh SE 7.6 mph12.2 kmh 30.09 in1019.0 mb 0.00 in0.0 mm 0.00 in/hr0.0 mm/hr 0.00 in0.0 mm
09:12 PM 55.6°F13.1°C 49.1°F9.5°C 79% 4.5 mph ESE7.2 kmh ESE 7.6 mph12.2 kmh 30.09 in1019.0 mb 0.00 in0.0 mm 0.00 in/hr0.0 mm/hr 0.00 in0.0 mm
09:13 PM 55.6°F13.1°C 49.1°F9.5°C 79% 4.5 mph SE7.2 kmh SE 7.6 mph12.2 kmh 30.09 in1019.0 mb 0.00 in0.0 mm 0.00 in/hr0.0 mm/hr 0.00 in0.0 mm
09:14 PM 55.4°F13.0°C 48.9°F9.4°C 79% 4.5 mph ESE7.2 kmh ESE 6.9 mph11.1 kmh 30.09 in1019.0 mb 0.00 in0.0 mm 0.00 in/hr0.0 mm/hr 0.00 in0.0 mm
09:15 PM 55.4°F13.0°C 48.9°F9.4°C 79% 4.5 mph ESE7.2 kmh ESE 6.0 mph9.7 kmh 30.09 in1019.0 mb 0.00 in0.0 mm 0.00 in/hr0.0 mm/hr 0.00 in0.0 mm
09:16 PM 55.4°F13.0°C 48.9°F9.4°C 79% 4.5 mph ESE7.2 kmh ESE 6.0 mph9.7 kmh 30.09 in1019.0 mb 0.00 in0.0 mm 0.00 in/hr0.0 mm/hr 0.00 in0.0 mm
09:17 PM 55.4°F13.0°C 49.3°F9.6°C 80% 3.8 mph ESE6.1 kmh ESE 6.0 mph9.7 kmh 30.09 in1019.0 mb 0.00 in0.0 mm 0.00 in/hr0.0 mm/hr 0.00 in0.0 mm
09:18 PM 55.2°F12.9°C 49.1°F9.5°C 80% 4.5 mph ESE7.2 kmh ESE 6.0 mph9.7 kmh 30.09 in1019.0 mb 0.00 in0.0 mm 0.00 in/hr0.0 mm/hr 0.00 in0.0 mm
09:19 PM 55.2°F12.9°C 49.1°F9.5°C 80% 4.5 mph ESE7.2 kmh ESE 6.0 mph9.7 kmh 30.09 in1019.0 mb 0.00 in0.0 mm 0.00 in/hr0.0 mm/hr 0.00 in0.0 mm
09:20 PM 55.2°F12.9°C 49.1°F9.5°C 80% 4.5 mph ESE7.2 kmh ESE 6.0 mph9.7 kmh 30.09 in1019.0 mb 0.00 in0.0 mm 0.00 in/hr0.0 mm/hr 0.00 in0.0 mm
09:21 PM 55.2°F12.9°C 49.1°F9.5°C 80% 3.8 mph SE6.1 kmh SE 6.0 mph9.7 kmh 30.09 in1019.0 mb 0.00 in0.0 mm 0.00 in/hr0.0 mm/hr 0.00 in0.0 mm
09:22 PM 55.2°F12.9°C 49.1°F9.5°C 80% 3.8 mph SE6.1 kmh SE 6.0 mph9.7 kmh 30.09 in1019.0 mb 0.00 in0.0 mm 0.00 in/hr0.0 mm/hr 0.00 in0.0 mm
09:23 PM 55.2°F12.9°C 49.1°F9.5°C 80% 3.8 mph SE6.1 kmh SE 5.4 mph8.7 kmh 30.10 in1019.3 mb 0.00 in0.0 mm 0.00 in/hr0.0 mm/hr 0.00 in0.0 mm
09:24 PM 55.2°F12.9°C 49.1°F9.5°C 80% 3.8 mph SE6.1 kmh SE 5.4 mph8.7 kmh 30.09 in1019.0 mb 0.00 in0.0 mm 0.00 in/hr0.0 mm/hr 0.00 in0.0 mm
09:25 PM 55.2°F12.9°C 49.1°F9.5°C 80% 5.4 mph SE8.7 kmh SE 6.0 mph9.7 kmh 30.09 in1019.0 mb 0.00 in0.0 mm 0.00 in/hr0.0 mm/hr 0.00 in0.0 mm
09:26 PM 55.2°F12.9°C 49.1°F9.5°C 80% 4.5 mph SE7.2 kmh SE 6.0 mph9.7 kmh 30.09 in1019.0 mb 0.00 in0.0 mm 0.00 in/hr0.0 mm/hr 0.00 in0.0 mm
09:27 PM 55.2°F12.9°C 49.1°F9.5°C 80% 4.5 mph SE7.2 kmh SE 6.0 mph9.7 kmh 30.09 in1019.0 mb 0.00 in0.0 mm 0.00 in/hr0.0 mm/hr 0.00 in0.0 mm
09:28 PM 55.2°F12.9°C 49.1°F9.5°C 80% 4.5 mph SE7.2 kmh SE 6.0 mph9.7 kmh 30.09 in1019.0 mb 0.00 in0.0 mm 0.00 in/hr0.0 mm/hr 0.00 in0.0 mm
09:29 PM 55.0°F12.8°C 48.9°F9.4°C 80% 3.8 mph SE6.1 kmh SE 6.0 mph9.7 kmh 30.09 in1019.0 mb 0.00 in0.0 mm 0.00 in/hr0.0 mm/hr 0.00 in0.0 mm
09:30 PM 55.0°F12.8°C 48.9°F9.4°C 80% 4.5 mph ESE7.2 kmh ESE 6.0 mph9.7 kmh 30.09 in1019.0 mb 0.00 in0.0 mm 0.00 in/hr0.0 mm/hr 0.00 in0.0 mm
09:31 PM 55.0°F12.8°C 48.9°F9.4°C 80% 3.8 mph ESE6.1 kmh ESE 6.0 mph9.7 kmh 30.09 in1019.0 mb 0.00 in0.0 mm 0.00 in/hr0.0 mm/hr 0.00 in0.0 mm
09:32 PM 54.9°F12.7°C 49.1°F9.5°C 81% 3.8 mph ESE6.1 kmh ESE 6.0 mph9.7 kmh 30.09 in1019.0 mb 0.00 in0.0 mm 0.00 in/hr0.0 mm/hr 0.00 in0.0 mm
09:33 PM 54.9°F12.7°C 49.1°F9.5°C 81% 3.8 mph ESE6.1 kmh ESE 6.0 mph9.7 kmh 30.10 in1019.3 mb 0.00 in0.0 mm 0.00 in/hr0.0 mm/hr 0.00 in0.0 mm
09:34 PM 54.9°F12.7°C 49.1°F9.5°C 81% 3.8 mph ESE6.1 kmh ESE 6.0 mph9.7 kmh 30.10 in1019.3 mb 0.00 in0.0 mm 0.00 in/hr0.0 mm/hr 0.00 in0.0 mm
09:35 PM 54.9°F12.7°C 49.1°F9.5°C 81% 3.8 mph ESE6.1 kmh ESE 6.0 mph9.7 kmh 30.10 in1019.3 mb 0.00 in0.0 mm 0.00 in/hr0.0 mm/hr 0.00 in0.0 mm
09:36 PM 54.9°F12.7°C 49.1°F9.5°C 81% 4.5 mph ESE7.2 kmh ESE 6.0 mph9.7 kmh 30.10 in1019.3 mb 0.00 in0.0 mm 0.00 in/hr0.0 mm/hr 0.00 in0.0 mm
09:37 PM 54.9°F12.7°C 49.1°F9.5°C 81% 4.5 mph E7.2 kmh E 5.4 mph8.7 kmh 30.10 in1019.3 mb 0.00 in0.0 mm 0.00 in/hr0.0 mm/hr 0.00 in0.0 mm
09:38 PM 54.9°F12.7°C 49.1°F9.5°C 81% 4.5 mph E7.2 kmh E 5.4 mph8.7 kmh 30.10 in1019.3 mb 0.00 in0.0 mm 0.00 in/hr0.0 mm/hr 0.00 in0.0 mm
09:39 PM 54.9°F12.7°C 49.1°F9.5°C 81% 4.5 mph E7.2 kmh E 5.4 mph8.7 kmh 30.09 in1019.0 mb 0.00 in0.0 mm 0.00 in/hr0.0 mm/hr 0.00 in0.0 mm
09:40 PM 54.9°F12.7°C 49.1°F9.5°C 81% 4.5 mph E7.2 kmh E 6.0 mph9.7 kmh 30.10 in1019.3 mb 0.00 in0.0 mm 0.00 in/hr0.0 mm/hr 0.00 in0.0 mm
09:41 PM 54.7°F12.6°C 48.9°F9.4°C 81% 4.5 mph E7.2 kmh E 6.0 mph9.7 kmh 30.10 in1019.3 mb 0.00 in0.0 mm 0.00 in/hr0.0 mm/hr 0.00 in0.0 mm
09:42 PM 54.7°F12.6°C 48.9°F9.4°C 81% 4.5 mph E7.2 kmh E 6.0 mph9.7 kmh 30.09 in1019.0 mb 0.00 in0.0 mm 0.00 in/hr0.0 mm/hr 0.00 in0.0 mm
09:43 PM 54.7°F12.6°C 48.9°F9.4°C 81% 5.4 mph E8.7 kmh E 6.0 mph9.7 kmh 30.09 in1019.0 mb 0.00 in0.0 mm 0.00 in/hr0.0 mm/hr 0.00 in0.0 mm
09:44 PM 54.7°F12.6°C 49.2°F9.6°C 82% 5.4 mph E8.7 kmh E 6.0 mph9.7 kmh 30.09 in1019.0 mb 0.00 in0.0 mm 0.00 in/hr0.0 mm/hr 0.00 in0.0 mm
09:45 PM 54.7°F12.6°C 49.2°F9.6°C 82% 5.4 mph E8.7 kmh E 6.0 mph9.7 kmh 30.09 in1019.0 mb 0.00 in0.0 mm 0.00 in/hr0.0 mm/hr 0.00 in0.0 mm
09:46 PM 54.9°F12.7°C 49.4°F9.7°C 82% 5.4 mph ESE8.7 kmh ESE 6.0 mph9.7 kmh 30.09 in1019.0 mb 0.00 in0.0 mm 0.00 in/hr0.0 mm/hr 0.00 in0.0 mm
09:47 PM 54.9°F12.7°C 49.4°F9.7°C 82% 5.4 mph ESE8.7 kmh ESE 6.0 mph9.7 kmh 30.09 in1019.0 mb 0.00 in0.0 mm 0.00 in/hr0.0 mm/hr 0.00 in0.0 mm
09:48 PM 54.9°F12.7°C 49.4°F9.7°C 82% 5.4 mph ESE8.7 kmh ESE 6.0 mph9.7 kmh 30.09 in1019.0 mb 0.00 in0.0 mm 0.00 in/hr0.0 mm/hr 0.00 in0.0 mm
09:49 PM 54.9°F12.7°C 49.1°F9.5°C 81% 5.4 mph ESE8.7 kmh ESE 6.9 mph11.1 kmh 30.09 in1019.0 mb 0.00 in0.0 mm 0.00 in/hr0.0 mm/hr 0.00 in0.0 mm
09:50 PM 54.9°F12.7°C 49.1°F9.5°C 81% 5.4 mph ESE8.7 kmh ESE 6.9 mph11.1 kmh 30.09 in1019.0 mb 0.00 in0.0 mm 0.00 in/hr0.0 mm/hr 0.00 in0.0 mm
09:51 PM 55.0°F12.8°C 49.3°F9.6°C 81% 5.4 mph ESE8.7 kmh ESE 6.9 mph11.1 kmh 30.09 in1019.0 mb 0.00 in0.0 mm 0.00 in/hr0.0 mm/hr 0.00 in0.0 mm
09:52 PM 55.0°F12.8°C 49.3°F9.6°C 81% 4.5 mph ESE7.2 kmh ESE 6.9 mph11.1 kmh 30.09 in1019.0 mb 0.00 in0.0 mm 0.00 in/hr0.0 mm/hr 0.00 in0.0 mm
09:53 PM 55.0°F12.8°C 49.3°F9.6°C 81% 6.0 mph SE9.7 kmh SE 6.9 mph11.1 kmh 30.09 in1019.0 mb 0.00 in0.0 mm 0.00 in/hr0.0 mm/hr 0.00 in0.0 mm
09:54 PM 55.2°F12.9°C 49.4°F9.7°C 81% 5.4 mph SE8.7 kmh SE 7.6 mph12.2 kmh 30.09 in1019.0 mb 0.00 in0.0 mm 0.00 in/hr0.0 mm/hr 0.00 in0.0 mm
09:55 PM 55.2°F12.9°C 49.4°F9.7°C 81% 6.0 mph SE9.7 kmh SE 7.6 mph12.2 kmh 30.09 in1019.0 mb 0.00 in0.0 mm 0.00 in/hr0.0 mm/hr 0.00 in0.0 mm
09:56 PM 55.2°F12.9°C 49.4°F9.7°C 81% 6.0 mph SE9.7 kmh SE 7.6 mph12.2 kmh 30.09 in1019.0 mb 0.00 in0.0 mm 0.00 in/hr0.0 mm/hr 0.00 in0.0 mm
09:57 PM 55.2°F12.9°C 49.4°F9.7°C 81% 6.9 mph SE11.1 kmh SE 9.2 mph14.8 kmh 30.09 in1019.0 mb 0.00 in0.0 mm 0.00 in/hr0.0 mm/hr 0.00 in0.0 mm
09:58 PM 55.4°F13.0°C 49.9°F9.9°C 82% 6.9 mph SE11.1 kmh SE 9.2 mph14.8 kmh 30.09 in1019.0 mb 0.00 in0.0 mm 0.00 in/hr0.0 mm/hr 0.00 in0.0 mm
09:59 PM 55.4°F13.0°C 49.6°F9.8°C 81% 8.3 mph SE13.4 kmh SE 9.2 mph14.8 kmh 30.09 in1019.0 mb 0.00 in0.0 mm 0.00 in/hr0.0 mm/hr 0.00 in0.0 mm
10:00 PM 55.4°F13.0°C 49.6°F9.8°C 81% 7.6 mph SE12.2 kmh SE 9.2 mph14.8 kmh 30.09 in1019.0 mb 0.00 in0.0 mm 0.00 in/hr0.0 mm/hr 0.00 in0.0 mm
10:01 PM 55.4°F13.0°C 49.6°F9.8°C 81% 6.9 mph SE11.1 kmh SE 9.2 mph14.8 kmh 30.08 in1018.6 mb 0.00 in0.0 mm 0.00 in/hr0.0 mm/hr 0.00 in0.0 mm
10:02 PM 55.4°F13.0°C 49.6°F9.8°C 81% 6.9 mph SE11.1 kmh SE 9.2 mph14.8 kmh 30.09 in1019.0 mb 0.00 in0.0 mm 0.00 in/hr0.0 mm/hr 0.00 in0.0 mm
10:03 PM 55.4°F13.0°C 49.6°F9.8°C 81% 6.0 mph SE9.7 kmh SE 9.2 mph14.8 kmh 30.09 in1019.0 mb 0.00 in0.0 mm 0.00 in/hr0.0 mm/hr 0.00 in0.0 mm
10:04 PM 55.4°F13.0°C 49.6°F9.8°C 81% 6.9 mph SE11.1 kmh SE 9.2 mph14.8 kmh 30.08 in1018.6 mb 0.00 in0.0 mm 0.00 in/hr0.0 mm/hr 0.00 in0.0 mm
10:05 PM 55.4°F13.0°C 49.6°F9.8°C 81% 6.9 mph SE11.1 kmh SE 9.2 mph14.8 kmh 30.08 in1018.6 mb 0.00 in0.0 mm 0.00 in/hr0.0 mm/hr 0.00 in0.0 mm
10:06 PM 55.4°F13.0°C 49.6°F9.8°C 81% 6.0 mph SE9.7 kmh SE 9.2 mph14.8 kmh 30.08 in1018.6 mb 0.00 in0.0 mm 0.00 in/hr0.0 mm/hr 0.00 in0.0 mm
10:07 PM 55.4°F13.0°C 49.6°F9.8°C 81% 6.0 mph SE9.7 kmh SE 9.2 mph14.8 kmh 30.08 in1018.6 mb 0.00 in0.0 mm 0.00 in/hr0.0 mm/hr 0.00 in0.0 mm
10:08 PM 55.4°F13.0°C 49.6°F9.8°C 81% 6.9 mph SE11.1 kmh SE 9.2 mph14.8 kmh 30.08 in1018.6 mb 0.00 in0.0 mm 0.00 in/hr0.0 mm/hr 0.00 in0.0 mm
10:09 PM 55.4°F13.0°C 49.6°F9.8°C 81% 6.0 mph SE9.7 kmh SE 9.2 mph14.8 kmh 30.08 in1018.6 mb 0.00 in0.0 mm 0.00 in/hr0.0 mm/hr 0.00 in0.0 mm
10:10 PM 55.4°F13.0°C 49.6°F9.8°C 81% 5.4 mph SE8.7 kmh SE 8.3 mph13.4 kmh 30.08 in1018.6 mb 0.00 in0.0 mm 0.00 in/hr0.0 mm/hr 0.00 in0.0 mm
10:11 PM 55.4°F13.0°C 49.6°F9.8°C 81% 5.4 mph ESE8.7 kmh ESE 8.3 mph13.4 kmh 30.08 in1018.6 mb 0.00 in0.0 mm 0.00 in/hr0.0 mm/hr 0.00 in0.0 mm
10:12 PM 55.4°F13.0°C 49.6°F9.8°C 81% 5.4 mph ESE8.7 kmh ESE 8.3 mph13.4 kmh 30.08 in1018.6 mb 0.00 in0.0 mm 0.00 in/hr0.0 mm/hr 0.00 in0.0 mm
10:13 PM 55.4°F13.0°C 49.6°F9.8°C 81% 5.4 mph ESE8.7 kmh ESE 8.3 mph13.4 kmh 30.08 in1018.6 mb 0.00 in0.0 mm 0.00 in/hr0.0 mm/hr 0.00 in0.0 mm
10:14 PM 55.4°F13.0°C 49.6°F9.8°C 81% 6.0 mph ESE9.7 kmh ESE 8.3 mph13.4 kmh 30.09 in1019.0 mb 0.00 in0.0 mm 0.00 in/hr0.0 mm/hr 0.00 in0.0 mm
10:15 PM 55.4°F13.0°C 49.6°F9.8°C 81% 6.0 mph ESE9.7 kmh ESE 7.6 mph12.2 kmh 30.08 in1018.6 mb 0.00 in0.0 mm 0.00 in/hr0.0 mm/hr 0.00 in0.0 mm
10:16 PM 55.4°F13.0°C 49.3°F9.6°C 80% 5.4 mph ESE8.7 kmh ESE 7.6 mph12.2 kmh 30.08 in1018.6 mb 0.00 in0.0 mm 0.00 in/hr0.0 mm/hr 0.00 in0.0 mm
10:17 PM 55.4°F13.0°C 49.3°F9.6°C 80% 5.4 mph ESE8.7 kmh ESE 7.6 mph12.2 kmh 30.08 in1018.6 mb 0.00 in0.0 mm 0.00 in/hr0.0 mm/hr 0.00 in0.0 mm
10:18 PM 55.4°F13.0°C 49.3°F9.6°C 80% 5.4 mph ESE8.7 kmh ESE 7.6 mph12.2 kmh 30.08 in1018.6 mb 0.00 in0.0 mm 0.00 in/hr0.0 mm/hr 0.00 in0.0 mm
10:19 PM 55.4°F13.0°C 49.3°F9.6°C 80% 4.5 mph ESE7.2 kmh ESE 7.6 mph12.2 kmh 30.08 in1018.6 mb 0.00 in0.0 mm 0.00 in/hr0.0 mm/hr 0.00 in0.0 mm
10:20 PM 55.4°F13.0°C 49.3°F9.6°C 80% 4.5 mph ESE7.2 kmh ESE 7.6 mph12.2 kmh 30.08 in1018.6 mb 0.00 in0.0 mm 0.00 in/hr0.0 mm/hr 0.00 in0.0 mm
10:21 PM 55.4°F13.0°C 49.3°F9.6°C 80% 4.5 mph ESE7.2 kmh ESE 7.6 mph12.2 kmh 30.08 in1018.6 mb 0.00 in0.0 mm 0.00 in/hr0.0 mm/hr 0.00 in0.0 mm
10:22 PM 55.4°F13.0°C 49.3°F9.6°C 80% 4.5 mph ESE7.2 kmh ESE 7.6 mph12.2 kmh 30.08 in1018.6 mb 0.00 in0.0 mm 0.00 in/hr0.0 mm/hr 0.00 in0.0 mm
10:23 PM 55.4°F13.0°C 49.3°F9.6°C 80% 4.5 mph ESE7.2 kmh ESE 7.6 mph12.2 kmh 30.08 in1018.6 mb 0.00 in0.0 mm 0.00 in/hr0.0 mm/hr 0.00 in0.0 mm
10:24 PM 55.2°F12.9°C 49.1°F9.5°C 80% 4.5 mph ESE7.2 kmh ESE 7.6 mph12.2 kmh 30.08 in1018.6 mb 0.00 in0.0 mm 0.00 in/hr0.0 mm/hr 0.00 in0.0 mm
10:25 PM 55.2°F12.9°C 49.1°F9.5°C 80% 4.5 mph ESE7.2 kmh ESE 7.6 mph12.2 kmh 30.08 in1018.6 mb 0.00 in0.0 mm 0.00 in/hr0.0 mm/hr 0.00 in0.0 mm
10:26 PM 55.2°F12.9°C 49.1°F9.5°C 80% 4.5 mph ESE7.2 kmh ESE 7.6 mph12.2 kmh 30.08 in1018.6 mb 0.00 in0.0 mm 0.00 in/hr0.0 mm/hr 0.00 in0.0 mm
10:27 PM 55.2°F12.9°C 49.1°F9.5°C 80% 4.5 mph ESE7.2 kmh ESE 6.9 mph11.1 kmh 30.08 in1018.6 mb 0.00 in0.0 mm 0.00 in/hr0.0 mm/hr 0.00 in0.0 mm
10:28 PM 55.2°F12.9°C 49.1°F9.5°C 80% 4.5 mph ESE7.2 kmh ESE 6.9 mph11.1 kmh 30.08 in1018.6 mb 0.00 in0.0 mm 0.00 in/hr0.0 mm/hr 0.00 in0.0 mm
10:29 PM 55.0°F12.8°C 48.9°F9.4°C 80% 4.5 mph ESE7.2 kmh ESE 6.9 mph11.1 kmh 30.09 in1019.0 mb 0.00 in0.0 mm 0.00 in/hr0.0 mm/hr 0.00 in0.0 mm
10:30 PM 55.0°F12.8°C 48.9°F9.4°C 80% 4.5 mph ESE7.2 kmh ESE 6.9 mph11.1 kmh 30.08 in1018.6 mb 0.00 in0.0 mm 0.00 in/hr0.0 mm/hr 0.00 in0.0 mm
10:31 PM 55.0°F12.8°C 48.9°F9.4°C 80% 5.4 mph ESE8.7 kmh ESE 6.9 mph11.1 kmh 30.08 in1018.6 mb 0.00 in0.0 mm 0.00 in/hr0.0 mm/hr 0.00 in0.0 mm
10:32 PM 55.0°F12.8°C 48.9°F9.4°C 80% 6.0 mph ESE9.7 kmh ESE 7.6 mph12.2 kmh 30.08 in1018.6 mb 0.00 in0.0 mm 0.00 in/hr0.0 mm/hr 0.00 in0.0 mm
10:33 PM 55.0°F12.8°C 48.9°F9.4°C 80% 5.4 mph ESE8.7 kmh ESE 7.6 mph12.2 kmh 30.07 in1018.3 mb 0.00 in0.0 mm 0.00 in/hr0.0 mm/hr 0.00 in0.0 mm
10:34 PM 54.9°F12.7°C 48.7°F9.3°C 80% 5.4 mph ESE8.7 kmh ESE 7.6 mph12.2 kmh 30.07 in1018.3 mb 0.00 in0.0 mm 0.00 in/hr0.0 mm/hr 0.00 in0.0 mm
10:35 PM 54.9°F12.7°C 49.1°F9.5°C 81% 5.4 mph ESE8.7 kmh ESE 7.6 mph12.2 kmh 30.07 in1018.3 mb 0.00 in0.0 mm 0.00 in/hr0.0 mm/hr 0.00 in0.0 mm
10:36 PM 54.9°F12.7°C 49.1°F9.5°C 81% 6.0 mph ESE9.7 kmh ESE 7.6 mph12.2 kmh 30.07 in1018.3 mb 0.00 in0.0 mm 0.00 in/hr0.0 mm/hr 0.00 in0.0 mm
10:37 PM 54.7°F12.6°C 48.9°F9.4°C 81% 5.4 mph ESE8.7 kmh ESE 7.6 mph12.2 kmh 30.07 in1018.3 mb 0.00 in0.0 mm 0.00 in/hr0.0 mm/hr 0.00 in0.0 mm
10:38 PM 54.7°F12.6°C 48.9°F9.4°C 81% 6.0 mph ESE9.7 kmh ESE 7.6 mph12.2 kmh 30.07 in1018.3 mb 0.00 in0.0 mm 0.00 in/hr0.0 mm/hr 0.00 in0.0 mm
10:39 PM 54.7°F12.6°C 48.9°F9.4°C 81% 6.0 mph ESE9.7 kmh ESE 7.6 mph12.2 kmh 30.07 in1018.3 mb 0.00 in0.0 mm 0.00 in/hr0.0 mm/hr 0.00 in0.0 mm
10:40 PM 54.7°F12.6°C 48.9°F9.4°C 81% 6.0 mph ESE9.7 kmh ESE 7.6 mph12.2 kmh 30.07 in1018.3 mb 0.00 in0.0 mm 0.00 in/hr0.0 mm/hr 0.00 in0.0 mm
10:41 PM 54.7°F12.6°C 48.9°F9.4°C 81% 6.0 mph E9.7 kmh E 8.3 mph13.4 kmh 30.07 in1018.3 mb 0.00 in0.0 mm 0.00 in/hr0.0 mm/hr 0.00 in0.0 mm
10:42 PM 54.7°F12.6°C 48.9°F9.4°C 81% 6.0 mph E9.7 kmh E 8.3 mph13.4 kmh 30.07 in1018.3 mb 0.00 in0.0 mm 0.00 in/hr0.0 mm/hr 0.00 in0.0 mm
10:43 PM 54.7°F12.6°C 48.9°F9.4°C 81% 5.4 mph E8.7 kmh E 8.3 mph13.4 kmh 30.07 in1018.3 mb 0.00 in0.0 mm 0.00 in/hr0.0 mm/hr 0.00 in0.0 mm
10:44 PM 54.7°F12.6°C 48.9°F9.4°C 81% 5.4 mph E8.7 kmh E 8.3 mph13.4 kmh 30.07 in1018.3 mb 0.00 in0.0 mm 0.00 in/hr0.0 mm/hr 0.00 in0.0 mm
10:45 PM 54.7°F12.6°C 48.9°F9.4°C 81% 5.4 mph E8.7 kmh E 8.3 mph13.4 kmh 30.07 in1018.3 mb 0.00 in0.0 mm 0.00 in/hr0.0 mm/hr 0.00 in0.0 mm
10:46 PM 54.7°F12.6°C 48.9°F9.4°C 81% 5.4 mph E8.7 kmh E 8.3 mph13.4 kmh 30.07 in1018.3 mb 0.00 in0.0 mm 0.00 in/hr0.0 mm/hr 0.00 in0.0 mm
10:47 PM 54.7°F12.6°C 48.9°F9.4°C 81% 6.9 mph ESE11.1 kmh ESE 9.2 mph14.8 kmh 30.07 in1018.3 mb 0.00 in0.0 mm 0.00 in/hr0.0 mm/hr 0.00 in0.0 mm
10:48 PM 54.7°F12.6°C 48.9°F9.4°C 81% 6.9 mph ESE11.1 kmh ESE 9.2 mph14.8 kmh 30.07 in1018.3 mb 0.00 in0.0 mm 0.00 in/hr0.0 mm/hr 0.00 in0.0 mm
10:49 PM 54.7°F12.6°C 48.9°F9.4°C 81% 7.6 mph ESE12.2 kmh ESE 9.2 mph14.8 kmh 30.07 in1018.3 mb 0.00 in0.0 mm 0.00 in/hr0.0 mm/hr 0.00 in0.0 mm
10:50 PM 54.9°F12.7°C 49.1°F9.5°C 81% 6.9 mph ESE11.1 kmh ESE 9.2 mph14.8 kmh 30.07 in1018.3 mb 0.00 in0.0 mm 0.00 in/hr0.0 mm/hr 0.00 in0.0 mm
10:51 PM 54.9°F12.7°C 49.1°F9.5°C 81% 7.6 mph ESE12.2 kmh ESE 9.2 mph14.8 kmh 30.07 in1018.3 mb 0.00 in0.0 mm 0.00 in/hr0.0 mm/hr 0.00 in0.0 mm
10:52 PM 54.9°F12.7°C 49.1°F9.5°C 81% 6.9 mph ESE11.1 kmh ESE 9.2 mph14.8 kmh 30.07 in1018.3 mb 0.00 in0.0 mm 0.00 in/hr0.0 mm/hr 0.00 in0.0 mm
10:53 PM 55.0°F12.8°C 49.3°F9.6°C 81% 6.9 mph ESE11.1 kmh ESE 9.2 mph14.8 kmh 30.06 in1017.9 mb 0.00 in0.0 mm 0.00 in/hr0.0 mm/hr 0.00 in0.0 mm
10:54 PM 55.0°F12.8°C 49.3°F9.6°C 81% 6.0 mph ESE9.7 kmh ESE 9.2 mph14.8 kmh 30.06 in1017.9 mb 0.00 in0.0 mm 0.00 in/hr0.0 mm/hr 0.00 in0.0 mm
10:55 PM 55.0°F12.8°C 49.3°F9.6°C 81% 6.0 mph ESE9.7 kmh ESE 9.2 mph14.8 kmh 30.07 in1018.3 mb 0.00 in0.0 mm 0.00 in/hr0.0 mm/hr 0.00 in0.0 mm
10:56 PM 55.0°F12.8°C 49.3°F9.6°C 81% 6.9 mph ESE11.1 kmh ESE 9.2 mph14.8 kmh 30.06 in1017.9 mb 0.00 in0.0 mm 0.00 in/hr0.0 mm/hr 0.00 in0.0 mm
10:57 PM 55.0°F12.8°C 49.3°F9.6°C 81% 6.0 mph ESE9.7 kmh ESE 9.2 mph14.8 kmh 30.06 in1017.9 mb 0.00 in0.0 mm 0.00 in/hr0.0 mm/hr 0.00 in0.0 mm
10:58 PM 55.0°F12.8°C 49.3°F9.6°C 81% 6.9 mph E11.1 kmh E 9.2 mph14.8 kmh 30.06 in1017.9 mb 0.00 in0.0 mm 0.00 in/hr0.0 mm/hr 0.00 in0.0 mm
10:59 PM 55.0°F12.8°C 49.3°F9.6°C 81% 6.9 mph E11.1 kmh E 8.3 mph13.4 kmh 30.07 in1018.3 mb 0.00 in0.0 mm 0.00 in/hr0.0 mm/hr 0.00 in0.0 mm
11:00 PM 55.0°F12.8°C 49.3°F9.6°C 81% 6.9 mph ESE11.1 kmh ESE 8.3 mph13.4 kmh 30.06 in1017.9 mb 0.00 in0.0 mm 0.00 in/hr0.0 mm/hr 0.00 in0.0 mm
11:01 PM 55.0°F12.8°C 49.3°F9.6°C 81% 6.0 mph ESE9.7 kmh ESE 8.3 mph13.4 kmh 30.06 in1017.9 mb 0.00 in0.0 mm 0.00 in/hr0.0 mm/hr 0.00 in0.0 mm
11:02 PM 55.0°F12.8°C 49.3°F9.6°C 81% 6.0 mph ESE9.7 kmh ESE 8.3 mph13.4 kmh 30.06 in1017.9 mb 0.00 in0.0 mm 0.00 in/hr0.0 mm/hr 0.00 in0.0 mm
11:03 PM 55.0°F12.8°C 49.3°F9.6°C 81% 6.0 mph ESE9.7 kmh ESE 8.3 mph13.4 kmh 30.06 in1017.9 mb 0.00 in0.0 mm 0.00 in/hr0.0 mm/hr 0.00 in0.0 mm
11:04 PM 55.0°F12.8°C 49.3°F9.6°C 81% 6.9 mph ESE11.1 kmh ESE 9.2 mph14.8 kmh 30.06 in1017.9 mb 0.00 in0.0 mm 0.00 in/hr0.0 mm/hr 0.00 in0.0 mm
11:05 PM 55.0°F12.8°C 49.3°F9.6°C 81% 6.0 mph ESE9.7 kmh ESE 9.2 mph14.8 kmh 30.06 in1017.9 mb 0.00 in0.0 mm 0.00 in/hr0.0 mm/hr 0.00 in0.0 mm
11:06 PM 55.0°F12.8°C 49.3°F9.6°C 81% 6.9 mph ESE11.1 kmh ESE 9.2 mph14.8 kmh 30.06 in1017.9 mb 0.00 in0.0 mm 0.00 in/hr0.0 mm/hr 0.00 in0.0 mm
11:07 PM 55.0°F12.8°C 49.3°F9.6°C 81% 6.9 mph ESE11.1 kmh ESE 9.2 mph14.8 kmh 30.06 in1017.9 mb 0.00 in0.0 mm 0.00 in/hr0.0 mm/hr 0.00 in0.0 mm
11:08 PM 55.0°F12.8°C 49.3°F9.6°C 81% 7.6 mph ESE12.2 kmh ESE 9.2 mph14.8 kmh 30.05 in1017.6 mb 0.00 in0.0 mm 0.00 in/hr0.0 mm/hr 0.00 in0.0 mm
11:09 PM 55.0°F12.8°C 49.3°F9.6°C 81% 7.6 mph ESE12.2 kmh ESE 9.2 mph14.8 kmh 30.05 in1017.6 mb 0.00 in0.0 mm 0.00 in/hr0.0 mm/hr 0.00 in0.0 mm
11:10 PM 55.0°F12.8°C 49.3°F9.6°C 81% 6.9 mph ESE11.1 kmh ESE 9.2 mph14.8 kmh 30.06 in1017.9 mb 0.00 in0.0 mm 0.00 in/hr0.0 mm/hr 0.00 in0.0 mm
11:11 PM 55.0°F12.8°C 49.3°F9.6°C 81% 7.6 mph ESE12.2 kmh ESE 9.2 mph14.8 kmh 30.06 in1017.9 mb 0.00 in0.0 mm 0.00 in/hr0.0 mm/hr 0.00 in0.0 mm
11:12 PM 55.0°F12.8°C 49.3°F9.6°C 81% 6.9 mph ESE11.1 kmh ESE 9.2 mph14.8 kmh 30.05 in1017.6 mb 0.00 in0.0 mm 0.00 in/hr0.0 mm/hr 0.00 in0.0 mm
11:13 PM 55.0°F12.8°C 49.3°F9.6°C 81% 6.9 mph ESE11.1 kmh ESE 9.2 mph14.8 kmh 30.06 in1017.9 mb 0.00 in0.0 mm 0.00 in/hr0.0 mm/hr 0.00 in0.0 mm
11:14 PM 55.2°F12.9°C 49.1°F9.5°C 80% 6.9 mph ESE11.1 kmh ESE 9.2 mph14.8 kmh 30.05 in1017.6 mb 0.00 in0.0 mm 0.00 in/hr0.0 mm/hr 0.00 in0.0 mm
11:15 PM 55.2°F12.9°C 49.1°F9.5°C 80% 6.9 mph ESE11.1 kmh ESE 9.2 mph14.8 kmh 30.05 in1017.6 mb 0.00 in0.0 mm 0.00 in/hr0.0 mm/hr 0.00 in0.0 mm
11:16 PM 55.2°F12.9°C 49.1°F9.5°C 80% 6.0 mph ESE9.7 kmh ESE 9.2 mph14.8 kmh 30.05 in1017.6 mb 0.00 in0.0 mm 0.00 in/hr0.0 mm/hr 0.00 in0.0 mm
11:17 PM 55.4°F13.0°C 49.6°F9.8°C 81% 6.0 mph ESE9.7 kmh ESE 9.2 mph14.8 kmh 30.05 in1017.6 mb 0.00 in0.0 mm 0.00 in/hr0.0 mm/hr 0.00 in0.0 mm
11:18 PM 55.4°F13.0°C 49.6°F9.8°C 81% 6.0 mph ESE9.7 kmh ESE 9.2 mph14.8 kmh 30.05 in1017.6 mb 0.00 in0.0 mm 0.00 in/hr0.0 mm/hr 0.00 in0.0 mm
11:19 PM 55.4°F13.0°C 49.6°F9.8°C 81% 7.6 mph ESE12.2 kmh ESE 9.8 mph15.8 kmh 30.05 in1017.6 mb 0.00 in0.0 mm 0.00 in/hr0.0 mm/hr 0.00 in0.0 mm
11:20 PM 55.4°F13.0°C 49.6°F9.8°C 81% 7.6 mph ESE12.2 kmh ESE 9.8 mph15.8 kmh 30.05 in1017.6 mb 0.00 in0.0 mm 0.00 in/hr0.0 mm/hr 0.00 in0.0 mm
11:21 PM 55.4°F13.0°C 49.6°F9.8°C 81% 8.3 mph E13.4 kmh E 9.8 mph15.8 kmh 30.05 in1017.6 mb 0.00 in0.0 mm 0.00 in/hr0.0 mm/hr 0.00 in0.0 mm
11:22 PM 55.4°F13.0°C 49.6°F9.8°C 81% 8.3 mph E13.4 kmh E 9.8 mph15.8 kmh 30.05 in1017.6 mb 0.00 in0.0 mm 0.00 in/hr0.0 mm/hr 0.00 in0.0 mm
11:23 PM 55.4°F13.0°C 49.6°F9.8°C 81% 8.3 mph E13.4 kmh E 10.7 mph17.2 kmh 30.05 in1017.6 mb 0.00 in0.0 mm 0.00 in/hr0.0 mm/hr 0.00 in0.0 mm
11:24 PM 55.4°F13.0°C 49.6°F9.8°C 81% 8.3 mph ESE13.4 kmh ESE 10.7 mph17.2 kmh 30.05 in1017.6 mb 0.00 in0.0 mm 0.00 in/hr0.0 mm/hr 0.00 in0.0 mm
11:25 PM 55.4°F13.0°C 49.6°F9.8°C 81% 6.9 mph ESE11.1 kmh ESE 10.7 mph17.2 kmh 30.05 in1017.6 mb 0.00 in0.0 mm 0.00 in/hr0.0 mm/hr 0.00 in0.0 mm
11:26 PM 55.4°F13.0°C 49.6°F9.8°C 81% 6.9 mph ESE11.1 kmh ESE 10.7 mph17.2 kmh 30.06 in1017.9 mb 0.00 in0.0 mm 0.00 in/hr0.0 mm/hr 0.00 in0.0 mm
11:27 PM 55.4°F13.0°C 49.6°F9.8°C 81% 6.9 mph ESE11.1 kmh ESE 10.7 mph17.2 kmh 30.06 in1017.9 mb 0.00 in0.0 mm 0.00 in/hr0.0 mm/hr 0.00 in0.0 mm
11:28 PM 55.4°F13.0°C 49.6°F9.8°C 81% 6.9 mph ESE11.1 kmh ESE 10.7 mph17.2 kmh 30.05 in1017.6 mb 0.00 in0.0 mm 0.00 in/hr0.0 mm/hr 0.00 in0.0 mm
11:29 PM 55.4°F13.0°C 49.6°F9.8°C 81% 6.9 mph ESE11.1 kmh ESE 10.7 mph17.2 kmh 30.06 in1017.9 mb 0.00 in0.0 mm 0.00 in/hr0.0 mm/hr 0.00 in0.0 mm
11:30 PM 55.4°F13.0°C 49.6°F9.8°C 81% 6.9 mph SE11.1 kmh SE 10.7 mph17.2 kmh 30.05 in1017.6 mb 0.00 in0.0 mm 0.00 in/hr0.0 mm/hr 0.00 in0.0 mm
11:31 PM 55.4°F13.0°C 49.6°F9.8°C 81% 6.0 mph SE9.7 kmh SE 10.7 mph17.2 kmh 30.06 in1017.9 mb 0.00 in0.0 mm 0.00 in/hr0.0 mm/hr 0.00 in0.0 mm
11:32 PM 55.4°F13.0°C 49.6°F9.8°C 81% 6.0 mph SE9.7 kmh SE 10.7 mph17.2 kmh 30.05 in1017.6 mb 0.00 in0.0 mm 0.00 in/hr0.0 mm/hr 0.00 in0.0 mm
11:33 PM 55.4°F13.0°C 49.6°F9.8°C 81% 6.9 mph SE11.1 kmh SE 10.7 mph17.2 kmh 30.06 in1017.9 mb 0.00 in0.0 mm 0.00 in/hr0.0 mm/hr 0.00 in0.0 mm
11:34 PM 55.4°F13.0°C 49.6°F9.8°C 81% 6.9 mph SE11.1 kmh SE 9.8 mph15.8 kmh 30.06 in1017.9 mb 0.00 in0.0 mm 0.00 in/hr0.0 mm/hr 0.00 in0.0 mm
11:35 PM 55.2°F12.9°C 49.1°F9.5°C 80% 7.6 mph SE12.2 kmh SE 9.8 mph15.8 kmh 30.05 in1017.6 mb 0.00 in0.0 mm 0.00 in/hr0.0 mm/hr 0.00 in0.0 mm
11:36 PM 55.2°F12.9°C 49.1°F9.5°C 80% 8.3 mph SE13.4 kmh SE 9.2 mph14.8 kmh 30.06 in1017.9 mb 0.00 in0.0 mm 0.00 in/hr0.0 mm/hr 0.00 in0.0 mm
11:37 PM 55.2°F12.9°C 49.1°F9.5°C 80% 7.6 mph SE12.2 kmh SE 9.2 mph14.8 kmh 30.05 in1017.6 mb 0.00 in0.0 mm 0.00 in/hr0.0 mm/hr 0.00 in0.0 mm
11:38 PM 55.2°F12.9°C 49.1°F9.5°C 80% 7.6 mph SE12.2 kmh SE 9.8 mph15.8 kmh 30.05 in1017.6 mb 0.00 in0.0 mm 0.00 in/hr0.0 mm/hr 0.00 in0.0 mm
11:39 PM 55.4°F13.0°C 49.6°F9.8°C 81% 8.3 mph SE13.4 kmh SE 9.8 mph15.8 kmh 30.05 in1017.6 mb 0.00 in0.0 mm 0.00 in/hr0.0 mm/hr 0.00 in0.0 mm
11:40 PM 55.4°F13.0°C 49.6°F9.8°C 81% 8.3 mph SE13.4 kmh SE 9.8 mph15.8 kmh 30.05 in1017.6 mb 0.00 in0.0 mm 0.00 in/hr0.0 mm/hr 0.00 in0.0 mm
11:41 PM 55.4°F13.0°C 49.6°F9.8°C 81% 6.9 mph ESE11.1 kmh ESE 9.8 mph15.8 kmh 30.06 in1017.9 mb 0.00 in0.0 mm 0.00 in/hr0.0 mm/hr 0.00 in0.0 mm
11:42 PM 55.4°F13.0°C 49.6°F9.8°C 81% 8.3 mph SE13.4 kmh SE 10.7 mph17.2 kmh 30.06 in1017.9 mb 0.00 in0.0 mm 0.00 in/hr0.0 mm/hr 0.00 in0.0 mm
11:43 PM 55.4°F13.0°C 49.6°F9.8°C 81% 9.2 mph SE14.8 kmh SE 10.7 mph17.2 kmh 30.06 in1017.9 mb 0.00 in0.0 mm 0.00 in/hr0.0 mm/hr 0.00 in0.0 mm
11:44 PM 55.4°F13.0°C 49.6°F9.8°C 81% 8.3 mph SE13.4 kmh SE 11.4 mph18.3 kmh 30.05 in1017.6 mb 0.00 in0.0 mm 0.00 in/hr0.0 mm/hr 0.00 in0.0 mm
11:45 PM 55.4°F13.0°C 49.6°F9.8°C 81% 8.3 mph SE13.4 kmh SE 11.4 mph18.3 kmh 30.06 in1017.9 mb 0.00 in0.0 mm 0.00 in/hr0.0 mm/hr 0.00 in0.0 mm
11:46 PM 55.4°F13.0°C 49.6°F9.8°C 81% 8.3 mph SE13.4 kmh SE 11.4 mph18.3 kmh 30.06 in1017.9 mb 0.00 in0.0 mm 0.00 in/hr0.0 mm/hr 0.00 in0.0 mm
11:47 PM 55.4°F13.0°C 49.6°F9.8°C 81% 8.3 mph SE13.4 kmh SE 11.4 mph18.3 kmh 30.06 in1017.9 mb 0.00 in0.0 mm 0.00 in/hr0.0 mm/hr 0.00 in0.0 mm
11:48 PM 55.4°F13.0°C 49.6°F9.8°C 81% 8.3 mph SE13.4 kmh SE 11.4 mph18.3 kmh 30.06 in1017.9 mb 0.00 in0.0 mm 0.00 in/hr0.0 mm/hr 0.00 in0.0 mm
11:49 PM 55.4°F13.0°C 49.6°F9.8°C 81% 9.2 mph SE14.8 kmh SE 11.4 mph18.3 kmh 30.06 in1017.9 mb 0.00 in0.0 mm 0.00 in/hr0.0 mm/hr 0.00 in0.0 mm
11:50 PM 55.4°F13.0°C 49.6°F9.8°C 81% 9.2 mph SE14.8 kmh SE 11.4 mph18.3 kmh 30.05 in1017.6 mb 0.00 in0.0 mm 0.00 in/hr0.0 mm/hr 0.00 in0.0 mm
11:51 PM 55.4°F13.0°C 49.6°F9.8°C 81% 9.8 mph SE15.8 kmh SE 12.1 mph19.5 kmh 30.05 in1017.6 mb 0.00 in0.0 mm 0.00 in/hr0.0 mm/hr 0.00 in0.0 mm
11:52 PM 55.4°F13.0°C 49.6°F9.8°C 81% 9.2 mph SE14.8 kmh SE 12.1 mph19.5 kmh 30.06 in1017.9 mb 0.00 in0.0 mm 0.00 in/hr0.0 mm/hr 0.00 in0.0 mm
11:53 PM 55.4°F13.0°C 49.6°F9.8°C 81% 9.8 mph SE15.8 kmh SE 12.1 mph19.5 kmh 30.06 in1017.9 mb 0.00 in0.0 mm 0.00 in/hr0.0 mm/hr 0.00 in0.0 mm
11:54 PM 55.4°F13.0°C 49.6°F9.8°C 81% 9.8 mph SE15.8 kmh SE 12.1 mph19.5 kmh 30.05 in1017.6 mb 0.00 in0.0 mm 0.00 in/hr0.0 mm/hr 0.00 in0.0 mm
11:55 PM 55.4°F13.0°C 49.6°F9.8°C 81% 9.8 mph SE15.8 kmh SE 12.1 mph19.5 kmh 30.05 in1017.6 mb 0.00 in0.0 mm 0.00 in/hr0.0 mm/hr 0.00 in0.0 mm
11:56 PM 55.4°F13.0°C 49.6°F9.8°C 81% 9.8 mph SE15.8 kmh SE 12.1 mph19.5 kmh 30.05 in1017.6 mb 0.00 in0.0 mm 0.00 in/hr0.0 mm/hr 0.00 in0.0 mm
11:57 PM 55.4°F13.0°C 49.6°F9.8°C 81% 9.2 mph SE14.8 kmh SE 12.1 mph19.5 kmh 30.04 in1017.3 mb 0.00 in0.0 mm 0.00 in/hr0.0 mm/hr 0.00 in0.0 mm
11:58 PM 55.6°F13.1°C 49.8°F9.9°C 81% 8.3 mph SE13.4 kmh SE 12.1 mph19.5 kmh 30.04 in1017.3 mb 0.00 in0.0 mm 0.00 in/hr0.0 mm/hr 0.00 in0.0 mm
11:59 PM 55.6°F13.1°C 49.8°F9.9°C 81% 9.8 mph SE15.8 kmh SE 12.1 mph19.5 kmh 30.04 in1017.3 mb 0.00 in0.0 mm 0.00 in/hr0.0 mm/hr 0.00 in0.0 mm